<?xml version="1.0" encoding="UTF-8" standalone="no" ?>
<gpx xmlns="http://www.topografix.com/GPX/1/1" xmlns:xsi="http://www.w3.org/2001/XMLSchema-instance" xsi:schemaLocation="http://www.topografix.com/GPX/1/1 http://www.topografix.com/GPX/1/1/gpx.xsd" version="1.1" creator="VisuGPX - https://www.visugpx.com">
  <metadata>
    <name>Cirque de Ladoye</name>
    <desc><![CDATA[La reculée ou Cirque de Ladoye est plus sauvage que celui de Baume et les grimpettes sont tout aussi pentues et étroites par endroits.....
Et quand vous croisez un Vététiste qui a perdu le contrôle de sa bécanne il ne vous reste qu'une solution, vous jeter dans le vide.....ou plutôt dans le fossé.]]></desc>
  </metadata>
  <trk>
    <name><![CDATA[Tracé actuel: 21 MAI 2017 08:52]]></name>
    <trkseg>
      <trkpt lat="46.74737" lon="5.66611">
        <ele>305.36</ele>
        <time>2017-05-21T06:52:57Z</time>
      </trkpt>
      <trkpt lat="46.74738" lon="5.66614">
        <ele>307.28</ele>
        <time>2017-05-21T06:53:14Z</time>
      </trkpt>
      <trkpt lat="46.74741" lon="5.66624">
        <ele>306.32</ele>
        <time>2017-05-21T06:53:22Z</time>
      </trkpt>
      <trkpt lat="46.74744" lon="5.66639">
        <ele>306.8</ele>
        <time>2017-05-21T06:53:33Z</time>
      </trkpt>
      <trkpt lat="46.74748" lon="5.66658">
        <ele>306.8</ele>
        <time>2017-05-21T06:53:45Z</time>
      </trkpt>
      <trkpt lat="46.74749" lon="5.66669">
        <ele>307.28</ele>
        <time>2017-05-21T06:53:54Z</time>
      </trkpt>
      <trkpt lat="46.74754" lon="5.6669">
        <ele>307.76</ele>
        <time>2017-05-21T06:54:10Z</time>
      </trkpt>
      <trkpt lat="46.74755" lon="5.66694">
        <ele>307.76</ele>
        <time>2017-05-21T06:54:13Z</time>
      </trkpt>
      <trkpt lat="46.74757" lon="5.66721">
        <ele>308.24</ele>
        <time>2017-05-21T06:54:30Z</time>
      </trkpt>
      <trkpt lat="46.74756" lon="5.66732">
        <ele>308.72</ele>
        <time>2017-05-21T06:54:38Z</time>
      </trkpt>
      <trkpt lat="46.74763" lon="5.66745">
        <ele>308.72</ele>
        <time>2017-05-21T06:54:47Z</time>
      </trkpt>
      <trkpt lat="46.74768" lon="5.66766">
        <ele>309.2</ele>
        <time>2017-05-21T06:55:01Z</time>
      </trkpt>
      <trkpt lat="46.74772" lon="5.6679">
        <ele>309.2</ele>
        <time>2017-05-21T06:55:17Z</time>
      </trkpt>
      <trkpt lat="46.74777" lon="5.66812">
        <ele>309.2</ele>
        <time>2017-05-21T06:55:31Z</time>
      </trkpt>
      <trkpt lat="46.74781" lon="5.66829">
        <ele>309.68</ele>
        <time>2017-05-21T06:55:45Z</time>
      </trkpt>
      <trkpt lat="46.74783" lon="5.66854">
        <ele>310.16</ele>
        <time>2017-05-21T06:55:59Z</time>
      </trkpt>
      <trkpt lat="46.74782" lon="5.66875">
        <ele>311.12</ele>
        <time>2017-05-21T06:56:14Z</time>
      </trkpt>
      <trkpt lat="46.74785" lon="5.66892">
        <ele>312.09</ele>
        <time>2017-05-21T06:56:28Z</time>
      </trkpt>
      <trkpt lat="46.7479" lon="5.669">
        <ele>312.09</ele>
        <time>2017-05-21T06:56:40Z</time>
      </trkpt>
      <trkpt lat="46.74802" lon="5.66912">
        <ele>312.57</ele>
        <time>2017-05-21T06:56:53Z</time>
      </trkpt>
      <trkpt lat="46.74813" lon="5.6693">
        <ele>312.09</ele>
        <time>2017-05-21T06:57:08Z</time>
      </trkpt>
      <trkpt lat="46.7483" lon="5.6695">
        <ele>311.12</ele>
        <time>2017-05-21T06:57:23Z</time>
      </trkpt>
      <trkpt lat="46.74832" lon="5.66954">
        <ele>311.6</ele>
        <time>2017-05-21T06:57:25Z</time>
      </trkpt>
      <trkpt lat="46.74838" lon="5.66971">
        <ele>311.6</ele>
        <time>2017-05-21T06:57:38Z</time>
      </trkpt>
      <trkpt lat="46.74838" lon="5.66974">
        <ele>311.6</ele>
        <time>2017-05-21T06:57:40Z</time>
      </trkpt>
      <trkpt lat="46.74849" lon="5.66983">
        <ele>312.09</ele>
        <time>2017-05-21T06:57:47Z</time>
      </trkpt>
      <trkpt lat="46.74869" lon="5.66991">
        <ele>311.12</ele>
        <time>2017-05-21T06:58:01Z</time>
      </trkpt>
      <trkpt lat="46.74874" lon="5.66991">
        <ele>311.6</ele>
        <time>2017-05-21T06:58:02Z</time>
      </trkpt>
      <trkpt lat="46.74898" lon="5.67003">
        <ele>312.09</ele>
        <time>2017-05-21T06:58:17Z</time>
      </trkpt>
      <trkpt lat="46.749" lon="5.67005">
        <ele>311.6</ele>
        <time>2017-05-21T06:58:19Z</time>
      </trkpt>
      <trkpt lat="46.74912" lon="5.67015">
        <ele>312.57</ele>
        <time>2017-05-21T06:58:33Z</time>
      </trkpt>
      <trkpt lat="46.74922" lon="5.67021">
        <ele>313.53</ele>
        <time>2017-05-21T06:58:43Z</time>
      </trkpt>
      <trkpt lat="46.74939" lon="5.67031">
        <ele>314.01</ele>
        <time>2017-05-21T06:58:59Z</time>
      </trkpt>
      <trkpt lat="46.74958" lon="5.67042">
        <ele>314.49</ele>
        <time>2017-05-21T06:59:18Z</time>
      </trkpt>
      <trkpt lat="46.74981" lon="5.67058">
        <ele>315.45</ele>
        <time>2017-05-21T06:59:35Z</time>
      </trkpt>
      <trkpt lat="46.74992" lon="5.67063">
        <ele>316.41</ele>
        <time>2017-05-21T06:59:49Z</time>
      </trkpt>
      <trkpt lat="46.75001" lon="5.67054">
        <ele>316.89</ele>
        <time>2017-05-21T07:00:05Z</time>
      </trkpt>
      <trkpt lat="46.75008" lon="5.67046">
        <ele>317.85</ele>
        <time>2017-05-21T07:00:17Z</time>
      </trkpt>
      <trkpt lat="46.75014" lon="5.67034">
        <ele>318.33</ele>
        <time>2017-05-21T07:00:26Z</time>
      </trkpt>
      <trkpt lat="46.75023" lon="5.67021">
        <ele>320.74</ele>
        <time>2017-05-21T07:00:40Z</time>
      </trkpt>
      <trkpt lat="46.7504" lon="5.67031">
        <ele>321.7</ele>
        <time>2017-05-21T07:00:58Z</time>
      </trkpt>
      <trkpt lat="46.7505" lon="5.67035">
        <ele>323.62</ele>
        <time>2017-05-21T07:01:14Z</time>
      </trkpt>
      <trkpt lat="46.75065" lon="5.67041">
        <ele>324.58</ele>
        <time>2017-05-21T07:01:28Z</time>
      </trkpt>
      <trkpt lat="46.75075" lon="5.67045">
        <ele>326.02</ele>
        <time>2017-05-21T07:01:37Z</time>
      </trkpt>
      <trkpt lat="46.75093" lon="5.67054">
        <ele>327.47</ele>
        <time>2017-05-21T07:01:55Z</time>
      </trkpt>
      <trkpt lat="46.75105" lon="5.67063">
        <ele>329.87</ele>
        <time>2017-05-21T07:02:11Z</time>
      </trkpt>
      <trkpt lat="46.75113" lon="5.67068">
        <ele>331.31</ele>
        <time>2017-05-21T07:02:24Z</time>
      </trkpt>
      <trkpt lat="46.75126" lon="5.67072">
        <ele>333.23</ele>
        <time>2017-05-21T07:02:38Z</time>
      </trkpt>
      <trkpt lat="46.75132" lon="5.67074">
        <ele>334.2</ele>
        <time>2017-05-21T07:02:46Z</time>
      </trkpt>
      <trkpt lat="46.75141" lon="5.67061">
        <ele>336.12</ele>
        <time>2017-05-21T07:03:01Z</time>
      </trkpt>
      <trkpt lat="46.75139" lon="5.67047">
        <ele>337.56</ele>
        <time>2017-05-21T07:03:13Z</time>
      </trkpt>
      <trkpt lat="46.75132" lon="5.67032">
        <ele>339</ele>
        <time>2017-05-21T07:03:26Z</time>
      </trkpt>
      <trkpt lat="46.75131" lon="5.67031">
        <ele>338.52</ele>
        <time>2017-05-21T07:03:27Z</time>
      </trkpt>
      <trkpt lat="46.7513" lon="5.67027">
        <ele>339</ele>
        <time>2017-05-21T07:03:30Z</time>
      </trkpt>
      <trkpt lat="46.75128" lon="5.67022">
        <ele>339</ele>
        <time>2017-05-21T07:03:42Z</time>
      </trkpt>
      <trkpt lat="46.75127" lon="5.67013">
        <ele>339.96</ele>
        <time>2017-05-21T07:04:03Z</time>
      </trkpt>
      <trkpt lat="46.7513" lon="5.66997">
        <ele>340.92</ele>
        <time>2017-05-21T07:04:17Z</time>
      </trkpt>
      <trkpt lat="46.75138" lon="5.66983">
        <ele>342.37</ele>
        <time>2017-05-21T07:04:32Z</time>
      </trkpt>
      <trkpt lat="46.75143" lon="5.66975">
        <ele>343.81</ele>
        <time>2017-05-21T07:04:43Z</time>
      </trkpt>
      <trkpt lat="46.75154" lon="5.66971">
        <ele>345.25</ele>
        <time>2017-05-21T07:04:58Z</time>
      </trkpt>
      <trkpt lat="46.75164" lon="5.66969">
        <ele>347.65</ele>
        <time>2017-05-21T07:05:13Z</time>
      </trkpt>
      <trkpt lat="46.75178" lon="5.66968">
        <ele>349.58</ele>
        <time>2017-05-21T07:05:29Z</time>
      </trkpt>
      <trkpt lat="46.75189" lon="5.66967">
        <ele>351.02</ele>
        <time>2017-05-21T07:05:42Z</time>
      </trkpt>
      <trkpt lat="46.75203" lon="5.66967">
        <ele>352.46</ele>
        <time>2017-05-21T07:05:58Z</time>
      </trkpt>
      <trkpt lat="46.75208" lon="5.66971">
        <ele>353.9</ele>
        <time>2017-05-21T07:06:12Z</time>
      </trkpt>
      <trkpt lat="46.75218" lon="5.6697">
        <ele>355.83</ele>
        <time>2017-05-21T07:06:27Z</time>
      </trkpt>
      <trkpt lat="46.75227" lon="5.66968">
        <ele>357.27</ele>
        <time>2017-05-21T07:06:42Z</time>
      </trkpt>
      <trkpt lat="46.75243" lon="5.66967">
        <ele>358.71</ele>
        <time>2017-05-21T07:06:59Z</time>
      </trkpt>
      <trkpt lat="46.75271" lon="5.66964">
        <ele>360.15</ele>
        <time>2017-05-21T07:07:12Z</time>
      </trkpt>
      <trkpt lat="46.75287" lon="5.66967">
        <ele>362.07</ele>
        <time>2017-05-21T07:07:26Z</time>
      </trkpt>
      <trkpt lat="46.75296" lon="5.6697">
        <ele>362.55</ele>
        <time>2017-05-21T07:07:36Z</time>
      </trkpt>
      <trkpt lat="46.75307" lon="5.66973">
        <ele>363.52</ele>
        <time>2017-05-21T07:07:49Z</time>
      </trkpt>
      <trkpt lat="46.75321" lon="5.66973">
        <ele>364.48</ele>
        <time>2017-05-21T07:08:03Z</time>
      </trkpt>
      <trkpt lat="46.75334" lon="5.66977">
        <ele>365.92</ele>
        <time>2017-05-21T07:08:18Z</time>
      </trkpt>
      <trkpt lat="46.75347" lon="5.66981">
        <ele>367.36</ele>
        <time>2017-05-21T07:08:31Z</time>
      </trkpt>
      <trkpt lat="46.75359" lon="5.66986">
        <ele>368.8</ele>
        <time>2017-05-21T07:08:46Z</time>
      </trkpt>
      <trkpt lat="46.75378" lon="5.66993">
        <ele>370.24</ele>
        <time>2017-05-21T07:09:03Z</time>
      </trkpt>
      <trkpt lat="46.75396" lon="5.67">
        <ele>371.21</ele>
        <time>2017-05-21T07:09:19Z</time>
      </trkpt>
      <trkpt lat="46.7541" lon="5.67002">
        <ele>372.17</ele>
        <time>2017-05-21T07:09:31Z</time>
      </trkpt>
      <trkpt lat="46.75423" lon="5.66999">
        <ele>373.13</ele>
        <time>2017-05-21T07:09:45Z</time>
      </trkpt>
      <trkpt lat="46.7543" lon="5.66998">
        <ele>373.13</ele>
        <time>2017-05-21T07:09:50Z</time>
      </trkpt>
      <trkpt lat="46.75444" lon="5.66997">
        <ele>375.05</ele>
        <time>2017-05-21T07:10:04Z</time>
      </trkpt>
      <trkpt lat="46.75457" lon="5.66995">
        <ele>376.97</ele>
        <time>2017-05-21T07:10:18Z</time>
      </trkpt>
      <trkpt lat="46.75468" lon="5.66991">
        <ele>377.94</ele>
        <time>2017-05-21T07:10:33Z</time>
      </trkpt>
      <trkpt lat="46.75482" lon="5.66984">
        <ele>379.38</ele>
        <time>2017-05-21T07:10:47Z</time>
      </trkpt>
      <trkpt lat="46.75495" lon="5.66976">
        <ele>380.34</ele>
        <time>2017-05-21T07:11:01Z</time>
      </trkpt>
      <trkpt lat="46.75504" lon="5.66971">
        <ele>382.26</ele>
        <time>2017-05-21T07:11:13Z</time>
      </trkpt>
      <trkpt lat="46.75515" lon="5.66965">
        <ele>383.7</ele>
        <time>2017-05-21T07:11:25Z</time>
      </trkpt>
      <trkpt lat="46.75525" lon="5.66961">
        <ele>385.63</ele>
        <time>2017-05-21T07:11:39Z</time>
      </trkpt>
      <trkpt lat="46.75537" lon="5.66954">
        <ele>387.07</ele>
        <time>2017-05-21T07:11:53Z</time>
      </trkpt>
      <trkpt lat="46.75552" lon="5.66945">
        <ele>388.51</ele>
        <time>2017-05-21T07:12:09Z</time>
      </trkpt>
      <trkpt lat="46.75564" lon="5.66937">
        <ele>390.43</ele>
        <time>2017-05-21T07:12:24Z</time>
      </trkpt>
      <trkpt lat="46.75565" lon="5.66935">
        <ele>391.39</ele>
        <time>2017-05-21T07:12:38Z</time>
      </trkpt>
      <trkpt lat="46.75571" lon="5.66939">
        <ele>393.32</ele>
        <time>2017-05-21T07:12:53Z</time>
      </trkpt>
      <trkpt lat="46.75573" lon="5.66945">
        <ele>395.24</ele>
        <time>2017-05-21T07:13:04Z</time>
      </trkpt>
      <trkpt lat="46.75579" lon="5.66953">
        <ele>397.16</ele>
        <time>2017-05-21T07:13:19Z</time>
      </trkpt>
      <trkpt lat="46.7558" lon="5.66954">
        <ele>397.16</ele>
        <time>2017-05-21T07:13:22Z</time>
      </trkpt>
      <trkpt lat="46.75597" lon="5.66959">
        <ele>398.6</ele>
        <time>2017-05-21T07:13:34Z</time>
      </trkpt>
      <trkpt lat="46.75624" lon="5.66968">
        <ele>400.05</ele>
        <time>2017-05-21T07:13:46Z</time>
      </trkpt>
      <trkpt lat="46.75644" lon="5.66971">
        <ele>402.45</ele>
        <time>2017-05-21T07:14:00Z</time>
      </trkpt>
      <trkpt lat="46.75652" lon="5.66966">
        <ele>402.93</ele>
        <time>2017-05-21T07:14:14Z</time>
      </trkpt>
      <trkpt lat="46.75654" lon="5.66965">
        <ele>402.45</ele>
        <time>2017-05-21T07:14:31Z</time>
      </trkpt>
      <trkpt lat="46.75654" lon="5.66964">
        <ele>402.93</ele>
        <time>2017-05-21T07:14:49Z</time>
      </trkpt>
      <trkpt lat="46.75654" lon="5.66964">
        <ele>402.45</ele>
        <time>2017-05-21T07:15:05Z</time>
      </trkpt>
      <trkpt lat="46.75655" lon="5.66964">
        <ele>402.45</ele>
        <time>2017-05-21T07:15:36Z</time>
      </trkpt>
      <trkpt lat="46.75656" lon="5.66965">
        <ele>402.93</ele>
        <time>2017-05-21T07:15:54Z</time>
      </trkpt>
      <trkpt lat="46.75656" lon="5.66966">
        <ele>402.45</ele>
        <time>2017-05-21T07:16:11Z</time>
      </trkpt>
      <trkpt lat="46.75656" lon="5.66966">
        <ele>402.45</ele>
        <time>2017-05-21T07:16:31Z</time>
      </trkpt>
      <trkpt lat="46.75662" lon="5.66971">
        <ele>404.37</ele>
        <time>2017-05-21T07:16:48Z</time>
      </trkpt>
      <trkpt lat="46.75677" lon="5.66975">
        <ele>406.77</ele>
        <time>2017-05-21T07:17:05Z</time>
      </trkpt>
      <trkpt lat="46.75687" lon="5.66977">
        <ele>409.18</ele>
        <time>2017-05-21T07:17:22Z</time>
      </trkpt>
      <trkpt lat="46.75703" lon="5.66979">
        <ele>410.62</ele>
        <time>2017-05-21T07:17:39Z</time>
      </trkpt>
      <trkpt lat="46.75721" lon="5.6699">
        <ele>412.54</ele>
        <time>2017-05-21T07:17:56Z</time>
      </trkpt>
      <trkpt lat="46.75731" lon="5.67001">
        <ele>413.98</ele>
        <time>2017-05-21T07:18:11Z</time>
      </trkpt>
      <trkpt lat="46.75749" lon="5.67002">
        <ele>416.39</ele>
        <time>2017-05-21T07:18:27Z</time>
      </trkpt>
      <trkpt lat="46.7576" lon="5.66999">
        <ele>417.83</ele>
        <time>2017-05-21T07:18:43Z</time>
      </trkpt>
      <trkpt lat="46.75767" lon="5.66985">
        <ele>419.27</ele>
        <time>2017-05-21T07:19:02Z</time>
      </trkpt>
      <trkpt lat="46.75795" lon="5.66977">
        <ele>420.71</ele>
        <time>2017-05-21T07:19:19Z</time>
      </trkpt>
      <trkpt lat="46.75804" lon="5.66976">
        <ele>422.16</ele>
        <time>2017-05-21T07:19:34Z</time>
      </trkpt>
      <trkpt lat="46.75812" lon="5.66978">
        <ele>424.08</ele>
        <time>2017-05-21T07:19:50Z</time>
      </trkpt>
      <trkpt lat="46.75827" lon="5.66984">
        <ele>425.52</ele>
        <time>2017-05-21T07:20:05Z</time>
      </trkpt>
      <trkpt lat="46.75846" lon="5.66988">
        <ele>426.96</ele>
        <time>2017-05-21T07:20:20Z</time>
      </trkpt>
      <trkpt lat="46.75853" lon="5.66996">
        <ele>428.89</ele>
        <time>2017-05-21T07:20:36Z</time>
      </trkpt>
      <trkpt lat="46.75865" lon="5.66998">
        <ele>431.29</ele>
        <time>2017-05-21T07:20:55Z</time>
      </trkpt>
      <trkpt lat="46.75879" lon="5.66998">
        <ele>433.21</ele>
        <time>2017-05-21T07:21:09Z</time>
      </trkpt>
      <trkpt lat="46.75894" lon="5.67001">
        <ele>434.65</ele>
        <time>2017-05-21T07:21:27Z</time>
      </trkpt>
      <trkpt lat="46.75911" lon="5.67005">
        <ele>436.58</ele>
        <time>2017-05-21T07:21:45Z</time>
      </trkpt>
      <trkpt lat="46.75927" lon="5.67009">
        <ele>438.5</ele>
        <time>2017-05-21T07:22:02Z</time>
      </trkpt>
      <trkpt lat="46.75936" lon="5.67018">
        <ele>441.38</ele>
        <time>2017-05-21T07:22:20Z</time>
      </trkpt>
      <trkpt lat="46.75951" lon="5.67017">
        <ele>443.31</ele>
        <time>2017-05-21T07:22:40Z</time>
      </trkpt>
      <trkpt lat="46.75965" lon="5.67014">
        <ele>445.23</ele>
        <time>2017-05-21T07:22:55Z</time>
      </trkpt>
      <trkpt lat="46.75977" lon="5.67016">
        <ele>447.15</ele>
        <time>2017-05-21T07:23:10Z</time>
      </trkpt>
      <trkpt lat="46.75989" lon="5.67021">
        <ele>449.07</ele>
        <time>2017-05-21T07:23:27Z</time>
      </trkpt>
      <trkpt lat="46.76011" lon="5.67032">
        <ele>452.44</ele>
        <time>2017-05-21T07:23:49Z</time>
      </trkpt>
      <trkpt lat="46.7602" lon="5.67039">
        <ele>454.36</ele>
        <time>2017-05-21T07:24:06Z</time>
      </trkpt>
      <trkpt lat="46.7603" lon="5.67043">
        <ele>456.28</ele>
        <time>2017-05-21T07:24:23Z</time>
      </trkpt>
      <trkpt lat="46.76048" lon="5.67039">
        <ele>458.21</ele>
        <time>2017-05-21T07:24:40Z</time>
      </trkpt>
      <trkpt lat="46.76062" lon="5.67035">
        <ele>460.61</ele>
        <time>2017-05-21T07:24:55Z</time>
      </trkpt>
      <trkpt lat="46.76073" lon="5.67035">
        <ele>462.53</ele>
        <time>2017-05-21T07:25:13Z</time>
      </trkpt>
      <trkpt lat="46.76089" lon="5.67039">
        <ele>464.93</ele>
        <time>2017-05-21T07:25:28Z</time>
      </trkpt>
      <trkpt lat="46.76101" lon="5.67054">
        <ele>466.38</ele>
        <time>2017-05-21T07:25:43Z</time>
      </trkpt>
      <trkpt lat="46.7611" lon="5.67064">
        <ele>468.78</ele>
        <time>2017-05-21T07:25:59Z</time>
      </trkpt>
      <trkpt lat="46.7612" lon="5.6707">
        <ele>470.22</ele>
        <time>2017-05-21T07:26:16Z</time>
      </trkpt>
      <trkpt lat="46.76131" lon="5.67075">
        <ele>472.14</ele>
        <time>2017-05-21T07:26:31Z</time>
      </trkpt>
      <trkpt lat="46.76144" lon="5.67081">
        <ele>474.07</ele>
        <time>2017-05-21T07:26:46Z</time>
      </trkpt>
      <trkpt lat="46.76155" lon="5.67088">
        <ele>475.51</ele>
        <time>2017-05-21T07:27:01Z</time>
      </trkpt>
      <trkpt lat="46.7617" lon="5.67093">
        <ele>476.95</ele>
        <time>2017-05-21T07:27:16Z</time>
      </trkpt>
      <trkpt lat="46.76182" lon="5.67099">
        <ele>478.87</ele>
        <time>2017-05-21T07:27:31Z</time>
      </trkpt>
      <trkpt lat="46.76196" lon="5.67117">
        <ele>480.32</ele>
        <time>2017-05-21T07:27:45Z</time>
      </trkpt>
      <trkpt lat="46.76204" lon="5.67131">
        <ele>481.76</ele>
        <time>2017-05-21T07:27:58Z</time>
      </trkpt>
      <trkpt lat="46.76217" lon="5.67135">
        <ele>483.2</ele>
        <time>2017-05-21T07:28:13Z</time>
      </trkpt>
      <trkpt lat="46.76225" lon="5.67138">
        <ele>484.64</ele>
        <time>2017-05-21T07:28:25Z</time>
      </trkpt>
      <trkpt lat="46.76226" lon="5.67138">
        <ele>484.64</ele>
        <time>2017-05-21T07:28:26Z</time>
      </trkpt>
      <trkpt lat="46.76237" lon="5.67142">
        <ele>486.08</ele>
        <time>2017-05-21T07:28:38Z</time>
      </trkpt>
      <trkpt lat="46.76249" lon="5.67145">
        <ele>487.53</ele>
        <time>2017-05-21T07:28:51Z</time>
      </trkpt>
      <trkpt lat="46.76261" lon="5.67158">
        <ele>488.49</ele>
        <time>2017-05-21T07:29:05Z</time>
      </trkpt>
      <trkpt lat="46.76268" lon="5.67173">
        <ele>489.93</ele>
        <time>2017-05-21T07:29:20Z</time>
      </trkpt>
      <trkpt lat="46.7628" lon="5.67188">
        <ele>491.37</ele>
        <time>2017-05-21T07:29:36Z</time>
      </trkpt>
      <trkpt lat="46.76289" lon="5.67195">
        <ele>492.81</ele>
        <time>2017-05-21T07:29:51Z</time>
      </trkpt>
      <trkpt lat="46.76299" lon="5.67203">
        <ele>495.22</ele>
        <time>2017-05-21T07:30:08Z</time>
      </trkpt>
      <trkpt lat="46.76307" lon="5.6721">
        <ele>496.66</ele>
        <time>2017-05-21T07:30:27Z</time>
      </trkpt>
      <trkpt lat="46.76317" lon="5.67216">
        <ele>498.1</ele>
        <time>2017-05-21T07:30:44Z</time>
      </trkpt>
      <trkpt lat="46.76332" lon="5.67246">
        <ele>500.02</ele>
        <time>2017-05-21T07:30:59Z</time>
      </trkpt>
      <trkpt lat="46.76341" lon="5.67279">
        <ele>502.43</ele>
        <time>2017-05-21T07:31:16Z</time>
      </trkpt>
      <trkpt lat="46.76343" lon="5.67303">
        <ele>503.39</ele>
        <time>2017-05-21T07:31:29Z</time>
      </trkpt>
      <trkpt lat="46.76351" lon="5.67319">
        <ele>504.83</ele>
        <time>2017-05-21T07:31:45Z</time>
      </trkpt>
      <trkpt lat="46.76357" lon="5.67332">
        <ele>506.75</ele>
        <time>2017-05-21T07:32:00Z</time>
      </trkpt>
      <trkpt lat="46.76367" lon="5.67343">
        <ele>508.67</ele>
        <time>2017-05-21T07:32:15Z</time>
      </trkpt>
      <trkpt lat="46.76381" lon="5.67357">
        <ele>510.12</ele>
        <time>2017-05-21T07:32:30Z</time>
      </trkpt>
      <trkpt lat="46.76394" lon="5.67363">
        <ele>511.56</ele>
        <time>2017-05-21T07:32:47Z</time>
      </trkpt>
      <trkpt lat="46.76407" lon="5.67363">
        <ele>513.48</ele>
        <time>2017-05-21T07:33:03Z</time>
      </trkpt>
      <trkpt lat="46.76422" lon="5.67364">
        <ele>515.88</ele>
        <time>2017-05-21T07:33:23Z</time>
      </trkpt>
      <trkpt lat="46.76427" lon="5.67363">
        <ele>517.33</ele>
        <time>2017-05-21T07:33:43Z</time>
      </trkpt>
      <trkpt lat="46.76458" lon="5.67362">
        <ele>519.25</ele>
        <time>2017-05-21T07:34:02Z</time>
      </trkpt>
      <trkpt lat="46.76477" lon="5.67363">
        <ele>520.69</ele>
        <time>2017-05-21T07:34:18Z</time>
      </trkpt>
      <trkpt lat="46.76486" lon="5.67364">
        <ele>522.13</ele>
        <time>2017-05-21T07:34:30Z</time>
      </trkpt>
      <trkpt lat="46.76499" lon="5.67369">
        <ele>524.06</ele>
        <time>2017-05-21T07:34:43Z</time>
      </trkpt>
      <trkpt lat="46.7651" lon="5.67372">
        <ele>525.5</ele>
        <time>2017-05-21T07:34:57Z</time>
      </trkpt>
      <trkpt lat="46.7652" lon="5.67387">
        <ele>526.46</ele>
        <time>2017-05-21T07:35:10Z</time>
      </trkpt>
      <trkpt lat="46.76531" lon="5.67411">
        <ele>527.9</ele>
        <time>2017-05-21T07:35:24Z</time>
      </trkpt>
      <trkpt lat="46.76534" lon="5.67422">
        <ele>528.86</ele>
        <time>2017-05-21T07:35:32Z</time>
      </trkpt>
      <trkpt lat="46.76539" lon="5.67443">
        <ele>529.34</ele>
        <time>2017-05-21T07:35:47Z</time>
      </trkpt>
      <trkpt lat="46.76545" lon="5.6746">
        <ele>530.79</ele>
        <time>2017-05-21T07:36:02Z</time>
      </trkpt>
      <trkpt lat="46.76549" lon="5.67477">
        <ele>531.75</ele>
        <time>2017-05-21T07:36:14Z</time>
      </trkpt>
      <trkpt lat="46.76552" lon="5.67486">
        <ele>532.23</ele>
        <time>2017-05-21T07:36:27Z</time>
      </trkpt>
      <trkpt lat="46.76556" lon="5.67506">
        <ele>533.67</ele>
        <time>2017-05-21T07:36:42Z</time>
      </trkpt>
      <trkpt lat="46.76554" lon="5.67521">
        <ele>533.19</ele>
        <time>2017-05-21T07:36:51Z</time>
      </trkpt>
      <trkpt lat="46.76564" lon="5.67541">
        <ele>533.67</ele>
        <time>2017-05-21T07:37:07Z</time>
      </trkpt>
      <trkpt lat="46.76569" lon="5.67567">
        <ele>533.19</ele>
        <time>2017-05-21T07:37:20Z</time>
      </trkpt>
      <trkpt lat="46.76574" lon="5.67591">
        <ele>533.19</ele>
        <time>2017-05-21T07:37:33Z</time>
      </trkpt>
      <trkpt lat="46.76578" lon="5.67611">
        <ele>532.71</ele>
        <time>2017-05-21T07:37:44Z</time>
      </trkpt>
      <trkpt lat="46.76585" lon="5.67631">
        <ele>532.23</ele>
        <time>2017-05-21T07:37:58Z</time>
      </trkpt>
      <trkpt lat="46.76591" lon="5.67652">
        <ele>531.27</ele>
        <time>2017-05-21T07:38:13Z</time>
      </trkpt>
      <trkpt lat="46.76593" lon="5.67666">
        <ele>530.79</ele>
        <time>2017-05-21T07:38:21Z</time>
      </trkpt>
      <trkpt lat="46.76599" lon="5.67692">
        <ele>529.82</ele>
        <time>2017-05-21T07:38:36Z</time>
      </trkpt>
      <trkpt lat="46.76605" lon="5.6772">
        <ele>528.38</ele>
        <time>2017-05-21T07:38:54Z</time>
      </trkpt>
      <trkpt lat="46.76609" lon="5.67748">
        <ele>527.9</ele>
        <time>2017-05-21T07:39:10Z</time>
      </trkpt>
      <trkpt lat="46.76613" lon="5.67775">
        <ele>526.46</ele>
        <time>2017-05-21T07:39:25Z</time>
      </trkpt>
      <trkpt lat="46.76616" lon="5.678">
        <ele>525.98</ele>
        <time>2017-05-21T07:39:39Z</time>
      </trkpt>
      <trkpt lat="46.76617" lon="5.67828">
        <ele>525.02</ele>
        <time>2017-05-21T07:39:55Z</time>
      </trkpt>
      <trkpt lat="46.7662" lon="5.67854">
        <ele>525.02</ele>
        <time>2017-05-21T07:40:10Z</time>
      </trkpt>
      <trkpt lat="46.76621" lon="5.6788">
        <ele>525.02</ele>
        <time>2017-05-21T07:40:23Z</time>
      </trkpt>
      <trkpt lat="46.76623" lon="5.67905">
        <ele>524.54</ele>
        <time>2017-05-21T07:40:37Z</time>
      </trkpt>
      <trkpt lat="46.76625" lon="5.67929">
        <ele>525.02</ele>
        <time>2017-05-21T07:40:50Z</time>
      </trkpt>
      <trkpt lat="46.76626" lon="5.67956">
        <ele>525.5</ele>
        <time>2017-05-21T07:41:04Z</time>
      </trkpt>
      <trkpt lat="46.76625" lon="5.67975">
        <ele>525.98</ele>
        <time>2017-05-21T07:41:18Z</time>
      </trkpt>
      <trkpt lat="46.76626" lon="5.67988">
        <ele>526.46</ele>
        <time>2017-05-21T07:41:25Z</time>
      </trkpt>
      <trkpt lat="46.76626" lon="5.68012">
        <ele>525.98</ele>
        <time>2017-05-21T07:41:38Z</time>
      </trkpt>
      <trkpt lat="46.76626" lon="5.68034">
        <ele>526.46</ele>
        <time>2017-05-21T07:41:50Z</time>
      </trkpt>
      <trkpt lat="46.76627" lon="5.68054">
        <ele>525.98</ele>
        <time>2017-05-21T07:42:04Z</time>
      </trkpt>
      <trkpt lat="46.76627" lon="5.68074">
        <ele>525.98</ele>
        <time>2017-05-21T07:42:15Z</time>
      </trkpt>
      <trkpt lat="46.76629" lon="5.68094">
        <ele>525.5</ele>
        <time>2017-05-21T07:42:31Z</time>
      </trkpt>
      <trkpt lat="46.76628" lon="5.68115">
        <ele>525.5</ele>
        <time>2017-05-21T07:42:47Z</time>
      </trkpt>
      <trkpt lat="46.76628" lon="5.68121">
        <ele>524.54</ele>
        <time>2017-05-21T07:42:51Z</time>
      </trkpt>
      <trkpt lat="46.76628" lon="5.6814">
        <ele>525.5</ele>
        <time>2017-05-21T07:43:02Z</time>
      </trkpt>
      <trkpt lat="46.76629" lon="5.6815">
        <ele>524.54</ele>
        <time>2017-05-21T07:43:08Z</time>
      </trkpt>
      <trkpt lat="46.7663" lon="5.68171">
        <ele>525.5</ele>
        <time>2017-05-21T07:43:20Z</time>
      </trkpt>
      <trkpt lat="46.76631" lon="5.68177">
        <ele>525.02</ele>
        <time>2017-05-21T07:43:23Z</time>
      </trkpt>
      <trkpt lat="46.76634" lon="5.68206">
        <ele>524.06</ele>
        <time>2017-05-21T07:43:38Z</time>
      </trkpt>
      <trkpt lat="46.76638" lon="5.6822">
        <ele>523.09</ele>
        <time>2017-05-21T07:43:50Z</time>
      </trkpt>
      <trkpt lat="46.76638" lon="5.68237">
        <ele>522.13</ele>
        <time>2017-05-21T07:44:02Z</time>
      </trkpt>
      <trkpt lat="46.76639" lon="5.6826">
        <ele>521.65</ele>
        <time>2017-05-21T07:44:13Z</time>
      </trkpt>
      <trkpt lat="46.76641" lon="5.68277">
        <ele>521.17</ele>
        <time>2017-05-21T07:44:22Z</time>
      </trkpt>
      <trkpt lat="46.76647" lon="5.68306">
        <ele>520.21</ele>
        <time>2017-05-21T07:44:36Z</time>
      </trkpt>
      <trkpt lat="46.7665" lon="5.68326">
        <ele>519.73</ele>
        <time>2017-05-21T07:44:45Z</time>
      </trkpt>
      <trkpt lat="46.7665" lon="5.68345">
        <ele>518.77</ele>
        <time>2017-05-21T07:44:57Z</time>
      </trkpt>
      <trkpt lat="46.76649" lon="5.68371">
        <ele>518.77</ele>
        <time>2017-05-21T07:45:13Z</time>
      </trkpt>
      <trkpt lat="46.76649" lon="5.68383">
        <ele>518.77</ele>
        <time>2017-05-21T07:45:20Z</time>
      </trkpt>
      <trkpt lat="46.76644" lon="5.68403">
        <ele>518.29</ele>
        <time>2017-05-21T07:45:32Z</time>
      </trkpt>
      <trkpt lat="46.76643" lon="5.68422">
        <ele>518.29</ele>
        <time>2017-05-21T07:45:47Z</time>
      </trkpt>
      <trkpt lat="46.76642" lon="5.68426">
        <ele>517.81</ele>
        <time>2017-05-21T07:46:04Z</time>
      </trkpt>
      <trkpt lat="46.76642" lon="5.6843">
        <ele>518.29</ele>
        <time>2017-05-21T07:46:16Z</time>
      </trkpt>
      <trkpt lat="46.76643" lon="5.68445">
        <ele>518.29</ele>
        <time>2017-05-21T07:46:28Z</time>
      </trkpt>
      <trkpt lat="46.76643" lon="5.68458">
        <ele>518.77</ele>
        <time>2017-05-21T07:46:39Z</time>
      </trkpt>
      <trkpt lat="46.76644" lon="5.68475">
        <ele>518.77</ele>
        <time>2017-05-21T07:46:52Z</time>
      </trkpt>
      <trkpt lat="46.76643" lon="5.68504">
        <ele>518.77</ele>
        <time>2017-05-21T07:47:08Z</time>
      </trkpt>
      <trkpt lat="46.76643" lon="5.68506">
        <ele>518.77</ele>
        <time>2017-05-21T07:47:09Z</time>
      </trkpt>
      <trkpt lat="46.76644" lon="5.68526">
        <ele>518.29</ele>
        <time>2017-05-21T07:47:21Z</time>
      </trkpt>
      <trkpt lat="46.76647" lon="5.68546">
        <ele>519.25</ele>
        <time>2017-05-21T07:47:34Z</time>
      </trkpt>
      <trkpt lat="46.76646" lon="5.68558">
        <ele>519.25</ele>
        <time>2017-05-21T07:47:46Z</time>
      </trkpt>
      <trkpt lat="46.76644" lon="5.68582">
        <ele>519.73</ele>
        <time>2017-05-21T07:47:57Z</time>
      </trkpt>
      <trkpt lat="46.76642" lon="5.68602">
        <ele>519.73</ele>
        <time>2017-05-21T07:48:10Z</time>
      </trkpt>
      <trkpt lat="46.76643" lon="5.68621">
        <ele>520.69</ele>
        <time>2017-05-21T07:48:21Z</time>
      </trkpt>
      <trkpt lat="46.76644" lon="5.68644">
        <ele>520.21</ele>
        <time>2017-05-21T07:48:32Z</time>
      </trkpt>
      <trkpt lat="46.76645" lon="5.68668">
        <ele>520.21</ele>
        <time>2017-05-21T07:48:43Z</time>
      </trkpt>
      <trkpt lat="46.76644" lon="5.68681">
        <ele>520.69</ele>
        <time>2017-05-21T07:48:54Z</time>
      </trkpt>
      <trkpt lat="46.76643" lon="5.68695">
        <ele>521.17</ele>
        <time>2017-05-21T07:49:05Z</time>
      </trkpt>
      <trkpt lat="46.76642" lon="5.68713">
        <ele>521.17</ele>
        <time>2017-05-21T07:49:17Z</time>
      </trkpt>
      <trkpt lat="46.76643" lon="5.68734">
        <ele>521.65</ele>
        <time>2017-05-21T07:49:26Z</time>
      </trkpt>
      <trkpt lat="46.76644" lon="5.68766">
        <ele>521.65</ele>
        <time>2017-05-21T07:49:39Z</time>
      </trkpt>
      <trkpt lat="46.76644" lon="5.68793">
        <ele>521.65</ele>
        <time>2017-05-21T07:49:51Z</time>
      </trkpt>
      <trkpt lat="46.76644" lon="5.68819">
        <ele>521.65</ele>
        <time>2017-05-21T07:50:05Z</time>
      </trkpt>
      <trkpt lat="46.76642" lon="5.68848">
        <ele>523.09</ele>
        <time>2017-05-21T07:50:19Z</time>
      </trkpt>
      <trkpt lat="46.76642" lon="5.68867">
        <ele>524.06</ele>
        <time>2017-05-21T07:50:31Z</time>
      </trkpt>
      <trkpt lat="46.76643" lon="5.68892">
        <ele>524.06</ele>
        <time>2017-05-21T07:50:45Z</time>
      </trkpt>
      <trkpt lat="46.7664" lon="5.68906">
        <ele>524.54</ele>
        <time>2017-05-21T07:50:57Z</time>
      </trkpt>
      <trkpt lat="46.76641" lon="5.68924">
        <ele>524.54</ele>
        <time>2017-05-21T07:51:07Z</time>
      </trkpt>
      <trkpt lat="46.76642" lon="5.68947">
        <ele>525.02</ele>
        <time>2017-05-21T07:51:20Z</time>
      </trkpt>
      <trkpt lat="46.76644" lon="5.68969">
        <ele>525.98</ele>
        <time>2017-05-21T07:51:33Z</time>
      </trkpt>
      <trkpt lat="46.76645" lon="5.68975">
        <ele>525.5</ele>
        <time>2017-05-21T07:51:37Z</time>
      </trkpt>
      <trkpt lat="46.76648" lon="5.68996">
        <ele>525.98</ele>
        <time>2017-05-21T07:51:51Z</time>
      </trkpt>
      <trkpt lat="46.76652" lon="5.69008">
        <ele>526.46</ele>
        <time>2017-05-21T07:52:02Z</time>
      </trkpt>
      <trkpt lat="46.76658" lon="5.69022">
        <ele>526.46</ele>
        <time>2017-05-21T07:52:14Z</time>
      </trkpt>
      <trkpt lat="46.76659" lon="5.6903">
        <ele>526.94</ele>
        <time>2017-05-21T07:52:21Z</time>
      </trkpt>
      <trkpt lat="46.76657" lon="5.69043">
        <ele>526.94</ele>
        <time>2017-05-21T07:52:29Z</time>
      </trkpt>
      <trkpt lat="46.76655" lon="5.69064">
        <ele>527.42</ele>
        <time>2017-05-21T07:52:42Z</time>
      </trkpt>
      <trkpt lat="46.76657" lon="5.69079">
        <ele>527.9</ele>
        <time>2017-05-21T07:52:55Z</time>
      </trkpt>
      <trkpt lat="46.76659" lon="5.69093">
        <ele>528.38</ele>
        <time>2017-05-21T07:53:07Z</time>
      </trkpt>
      <trkpt lat="46.76663" lon="5.69116">
        <ele>528.86</ele>
        <time>2017-05-21T07:53:19Z</time>
      </trkpt>
      <trkpt lat="46.76664" lon="5.69122">
        <ele>528.38</ele>
        <time>2017-05-21T07:53:22Z</time>
      </trkpt>
      <trkpt lat="46.76669" lon="5.69142">
        <ele>528.86</ele>
        <time>2017-05-21T07:53:34Z</time>
      </trkpt>
      <trkpt lat="46.76674" lon="5.69167">
        <ele>528.38</ele>
        <time>2017-05-21T07:53:47Z</time>
      </trkpt>
      <trkpt lat="46.76675" lon="5.69177">
        <ele>528.86</ele>
        <time>2017-05-21T07:53:53Z</time>
      </trkpt>
      <trkpt lat="46.76677" lon="5.69192">
        <ele>528.38</ele>
        <time>2017-05-21T07:54:03Z</time>
      </trkpt>
      <trkpt lat="46.76679" lon="5.69209">
        <ele>528.38</ele>
        <time>2017-05-21T07:54:15Z</time>
      </trkpt>
      <trkpt lat="46.7668" lon="5.69214">
        <ele>527.42</ele>
        <time>2017-05-21T07:54:19Z</time>
      </trkpt>
      <trkpt lat="46.76682" lon="5.69235">
        <ele>526.94</ele>
        <time>2017-05-21T07:54:33Z</time>
      </trkpt>
      <trkpt lat="46.76688" lon="5.69259">
        <ele>525.5</ele>
        <time>2017-05-21T07:54:47Z</time>
      </trkpt>
      <trkpt lat="46.76691" lon="5.69279">
        <ele>525.02</ele>
        <time>2017-05-21T07:54:58Z</time>
      </trkpt>
      <trkpt lat="46.76695" lon="5.69296">
        <ele>525.02</ele>
        <time>2017-05-21T07:55:07Z</time>
      </trkpt>
      <trkpt lat="46.76699" lon="5.6933">
        <ele>523.58</ele>
        <time>2017-05-21T07:55:20Z</time>
      </trkpt>
      <trkpt lat="46.76698" lon="5.69357">
        <ele>523.09</ele>
        <time>2017-05-21T07:55:33Z</time>
      </trkpt>
      <trkpt lat="46.76696" lon="5.69363">
        <ele>522.61</ele>
        <time>2017-05-21T07:55:38Z</time>
      </trkpt>
      <trkpt lat="46.76683" lon="5.69382">
        <ele>522.13</ele>
        <time>2017-05-21T07:55:51Z</time>
      </trkpt>
      <trkpt lat="46.76666" lon="5.69391">
        <ele>521.17</ele>
        <time>2017-05-21T07:56:08Z</time>
      </trkpt>
      <trkpt lat="46.76661" lon="5.69393">
        <ele>520.69</ele>
        <time>2017-05-21T07:56:12Z</time>
      </trkpt>
      <trkpt lat="46.76643" lon="5.69395">
        <ele>520.21</ele>
        <time>2017-05-21T07:56:26Z</time>
      </trkpt>
      <trkpt lat="46.76633" lon="5.69397">
        <ele>519.73</ele>
        <time>2017-05-21T07:56:39Z</time>
      </trkpt>
      <trkpt lat="46.76624" lon="5.69398">
        <ele>520.21</ele>
        <time>2017-05-21T07:56:53Z</time>
      </trkpt>
      <trkpt lat="46.7662" lon="5.69398">
        <ele>520.21</ele>
        <time>2017-05-21T07:57:08Z</time>
      </trkpt>
      <trkpt lat="46.76618" lon="5.69396">
        <ele>520.21</ele>
        <time>2017-05-21T07:57:25Z</time>
      </trkpt>
      <trkpt lat="46.76616" lon="5.69397">
        <ele>521.17</ele>
        <time>2017-05-21T07:57:41Z</time>
      </trkpt>
      <trkpt lat="46.76615" lon="5.69397">
        <ele>521.17</ele>
        <time>2017-05-21T07:58:03Z</time>
      </trkpt>
      <trkpt lat="46.76614" lon="5.69396">
        <ele>521.17</ele>
        <time>2017-05-21T07:58:28Z</time>
      </trkpt>
      <trkpt lat="46.76614" lon="5.69397">
        <ele>521.17</ele>
        <time>2017-05-21T07:58:44Z</time>
      </trkpt>
      <trkpt lat="46.76614" lon="5.69398">
        <ele>520.69</ele>
        <time>2017-05-21T07:59:00Z</time>
      </trkpt>
      <trkpt lat="46.76616" lon="5.694">
        <ele>521.17</ele>
        <time>2017-05-21T07:59:18Z</time>
      </trkpt>
      <trkpt lat="46.76612" lon="5.69397">
        <ele>521.65</ele>
        <time>2017-05-21T07:59:36Z</time>
      </trkpt>
      <trkpt lat="46.76613" lon="5.69396">
        <ele>521.65</ele>
        <time>2017-05-21T07:59:53Z</time>
      </trkpt>
      <trkpt lat="46.76612" lon="5.69397">
        <ele>522.13</ele>
        <time>2017-05-21T08:00:21Z</time>
      </trkpt>
      <trkpt lat="46.76615" lon="5.69402">
        <ele>521.17</ele>
        <time>2017-05-21T08:00:45Z</time>
      </trkpt>
      <trkpt lat="46.76614" lon="5.69402">
        <ele>521.17</ele>
        <time>2017-05-21T08:01:03Z</time>
      </trkpt>
      <trkpt lat="46.76614" lon="5.69403">
        <ele>521.65</ele>
        <time>2017-05-21T08:01:28Z</time>
      </trkpt>
      <trkpt lat="46.76614" lon="5.69402">
        <ele>522.13</ele>
        <time>2017-05-21T08:01:59Z</time>
      </trkpt>
      <trkpt lat="46.76615" lon="5.69402">
        <ele>522.61</ele>
        <time>2017-05-21T08:02:30Z</time>
      </trkpt>
      <trkpt lat="46.76615" lon="5.69402">
        <ele>522.61</ele>
        <time>2017-05-21T08:02:55Z</time>
      </trkpt>
      <trkpt lat="46.76613" lon="5.69401">
        <ele>523.09</ele>
        <time>2017-05-21T08:03:10Z</time>
      </trkpt>
      <trkpt lat="46.76612" lon="5.69401">
        <ele>523.09</ele>
        <time>2017-05-21T08:03:30Z</time>
      </trkpt>
      <trkpt lat="46.76615" lon="5.69405">
        <ele>522.61</ele>
        <time>2017-05-21T08:03:47Z</time>
      </trkpt>
      <trkpt lat="46.76615" lon="5.69405">
        <ele>523.09</ele>
        <time>2017-05-21T08:04:10Z</time>
      </trkpt>
      <trkpt lat="46.76615" lon="5.69406">
        <ele>523.09</ele>
        <time>2017-05-21T08:04:33Z</time>
      </trkpt>
      <trkpt lat="46.76615" lon="5.69406">
        <ele>522.61</ele>
        <time>2017-05-21T08:04:56Z</time>
      </trkpt>
      <trkpt lat="46.76615" lon="5.69406">
        <ele>522.61</ele>
        <time>2017-05-21T08:04:57Z</time>
      </trkpt>
      <trkpt lat="46.76627" lon="5.69402">
        <ele>524.06</ele>
        <time>2017-05-21T08:05:11Z</time>
      </trkpt>
      <trkpt lat="46.76633" lon="5.69397">
        <ele>523.58</ele>
        <time>2017-05-21T08:05:17Z</time>
      </trkpt>
      <trkpt lat="46.76654" lon="5.69403">
        <ele>524.54</ele>
        <time>2017-05-21T08:05:31Z</time>
      </trkpt>
      <trkpt lat="46.7666" lon="5.69403">
        <ele>524.54</ele>
        <time>2017-05-21T08:05:37Z</time>
      </trkpt>
      <trkpt lat="46.76673" lon="5.69395">
        <ele>525.98</ele>
        <time>2017-05-21T08:05:50Z</time>
      </trkpt>
      <trkpt lat="46.7669" lon="5.69382">
        <ele>526.94</ele>
        <time>2017-05-21T08:06:06Z</time>
      </trkpt>
      <trkpt lat="46.76691" lon="5.69381">
        <ele>526.94</ele>
        <time>2017-05-21T08:06:07Z</time>
      </trkpt>
      <trkpt lat="46.76695" lon="5.69374">
        <ele>527.42</ele>
        <time>2017-05-21T08:06:13Z</time>
      </trkpt>
      <trkpt lat="46.76696" lon="5.69369">
        <ele>527.42</ele>
        <time>2017-05-21T08:06:16Z</time>
      </trkpt>
      <trkpt lat="46.76696" lon="5.69358">
        <ele>528.38</ele>
        <time>2017-05-21T08:06:22Z</time>
      </trkpt>
      <trkpt lat="46.76691" lon="5.69336">
        <ele>529.82</ele>
        <time>2017-05-21T08:06:36Z</time>
      </trkpt>
      <trkpt lat="46.76686" lon="5.69315">
        <ele>530.3</ele>
        <time>2017-05-21T08:06:50Z</time>
      </trkpt>
      <trkpt lat="46.76681" lon="5.69297">
        <ele>530.3</ele>
        <time>2017-05-21T08:07:01Z</time>
      </trkpt>
      <trkpt lat="46.76677" lon="5.69272">
        <ele>531.75</ele>
        <time>2017-05-21T08:07:16Z</time>
      </trkpt>
      <trkpt lat="46.76672" lon="5.69246">
        <ele>532.23</ele>
        <time>2017-05-21T08:07:30Z</time>
      </trkpt>
      <trkpt lat="46.7667" lon="5.69226">
        <ele>532.23</ele>
        <time>2017-05-21T08:07:43Z</time>
      </trkpt>
      <trkpt lat="46.76665" lon="5.69199">
        <ele>533.19</ele>
        <time>2017-05-21T08:07:58Z</time>
      </trkpt>
      <trkpt lat="46.76663" lon="5.69172">
        <ele>533.19</ele>
        <time>2017-05-21T08:08:12Z</time>
      </trkpt>
      <trkpt lat="46.76661" lon="5.69163">
        <ele>532.71</ele>
        <time>2017-05-21T08:08:17Z</time>
      </trkpt>
      <trkpt lat="46.76657" lon="5.69133">
        <ele>531.75</ele>
        <time>2017-05-21T08:08:35Z</time>
      </trkpt>
      <trkpt lat="46.76654" lon="5.69106">
        <ele>531.75</ele>
        <time>2017-05-21T08:08:50Z</time>
      </trkpt>
      <trkpt lat="46.76651" lon="5.69075">
        <ele>531.27</ele>
        <time>2017-05-21T08:09:06Z</time>
      </trkpt>
      <trkpt lat="46.76649" lon="5.69054">
        <ele>530.79</ele>
        <time>2017-05-21T08:09:22Z</time>
      </trkpt>
      <trkpt lat="46.76645" lon="5.69023">
        <ele>530.3</ele>
        <time>2017-05-21T08:09:37Z</time>
      </trkpt>
      <trkpt lat="46.76643" lon="5.68998">
        <ele>530.3</ele>
        <time>2017-05-21T08:09:51Z</time>
      </trkpt>
      <trkpt lat="46.76641" lon="5.68974">
        <ele>530.3</ele>
        <time>2017-05-21T08:10:04Z</time>
      </trkpt>
      <trkpt lat="46.76638" lon="5.68944">
        <ele>529.34</ele>
        <time>2017-05-21T08:10:18Z</time>
      </trkpt>
      <trkpt lat="46.76638" lon="5.68927">
        <ele>528.86</ele>
        <time>2017-05-21T08:10:29Z</time>
      </trkpt>
      <trkpt lat="46.76638" lon="5.68915">
        <ele>528.86</ele>
        <time>2017-05-21T08:10:35Z</time>
      </trkpt>
      <trkpt lat="46.76639" lon="5.6889">
        <ele>528.38</ele>
        <time>2017-05-21T08:10:50Z</time>
      </trkpt>
      <trkpt lat="46.76639" lon="5.68857">
        <ele>527.9</ele>
        <time>2017-05-21T08:11:07Z</time>
      </trkpt>
      <trkpt lat="46.7664" lon="5.68828">
        <ele>526.94</ele>
        <time>2017-05-21T08:11:22Z</time>
      </trkpt>
      <trkpt lat="46.76639" lon="5.68794">
        <ele>527.42</ele>
        <time>2017-05-21T08:11:39Z</time>
      </trkpt>
      <trkpt lat="46.76639" lon="5.68769">
        <ele>526.46</ele>
        <time>2017-05-21T08:11:53Z</time>
      </trkpt>
      <trkpt lat="46.76639" lon="5.68748">
        <ele>526.46</ele>
        <time>2017-05-21T08:12:05Z</time>
      </trkpt>
      <trkpt lat="46.76639" lon="5.68723">
        <ele>525.98</ele>
        <time>2017-05-21T08:12:18Z</time>
      </trkpt>
      <trkpt lat="46.7664" lon="5.68699">
        <ele>525.5</ele>
        <time>2017-05-21T08:12:31Z</time>
      </trkpt>
      <trkpt lat="46.76639" lon="5.68677">
        <ele>525.98</ele>
        <time>2017-05-21T08:12:43Z</time>
      </trkpt>
      <trkpt lat="46.76639" lon="5.68648">
        <ele>525.02</ele>
        <time>2017-05-21T08:12:56Z</time>
      </trkpt>
      <trkpt lat="46.76639" lon="5.68622">
        <ele>524.54</ele>
        <time>2017-05-21T08:13:11Z</time>
      </trkpt>
      <trkpt lat="46.76639" lon="5.68596">
        <ele>524.54</ele>
        <time>2017-05-21T08:13:26Z</time>
      </trkpt>
      <trkpt lat="46.76639" lon="5.68569">
        <ele>524.06</ele>
        <time>2017-05-21T08:13:38Z</time>
      </trkpt>
      <trkpt lat="46.76634" lon="5.68558">
        <ele>523.09</ele>
        <time>2017-05-21T08:13:51Z</time>
      </trkpt>
      <trkpt lat="46.76621" lon="5.6855">
        <ele>521.65</ele>
        <time>2017-05-21T08:14:04Z</time>
      </trkpt>
      <trkpt lat="46.76604" lon="5.68539">
        <ele>520.21</ele>
        <time>2017-05-21T08:14:19Z</time>
      </trkpt>
      <trkpt lat="46.76595" lon="5.68531">
        <ele>520.69</ele>
        <time>2017-05-21T08:14:36Z</time>
      </trkpt>
      <trkpt lat="46.76592" lon="5.6853">
        <ele>520.69</ele>
        <time>2017-05-21T08:14:49Z</time>
      </trkpt>
      <trkpt lat="46.76581" lon="5.68528">
        <ele>519.73</ele>
        <time>2017-05-21T08:15:03Z</time>
      </trkpt>
      <trkpt lat="46.76577" lon="5.68532">
        <ele>519.25</ele>
        <time>2017-05-21T08:15:16Z</time>
      </trkpt>
      <trkpt lat="46.76563" lon="5.68545">
        <ele>517.33</ele>
        <time>2017-05-21T08:15:32Z</time>
      </trkpt>
      <trkpt lat="46.76557" lon="5.6855">
        <ele>516.37</ele>
        <time>2017-05-21T08:15:46Z</time>
      </trkpt>
      <trkpt lat="46.76546" lon="5.68561">
        <ele>514.44</ele>
        <time>2017-05-21T08:16:02Z</time>
      </trkpt>
      <trkpt lat="46.76534" lon="5.68569">
        <ele>514.44</ele>
        <time>2017-05-21T08:16:21Z</time>
      </trkpt>
      <trkpt lat="46.76535" lon="5.68564">
        <ele>515.88</ele>
        <time>2017-05-21T08:16:36Z</time>
      </trkpt>
      <trkpt lat="46.76544" lon="5.68556">
        <ele>516.85</ele>
        <time>2017-05-21T08:16:45Z</time>
      </trkpt>
      <trkpt lat="46.76554" lon="5.68547">
        <ele>518.77</ele>
        <time>2017-05-21T08:16:58Z</time>
      </trkpt>
      <trkpt lat="46.76576" lon="5.68532">
        <ele>519.25</ele>
        <time>2017-05-21T08:17:12Z</time>
      </trkpt>
      <trkpt lat="46.76584" lon="5.68522">
        <ele>520.69</ele>
        <time>2017-05-21T08:17:23Z</time>
      </trkpt>
      <trkpt lat="46.76587" lon="5.68512">
        <ele>520.69</ele>
        <time>2017-05-21T08:17:29Z</time>
      </trkpt>
      <trkpt lat="46.76592" lon="5.68498">
        <ele>521.17</ele>
        <time>2017-05-21T08:17:40Z</time>
      </trkpt>
      <trkpt lat="46.76591" lon="5.68489">
        <ele>521.17</ele>
        <time>2017-05-21T08:17:44Z</time>
      </trkpt>
      <trkpt lat="46.76595" lon="5.68464">
        <ele>521.65</ele>
        <time>2017-05-21T08:17:57Z</time>
      </trkpt>
      <trkpt lat="46.76598" lon="5.68453">
        <ele>522.13</ele>
        <time>2017-05-21T08:18:05Z</time>
      </trkpt>
      <trkpt lat="46.76597" lon="5.68438">
        <ele>522.61</ele>
        <time>2017-05-21T08:18:12Z</time>
      </trkpt>
      <trkpt lat="46.76595" lon="5.68419">
        <ele>523.58</ele>
        <time>2017-05-21T08:18:23Z</time>
      </trkpt>
      <trkpt lat="46.76595" lon="5.6841">
        <ele>524.06</ele>
        <time>2017-05-21T08:18:38Z</time>
      </trkpt>
      <trkpt lat="46.76596" lon="5.68391">
        <ele>524.54</ele>
        <time>2017-05-21T08:18:50Z</time>
      </trkpt>
      <trkpt lat="46.76599" lon="5.68386">
        <ele>524.54</ele>
        <time>2017-05-21T08:19:02Z</time>
      </trkpt>
      <trkpt lat="46.766" lon="5.68385">
        <ele>525.02</ele>
        <time>2017-05-21T08:19:03Z</time>
      </trkpt>
      <trkpt lat="46.76606" lon="5.68371">
        <ele>525.02</ele>
        <time>2017-05-21T08:19:17Z</time>
      </trkpt>
      <trkpt lat="46.76608" lon="5.68365">
        <ele>525.5</ele>
        <time>2017-05-21T08:19:23Z</time>
      </trkpt>
      <trkpt lat="46.76606" lon="5.68372">
        <ele>524.54</ele>
        <time>2017-05-21T08:19:29Z</time>
      </trkpt>
      <trkpt lat="46.76598" lon="5.68386">
        <ele>524.54</ele>
        <time>2017-05-21T08:19:40Z</time>
      </trkpt>
      <trkpt lat="46.76594" lon="5.68386">
        <ele>524.54</ele>
        <time>2017-05-21T08:19:45Z</time>
      </trkpt>
      <trkpt lat="46.76592" lon="5.68384">
        <ele>524.54</ele>
        <time>2017-05-21T08:19:47Z</time>
      </trkpt>
      <trkpt lat="46.76582" lon="5.68378">
        <ele>525.02</ele>
        <time>2017-05-21T08:19:57Z</time>
      </trkpt>
      <trkpt lat="46.76579" lon="5.68376">
        <ele>524.54</ele>
        <time>2017-05-21T08:20:00Z</time>
      </trkpt>
      <trkpt lat="46.76576" lon="5.68375">
        <ele>524.54</ele>
        <time>2017-05-21T08:20:14Z</time>
      </trkpt>
      <trkpt lat="46.76575" lon="5.68377">
        <ele>524.06</ele>
        <time>2017-05-21T08:20:22Z</time>
      </trkpt>
      <trkpt lat="46.76576" lon="5.68376">
        <ele>524.54</ele>
        <time>2017-05-21T08:20:31Z</time>
      </trkpt>
      <trkpt lat="46.76581" lon="5.68378">
        <ele>524.54</ele>
        <time>2017-05-21T08:20:36Z</time>
      </trkpt>
      <trkpt lat="46.76586" lon="5.68382">
        <ele>524.54</ele>
        <time>2017-05-21T08:20:40Z</time>
      </trkpt>
      <trkpt lat="46.76591" lon="5.68388">
        <ele>524.54</ele>
        <time>2017-05-21T08:20:54Z</time>
      </trkpt>
      <trkpt lat="46.76592" lon="5.68389">
        <ele>525.02</ele>
        <time>2017-05-21T08:21:01Z</time>
      </trkpt>
      <trkpt lat="46.76589" lon="5.68386">
        <ele>525.02</ele>
        <time>2017-05-21T08:21:07Z</time>
      </trkpt>
      <trkpt lat="46.76583" lon="5.68382">
        <ele>525.02</ele>
        <time>2017-05-21T08:21:15Z</time>
      </trkpt>
      <trkpt lat="46.76577" lon="5.68379">
        <ele>524.06</ele>
        <time>2017-05-21T08:21:28Z</time>
      </trkpt>
      <trkpt lat="46.76575" lon="5.68381">
        <ele>522.13</ele>
        <time>2017-05-21T08:21:40Z</time>
      </trkpt>
      <trkpt lat="46.76575" lon="5.68381">
        <ele>521.65</ele>
        <time>2017-05-21T08:21:43Z</time>
      </trkpt>
      <trkpt lat="46.7657" lon="5.68386">
        <ele>518.77</ele>
        <time>2017-05-21T08:21:56Z</time>
      </trkpt>
      <trkpt lat="46.76565" lon="5.6839">
        <ele>516.85</ele>
        <time>2017-05-21T08:22:07Z</time>
      </trkpt>
      <trkpt lat="46.76558" lon="5.68395">
        <ele>513.48</ele>
        <time>2017-05-21T08:22:19Z</time>
      </trkpt>
      <trkpt lat="46.76552" lon="5.68401">
        <ele>510.6</ele>
        <time>2017-05-21T08:22:32Z</time>
      </trkpt>
      <trkpt lat="46.76542" lon="5.68408">
        <ele>507.71</ele>
        <time>2017-05-21T08:22:44Z</time>
      </trkpt>
      <trkpt lat="46.76534" lon="5.68415">
        <ele>505.79</ele>
        <time>2017-05-21T08:22:55Z</time>
      </trkpt>
      <trkpt lat="46.7652" lon="5.68424">
        <ele>503.39</ele>
        <time>2017-05-21T08:23:07Z</time>
      </trkpt>
      <trkpt lat="46.76511" lon="5.68431">
        <ele>500.98</ele>
        <time>2017-05-21T08:23:19Z</time>
      </trkpt>
      <trkpt lat="46.76508" lon="5.68434">
        <ele>498.1</ele>
        <time>2017-05-21T08:23:30Z</time>
      </trkpt>
      <trkpt lat="46.76501" lon="5.68439">
        <ele>495.7</ele>
        <time>2017-05-21T08:23:42Z</time>
      </trkpt>
      <trkpt lat="46.76495" lon="5.68441">
        <ele>492.81</ele>
        <time>2017-05-21T08:23:57Z</time>
      </trkpt>
      <trkpt lat="46.76488" lon="5.6845">
        <ele>489.45</ele>
        <time>2017-05-21T08:24:10Z</time>
      </trkpt>
      <trkpt lat="46.76477" lon="5.6846">
        <ele>487.53</ele>
        <time>2017-05-21T08:24:24Z</time>
      </trkpt>
      <trkpt lat="46.76469" lon="5.68473">
        <ele>485.12</ele>
        <time>2017-05-21T08:24:37Z</time>
      </trkpt>
      <trkpt lat="46.76468" lon="5.68468">
        <ele>483.68</ele>
        <time>2017-05-21T08:24:50Z</time>
      </trkpt>
      <trkpt lat="46.76462" lon="5.68475">
        <ele>480.8</ele>
        <time>2017-05-21T08:25:04Z</time>
      </trkpt>
      <trkpt lat="46.76461" lon="5.68484">
        <ele>478.39</ele>
        <time>2017-05-21T08:25:19Z</time>
      </trkpt>
      <trkpt lat="46.76447" lon="5.685">
        <ele>475.03</ele>
        <time>2017-05-21T08:25:31Z</time>
      </trkpt>
      <trkpt lat="46.76441" lon="5.68509">
        <ele>471.66</ele>
        <time>2017-05-21T08:25:44Z</time>
      </trkpt>
      <trkpt lat="46.76439" lon="5.68514">
        <ele>467.82</ele>
        <time>2017-05-21T08:25:56Z</time>
      </trkpt>
      <trkpt lat="46.76427" lon="5.68516">
        <ele>464.93</ele>
        <time>2017-05-21T08:26:12Z</time>
      </trkpt>
      <trkpt lat="46.7642" lon="5.68509">
        <ele>462.05</ele>
        <time>2017-05-21T08:26:25Z</time>
      </trkpt>
      <trkpt lat="46.76415" lon="5.68502">
        <ele>459.17</ele>
        <time>2017-05-21T08:26:38Z</time>
      </trkpt>
      <trkpt lat="46.76407" lon="5.68495">
        <ele>456.28</ele>
        <time>2017-05-21T08:26:51Z</time>
      </trkpt>
      <trkpt lat="46.76402" lon="5.68489">
        <ele>454.36</ele>
        <time>2017-05-21T08:27:03Z</time>
      </trkpt>
      <trkpt lat="46.76393" lon="5.68487">
        <ele>451</ele>
        <time>2017-05-21T08:27:14Z</time>
      </trkpt>
      <trkpt lat="46.76382" lon="5.68487">
        <ele>448.11</ele>
        <time>2017-05-21T08:27:25Z</time>
      </trkpt>
      <trkpt lat="46.76372" lon="5.68482">
        <ele>445.71</ele>
        <time>2017-05-21T08:27:35Z</time>
      </trkpt>
      <trkpt lat="46.76364" lon="5.68481">
        <ele>444.27</ele>
        <time>2017-05-21T08:27:46Z</time>
      </trkpt>
      <trkpt lat="46.76358" lon="5.68482">
        <ele>440.9</ele>
        <time>2017-05-21T08:27:56Z</time>
      </trkpt>
      <trkpt lat="46.76353" lon="5.68484">
        <ele>438.02</ele>
        <time>2017-05-21T08:28:09Z</time>
      </trkpt>
      <trkpt lat="46.76349" lon="5.68485">
        <ele>435.13</ele>
        <time>2017-05-21T08:28:21Z</time>
      </trkpt>
      <trkpt lat="46.76344" lon="5.68489">
        <ele>431.77</ele>
        <time>2017-05-21T08:28:33Z</time>
      </trkpt>
      <trkpt lat="46.76335" lon="5.68491">
        <ele>431.77</ele>
        <time>2017-05-21T08:28:47Z</time>
      </trkpt>
      <trkpt lat="46.76331" lon="5.68496">
        <ele>428.89</ele>
        <time>2017-05-21T08:29:00Z</time>
      </trkpt>
      <trkpt lat="46.76323" lon="5.68508">
        <ele>426.96</ele>
        <time>2017-05-21T08:29:12Z</time>
      </trkpt>
      <trkpt lat="46.76298" lon="5.68524">
        <ele>424.08</ele>
        <time>2017-05-21T08:29:23Z</time>
      </trkpt>
      <trkpt lat="46.76289" lon="5.68533">
        <ele>421.19</ele>
        <time>2017-05-21T08:29:36Z</time>
      </trkpt>
      <trkpt lat="46.76284" lon="5.68542">
        <ele>420.23</ele>
        <time>2017-05-21T08:29:43Z</time>
      </trkpt>
      <trkpt lat="46.76275" lon="5.68559">
        <ele>417.35</ele>
        <time>2017-05-21T08:29:56Z</time>
      </trkpt>
      <trkpt lat="46.76268" lon="5.6857">
        <ele>414.47</ele>
        <time>2017-05-21T08:30:10Z</time>
      </trkpt>
      <trkpt lat="46.76262" lon="5.68578">
        <ele>412.54</ele>
        <time>2017-05-21T08:30:17Z</time>
      </trkpt>
      <trkpt lat="46.76256" lon="5.68581">
        <ele>412.06</ele>
        <time>2017-05-21T08:30:19Z</time>
      </trkpt>
      <trkpt lat="46.76245" lon="5.68577">
        <ele>408.7</ele>
        <time>2017-05-21T08:30:30Z</time>
      </trkpt>
      <trkpt lat="46.76236" lon="5.68569">
        <ele>405.81</ele>
        <time>2017-05-21T08:30:43Z</time>
      </trkpt>
      <trkpt lat="46.76236" lon="5.68569">
        <ele>405.33</ele>
        <time>2017-05-21T08:30:44Z</time>
      </trkpt>
      <trkpt lat="46.76235" lon="5.68566">
        <ele>405.33</ele>
        <time>2017-05-21T08:30:46Z</time>
      </trkpt>
      <trkpt lat="46.76234" lon="5.68555">
        <ele>403.41</ele>
        <time>2017-05-21T08:30:54Z</time>
      </trkpt>
      <trkpt lat="46.76235" lon="5.68531">
        <ele>401.49</ele>
        <time>2017-05-21T08:31:06Z</time>
      </trkpt>
      <trkpt lat="46.76236" lon="5.68523">
        <ele>399.57</ele>
        <time>2017-05-21T08:31:16Z</time>
      </trkpt>
      <trkpt lat="46.76237" lon="5.6851">
        <ele>398.6</ele>
        <time>2017-05-21T08:31:26Z</time>
      </trkpt>
      <trkpt lat="46.76237" lon="5.68506">
        <ele>398.12</ele>
        <time>2017-05-21T08:31:28Z</time>
      </trkpt>
      <trkpt lat="46.76238" lon="5.68503">
        <ele>398.12</ele>
        <time>2017-05-21T08:31:31Z</time>
      </trkpt>
      <trkpt lat="46.76237" lon="5.6848">
        <ele>397.16</ele>
        <time>2017-05-21T08:31:41Z</time>
      </trkpt>
      <trkpt lat="46.76237" lon="5.68461">
        <ele>395.24</ele>
        <time>2017-05-21T08:31:53Z</time>
      </trkpt>
      <trkpt lat="46.76237" lon="5.68455">
        <ele>393.8</ele>
        <time>2017-05-21T08:31:58Z</time>
      </trkpt>
      <trkpt lat="46.76239" lon="5.68435">
        <ele>391.39</ele>
        <time>2017-05-21T08:32:09Z</time>
      </trkpt>
      <trkpt lat="46.76241" lon="5.6843">
        <ele>390.43</ele>
        <time>2017-05-21T08:32:14Z</time>
      </trkpt>
      <trkpt lat="46.76243" lon="5.68421">
        <ele>387.55</ele>
        <time>2017-05-21T08:32:24Z</time>
      </trkpt>
      <trkpt lat="46.76243" lon="5.68402">
        <ele>384.18</ele>
        <time>2017-05-21T08:32:35Z</time>
      </trkpt>
      <trkpt lat="46.76245" lon="5.68398">
        <ele>380.82</ele>
        <time>2017-05-21T08:32:47Z</time>
      </trkpt>
      <trkpt lat="46.76246" lon="5.68397">
        <ele>379.86</ele>
        <time>2017-05-21T08:32:52Z</time>
      </trkpt>
      <trkpt lat="46.76245" lon="5.68379">
        <ele>376.01</ele>
        <time>2017-05-21T08:33:05Z</time>
      </trkpt>
      <trkpt lat="46.76243" lon="5.68346">
        <ele>373.13</ele>
        <time>2017-05-21T08:33:16Z</time>
      </trkpt>
      <trkpt lat="46.7624" lon="5.68332">
        <ele>370.24</ele>
        <time>2017-05-21T08:33:26Z</time>
      </trkpt>
      <trkpt lat="46.76237" lon="5.68324">
        <ele>369.76</ele>
        <time>2017-05-21T08:33:32Z</time>
      </trkpt>
      <trkpt lat="46.76231" lon="5.68318">
        <ele>368.32</ele>
        <time>2017-05-21T08:33:37Z</time>
      </trkpt>
      <trkpt lat="46.7622" lon="5.68315">
        <ele>366.88</ele>
        <time>2017-05-21T08:33:50Z</time>
      </trkpt>
      <trkpt lat="46.7622" lon="5.68313">
        <ele>366.88</ele>
        <time>2017-05-21T08:34:09Z</time>
      </trkpt>
      <trkpt lat="46.76218" lon="5.68314">
        <ele>366.4</ele>
        <time>2017-05-21T08:34:25Z</time>
      </trkpt>
      <trkpt lat="46.76215" lon="5.68317">
        <ele>366.4</ele>
        <time>2017-05-21T08:34:36Z</time>
      </trkpt>
      <trkpt lat="46.76213" lon="5.68321">
        <ele>365.92</ele>
        <time>2017-05-21T08:34:51Z</time>
      </trkpt>
      <trkpt lat="46.76214" lon="5.68319">
        <ele>365.92</ele>
        <time>2017-05-21T08:34:55Z</time>
      </trkpt>
      <trkpt lat="46.76215" lon="5.68311">
        <ele>365.44</ele>
        <time>2017-05-21T08:35:06Z</time>
      </trkpt>
      <trkpt lat="46.76213" lon="5.6831">
        <ele>364.96</ele>
        <time>2017-05-21T08:35:22Z</time>
      </trkpt>
      <trkpt lat="46.7621" lon="5.68311">
        <ele>364.48</ele>
        <time>2017-05-21T08:35:25Z</time>
      </trkpt>
      <trkpt lat="46.76203" lon="5.68306">
        <ele>364</ele>
        <time>2017-05-21T08:35:36Z</time>
      </trkpt>
      <trkpt lat="46.76203" lon="5.68305">
        <ele>363.04</ele>
        <time>2017-05-21T08:35:49Z</time>
      </trkpt>
      <trkpt lat="46.76203" lon="5.68304">
        <ele>363.52</ele>
        <time>2017-05-21T08:36:00Z</time>
      </trkpt>
      <trkpt lat="46.76203" lon="5.68303">
        <ele>364.48</ele>
        <time>2017-05-21T08:36:11Z</time>
      </trkpt>
      <trkpt lat="46.762" lon="5.68297">
        <ele>363.52</ele>
        <time>2017-05-21T08:36:22Z</time>
      </trkpt>
      <trkpt lat="46.76196" lon="5.6829">
        <ele>362.55</ele>
        <time>2017-05-21T08:36:30Z</time>
      </trkpt>
      <trkpt lat="46.76189" lon="5.68278">
        <ele>363.04</ele>
        <time>2017-05-21T08:36:43Z</time>
      </trkpt>
      <trkpt lat="46.76188" lon="5.68273">
        <ele>363.04</ele>
        <time>2017-05-21T08:36:52Z</time>
      </trkpt>
      <trkpt lat="46.76184" lon="5.68258">
        <ele>362.55</ele>
        <time>2017-05-21T08:37:06Z</time>
      </trkpt>
      <trkpt lat="46.76182" lon="5.68244">
        <ele>363.04</ele>
        <time>2017-05-21T08:37:20Z</time>
      </trkpt>
      <trkpt lat="46.76178" lon="5.68218">
        <ele>364</ele>
        <time>2017-05-21T08:37:36Z</time>
      </trkpt>
      <trkpt lat="46.76177" lon="5.68213">
        <ele>364.48</ele>
        <time>2017-05-21T08:37:39Z</time>
      </trkpt>
      <trkpt lat="46.76173" lon="5.68204">
        <ele>364.48</ele>
        <time>2017-05-21T08:37:45Z</time>
      </trkpt>
      <trkpt lat="46.76166" lon="5.6818">
        <ele>365.44</ele>
        <time>2017-05-21T08:38:02Z</time>
      </trkpt>
      <trkpt lat="46.76159" lon="5.68163">
        <ele>365.92</ele>
        <time>2017-05-21T08:38:13Z</time>
      </trkpt>
      <trkpt lat="46.7615" lon="5.68133">
        <ele>366.4</ele>
        <time>2017-05-21T08:38:31Z</time>
      </trkpt>
      <trkpt lat="46.76146" lon="5.68117">
        <ele>366.88</ele>
        <time>2017-05-21T08:38:43Z</time>
      </trkpt>
      <trkpt lat="46.76145" lon="5.68112">
        <ele>367.36</ele>
        <time>2017-05-21T08:39:05Z</time>
      </trkpt>
      <trkpt lat="46.76142" lon="5.68091">
        <ele>367.36</ele>
        <time>2017-05-21T08:39:18Z</time>
      </trkpt>
      <trkpt lat="46.76141" lon="5.68089">
        <ele>367.84</ele>
        <time>2017-05-21T08:39:19Z</time>
      </trkpt>
      <trkpt lat="46.7614" lon="5.68071">
        <ele>368.32</ele>
        <time>2017-05-21T08:39:30Z</time>
      </trkpt>
      <trkpt lat="46.7614" lon="5.68052">
        <ele>368.8</ele>
        <time>2017-05-21T08:39:39Z</time>
      </trkpt>
      <trkpt lat="46.76144" lon="5.68022">
        <ele>369.28</ele>
        <time>2017-05-21T08:39:55Z</time>
      </trkpt>
      <trkpt lat="46.76147" lon="5.67993">
        <ele>369.76</ele>
        <time>2017-05-21T08:40:11Z</time>
      </trkpt>
      <trkpt lat="46.76151" lon="5.67975">
        <ele>370.24</ele>
        <time>2017-05-21T08:40:22Z</time>
      </trkpt>
      <trkpt lat="46.76152" lon="5.67963">
        <ele>370.73</ele>
        <time>2017-05-21T08:40:30Z</time>
      </trkpt>
      <trkpt lat="46.76159" lon="5.67938">
        <ele>371.21</ele>
        <time>2017-05-21T08:40:45Z</time>
      </trkpt>
      <trkpt lat="46.76163" lon="5.67905">
        <ele>370.73</ele>
        <time>2017-05-21T08:41:02Z</time>
      </trkpt>
      <trkpt lat="46.76165" lon="5.6788">
        <ele>371.21</ele>
        <time>2017-05-21T08:41:15Z</time>
      </trkpt>
      <trkpt lat="46.76163" lon="5.67855">
        <ele>371.69</ele>
        <time>2017-05-21T08:41:30Z</time>
      </trkpt>
      <trkpt lat="46.76161" lon="5.67846">
        <ele>372.65</ele>
        <time>2017-05-21T08:41:36Z</time>
      </trkpt>
      <trkpt lat="46.76155" lon="5.67829">
        <ele>373.61</ele>
        <time>2017-05-21T08:41:48Z</time>
      </trkpt>
      <trkpt lat="46.7615" lon="5.67813">
        <ele>373.61</ele>
        <time>2017-05-21T08:42:02Z</time>
      </trkpt>
      <trkpt lat="46.76146" lon="5.67799">
        <ele>374.57</ele>
        <time>2017-05-21T08:42:11Z</time>
      </trkpt>
      <trkpt lat="46.76138" lon="5.6777">
        <ele>374.57</ele>
        <time>2017-05-21T08:42:25Z</time>
      </trkpt>
      <trkpt lat="46.76136" lon="5.67749">
        <ele>375.05</ele>
        <time>2017-05-21T08:42:39Z</time>
      </trkpt>
      <trkpt lat="46.76136" lon="5.67745">
        <ele>375.05</ele>
        <time>2017-05-21T08:42:43Z</time>
      </trkpt>
      <trkpt lat="46.7613" lon="5.67716">
        <ele>374.57</ele>
        <time>2017-05-21T08:42:59Z</time>
      </trkpt>
      <trkpt lat="46.76124" lon="5.67683">
        <ele>374.09</ele>
        <time>2017-05-21T08:43:13Z</time>
      </trkpt>
      <trkpt lat="46.76116" lon="5.67657">
        <ele>373.13</ele>
        <time>2017-05-21T08:43:27Z</time>
      </trkpt>
      <trkpt lat="46.76106" lon="5.67626">
        <ele>372.65</ele>
        <time>2017-05-21T08:43:42Z</time>
      </trkpt>
      <trkpt lat="46.761" lon="5.67612">
        <ele>372.65</ele>
        <time>2017-05-21T08:43:51Z</time>
      </trkpt>
      <trkpt lat="46.76099" lon="5.67609">
        <ele>372.17</ele>
        <time>2017-05-21T08:43:53Z</time>
      </trkpt>
      <trkpt lat="46.76086" lon="5.67584">
        <ele>372.17</ele>
        <time>2017-05-21T08:44:09Z</time>
      </trkpt>
      <trkpt lat="46.76075" lon="5.67565">
        <ele>372.17</ele>
        <time>2017-05-21T08:44:22Z</time>
      </trkpt>
      <trkpt lat="46.76065" lon="5.67545">
        <ele>373.13</ele>
        <time>2017-05-21T08:44:35Z</time>
      </trkpt>
      <trkpt lat="46.76054" lon="5.67521">
        <ele>373.61</ele>
        <time>2017-05-21T08:44:50Z</time>
      </trkpt>
      <trkpt lat="46.76044" lon="5.67502">
        <ele>375.05</ele>
        <time>2017-05-21T08:45:05Z</time>
      </trkpt>
      <trkpt lat="46.76039" lon="5.67489">
        <ele>375.53</ele>
        <time>2017-05-21T08:45:13Z</time>
      </trkpt>
      <trkpt lat="46.76029" lon="5.67464">
        <ele>376.01</ele>
        <time>2017-05-21T08:45:29Z</time>
      </trkpt>
      <trkpt lat="46.76017" lon="5.67449">
        <ele>376.01</ele>
        <time>2017-05-21T08:45:42Z</time>
      </trkpt>
      <trkpt lat="46.76003" lon="5.67437">
        <ele>375.53</ele>
        <time>2017-05-21T08:45:56Z</time>
      </trkpt>
      <trkpt lat="46.76001" lon="5.67435">
        <ele>375.53</ele>
        <time>2017-05-21T08:45:58Z</time>
      </trkpt>
      <trkpt lat="46.75997" lon="5.67432">
        <ele>375.05</ele>
        <time>2017-05-21T08:46:02Z</time>
      </trkpt>
      <trkpt lat="46.75981" lon="5.67419">
        <ele>374.57</ele>
        <time>2017-05-21T08:46:17Z</time>
      </trkpt>
      <trkpt lat="46.75968" lon="5.67407">
        <ele>373.61</ele>
        <time>2017-05-21T08:46:29Z</time>
      </trkpt>
      <trkpt lat="46.75966" lon="5.67403">
        <ele>373.61</ele>
        <time>2017-05-21T08:46:32Z</time>
      </trkpt>
      <trkpt lat="46.75955" lon="5.67394">
        <ele>372.65</ele>
        <time>2017-05-21T08:46:41Z</time>
      </trkpt>
      <trkpt lat="46.75953" lon="5.67391">
        <ele>372.65</ele>
        <time>2017-05-21T08:46:43Z</time>
      </trkpt>
      <trkpt lat="46.75939" lon="5.67381">
        <ele>371.69</ele>
        <time>2017-05-21T08:46:54Z</time>
      </trkpt>
      <trkpt lat="46.75924" lon="5.67371">
        <ele>370.73</ele>
        <time>2017-05-21T08:47:06Z</time>
      </trkpt>
      <trkpt lat="46.75906" lon="5.6736">
        <ele>369.28</ele>
        <time>2017-05-21T08:47:20Z</time>
      </trkpt>
      <trkpt lat="46.75894" lon="5.67352">
        <ele>368.8</ele>
        <time>2017-05-21T08:47:29Z</time>
      </trkpt>
      <trkpt lat="46.75873" lon="5.6734">
        <ele>367.36</ele>
        <time>2017-05-21T08:47:45Z</time>
      </trkpt>
      <trkpt lat="46.75864" lon="5.67334">
        <ele>367.36</ele>
        <time>2017-05-21T08:47:53Z</time>
      </trkpt>
      <trkpt lat="46.75856" lon="5.67331">
        <ele>366.88</ele>
        <time>2017-05-21T08:47:58Z</time>
      </trkpt>
      <trkpt lat="46.7584" lon="5.67323">
        <ele>366.4</ele>
        <time>2017-05-21T08:48:13Z</time>
      </trkpt>
      <trkpt lat="46.75828" lon="5.67315">
        <ele>365.92</ele>
        <time>2017-05-21T08:48:26Z</time>
      </trkpt>
      <trkpt lat="46.75813" lon="5.67306">
        <ele>365.44</ele>
        <time>2017-05-21T08:48:38Z</time>
      </trkpt>
      <trkpt lat="46.75794" lon="5.67297">
        <ele>364.96</ele>
        <time>2017-05-21T08:48:51Z</time>
      </trkpt>
      <trkpt lat="46.75774" lon="5.6729">
        <ele>365.44</ele>
        <time>2017-05-21T08:49:05Z</time>
      </trkpt>
      <trkpt lat="46.75755" lon="5.67287">
        <ele>364.96</ele>
        <time>2017-05-21T08:49:19Z</time>
      </trkpt>
      <trkpt lat="46.7575" lon="5.67288">
        <ele>364.96</ele>
        <time>2017-05-21T08:49:23Z</time>
      </trkpt>
      <trkpt lat="46.75733" lon="5.67283">
        <ele>364</ele>
        <time>2017-05-21T08:49:37Z</time>
      </trkpt>
      <trkpt lat="46.75727" lon="5.67281">
        <ele>364</ele>
        <time>2017-05-21T08:49:41Z</time>
      </trkpt>
      <trkpt lat="46.75713" lon="5.67277">
        <ele>363.52</ele>
        <time>2017-05-21T08:49:52Z</time>
      </trkpt>
      <trkpt lat="46.75696" lon="5.67271">
        <ele>363.04</ele>
        <time>2017-05-21T08:50:05Z</time>
      </trkpt>
      <trkpt lat="46.75692" lon="5.6727">
        <ele>363.04</ele>
        <time>2017-05-21T08:50:08Z</time>
      </trkpt>
      <trkpt lat="46.75675" lon="5.67264">
        <ele>361.59</ele>
        <time>2017-05-21T08:50:22Z</time>
      </trkpt>
      <trkpt lat="46.75667" lon="5.6726">
        <ele>361.11</ele>
        <time>2017-05-21T08:50:29Z</time>
      </trkpt>
      <trkpt lat="46.75665" lon="5.67258">
        <ele>361.11</ele>
        <time>2017-05-21T08:50:31Z</time>
      </trkpt>
      <trkpt lat="46.75661" lon="5.67255">
        <ele>360.63</ele>
        <time>2017-05-21T08:50:35Z</time>
      </trkpt>
      <trkpt lat="46.75648" lon="5.67244">
        <ele>360.15</ele>
        <time>2017-05-21T08:50:46Z</time>
      </trkpt>
      <trkpt lat="46.75635" lon="5.67235">
        <ele>360.15</ele>
        <time>2017-05-21T08:50:58Z</time>
      </trkpt>
      <trkpt lat="46.7562" lon="5.67222">
        <ele>360.15</ele>
        <time>2017-05-21T08:51:12Z</time>
      </trkpt>
      <trkpt lat="46.75602" lon="5.67213">
        <ele>359.19</ele>
        <time>2017-05-21T08:51:26Z</time>
      </trkpt>
      <trkpt lat="46.75601" lon="5.67212">
        <ele>359.67</ele>
        <time>2017-05-21T08:51:27Z</time>
      </trkpt>
      <trkpt lat="46.75581" lon="5.6721">
        <ele>358.71</ele>
        <time>2017-05-21T08:51:42Z</time>
      </trkpt>
      <trkpt lat="46.75564" lon="5.6721">
        <ele>358.23</ele>
        <time>2017-05-21T08:51:55Z</time>
      </trkpt>
      <trkpt lat="46.75547" lon="5.6721">
        <ele>358.23</ele>
        <time>2017-05-21T08:52:08Z</time>
      </trkpt>
      <trkpt lat="46.75525" lon="5.6721">
        <ele>357.75</ele>
        <time>2017-05-21T08:52:25Z</time>
      </trkpt>
      <trkpt lat="46.75507" lon="5.67208">
        <ele>356.79</ele>
        <time>2017-05-21T08:52:39Z</time>
      </trkpt>
      <trkpt lat="46.75501" lon="5.67206">
        <ele>356.79</ele>
        <time>2017-05-21T08:52:43Z</time>
      </trkpt>
      <trkpt lat="46.75494" lon="5.67203">
        <ele>356.79</ele>
        <time>2017-05-21T08:52:49Z</time>
      </trkpt>
      <trkpt lat="46.75489" lon="5.672">
        <ele>356.79</ele>
        <time>2017-05-21T08:52:54Z</time>
      </trkpt>
      <trkpt lat="46.75474" lon="5.6719">
        <ele>357.27</ele>
        <time>2017-05-21T08:53:07Z</time>
      </trkpt>
      <trkpt lat="46.75455" lon="5.67174">
        <ele>356.31</ele>
        <time>2017-05-21T08:53:23Z</time>
      </trkpt>
      <trkpt lat="46.7545" lon="5.67168">
        <ele>355.34</ele>
        <time>2017-05-21T08:53:28Z</time>
      </trkpt>
      <trkpt lat="46.7544" lon="5.67158">
        <ele>355.34</ele>
        <time>2017-05-21T08:53:38Z</time>
      </trkpt>
      <trkpt lat="46.75426" lon="5.67145">
        <ele>354.38</ele>
        <time>2017-05-21T08:53:52Z</time>
      </trkpt>
      <trkpt lat="46.75418" lon="5.67138">
        <ele>353.9</ele>
        <time>2017-05-21T08:53:59Z</time>
      </trkpt>
      <trkpt lat="46.75402" lon="5.67123">
        <ele>351.98</ele>
        <time>2017-05-21T08:54:14Z</time>
      </trkpt>
      <trkpt lat="46.754" lon="5.67121">
        <ele>351.98</ele>
        <time>2017-05-21T08:54:16Z</time>
      </trkpt>
      <trkpt lat="46.75392" lon="5.67113">
        <ele>351.5</ele>
        <time>2017-05-21T08:54:25Z</time>
      </trkpt>
      <trkpt lat="46.75377" lon="5.67099">
        <ele>350.06</ele>
        <time>2017-05-21T08:54:41Z</time>
      </trkpt>
      <trkpt lat="46.75363" lon="5.67086">
        <ele>349.1</ele>
        <time>2017-05-21T08:54:54Z</time>
      </trkpt>
      <trkpt lat="46.75357" lon="5.6708">
        <ele>349.1</ele>
        <time>2017-05-21T08:54:58Z</time>
      </trkpt>
      <trkpt lat="46.75342" lon="5.67066">
        <ele>349.1</ele>
        <time>2017-05-21T08:55:10Z</time>
      </trkpt>
      <trkpt lat="46.7534" lon="5.67064">
        <ele>349.1</ele>
        <time>2017-05-21T08:55:12Z</time>
      </trkpt>
      <trkpt lat="46.75321" lon="5.6705">
        <ele>348.62</ele>
        <time>2017-05-21T08:55:28Z</time>
      </trkpt>
      <trkpt lat="46.75319" lon="5.67048">
        <ele>348.13</ele>
        <time>2017-05-21T08:55:30Z</time>
      </trkpt>
      <trkpt lat="46.75317" lon="5.67046">
        <ele>348.62</ele>
        <time>2017-05-21T08:55:32Z</time>
      </trkpt>
      <trkpt lat="46.75304" lon="5.67037">
        <ele>348.62</ele>
        <time>2017-05-21T08:55:44Z</time>
      </trkpt>
      <trkpt lat="46.75285" lon="5.67029">
        <ele>348.62</ele>
        <time>2017-05-21T08:55:58Z</time>
      </trkpt>
      <trkpt lat="46.75268" lon="5.67024">
        <ele>348.13</ele>
        <time>2017-05-21T08:56:12Z</time>
      </trkpt>
      <trkpt lat="46.75263" lon="5.67024">
        <ele>348.62</ele>
        <time>2017-05-21T08:56:16Z</time>
      </trkpt>
      <trkpt lat="46.75245" lon="5.67018">
        <ele>349.1</ele>
        <time>2017-05-21T08:56:30Z</time>
      </trkpt>
      <trkpt lat="46.75229" lon="5.67011">
        <ele>350.54</ele>
        <time>2017-05-21T08:56:45Z</time>
      </trkpt>
      <trkpt lat="46.7521" lon="5.67018">
        <ele>350.06</ele>
        <time>2017-05-21T08:56:59Z</time>
      </trkpt>
      <trkpt lat="46.75193" lon="5.67023">
        <ele>349.58</ele>
        <time>2017-05-21T08:57:12Z</time>
      </trkpt>
      <trkpt lat="46.75176" lon="5.67029">
        <ele>349.58</ele>
        <time>2017-05-21T08:57:25Z</time>
      </trkpt>
      <trkpt lat="46.75156" lon="5.67034">
        <ele>348.62</ele>
        <time>2017-05-21T08:57:41Z</time>
      </trkpt>
      <trkpt lat="46.75146" lon="5.67036">
        <ele>348.62</ele>
        <time>2017-05-21T08:57:55Z</time>
      </trkpt>
      <trkpt lat="46.75139" lon="5.67037">
        <ele>348.62</ele>
        <time>2017-05-21T08:58:09Z</time>
      </trkpt>
      <trkpt lat="46.75137" lon="5.6704">
        <ele>348.13</ele>
        <time>2017-05-21T08:58:23Z</time>
      </trkpt>
      <trkpt lat="46.75137" lon="5.6704">
        <ele>348.13</ele>
        <time>2017-05-21T08:58:40Z</time>
      </trkpt>
      <trkpt lat="46.75137" lon="5.6704">
        <ele>348.13</ele>
        <time>2017-05-21T08:58:57Z</time>
      </trkpt>
      <trkpt lat="46.75137" lon="5.67041">
        <ele>348.13</ele>
        <time>2017-05-21T08:59:17Z</time>
      </trkpt>
      <trkpt lat="46.75139" lon="5.6705">
        <ele>346.69</ele>
        <time>2017-05-21T08:59:25Z</time>
      </trkpt>
      <trkpt lat="46.75139" lon="5.67057">
        <ele>346.21</ele>
        <time>2017-05-21T08:59:29Z</time>
      </trkpt>
      <trkpt lat="46.75139" lon="5.67063">
        <ele>346.21</ele>
        <time>2017-05-21T08:59:33Z</time>
      </trkpt>
      <trkpt lat="46.75135" lon="5.67073">
        <ele>344.77</ele>
        <time>2017-05-21T08:59:42Z</time>
      </trkpt>
      <trkpt lat="46.75123" lon="5.67074">
        <ele>342.85</ele>
        <time>2017-05-21T08:59:55Z</time>
      </trkpt>
      <trkpt lat="46.7511" lon="5.67071">
        <ele>341.41</ele>
        <time>2017-05-21T09:00:08Z</time>
      </trkpt>
      <trkpt lat="46.75104" lon="5.67068">
        <ele>340.92</ele>
        <time>2017-05-21T09:00:24Z</time>
      </trkpt>
      <trkpt lat="46.75099" lon="5.67064">
        <ele>339.96</ele>
        <time>2017-05-21T09:00:49Z</time>
      </trkpt>
      <trkpt lat="46.75092" lon="5.67055">
        <ele>338.52</ele>
        <time>2017-05-21T09:01:00Z</time>
      </trkpt>
      <trkpt lat="46.75083" lon="5.6705">
        <ele>337.56</ele>
        <time>2017-05-21T09:01:14Z</time>
      </trkpt>
      <trkpt lat="46.75075" lon="5.67046">
        <ele>336.12</ele>
        <time>2017-05-21T09:01:23Z</time>
      </trkpt>
      <trkpt lat="46.75061" lon="5.67045">
        <ele>335.16</ele>
        <time>2017-05-21T09:01:37Z</time>
      </trkpt>
      <trkpt lat="46.75054" lon="5.67042">
        <ele>334.2</ele>
        <time>2017-05-21T09:01:47Z</time>
      </trkpt>
      <trkpt lat="46.75053" lon="5.67042">
        <ele>333.71</ele>
        <time>2017-05-21T09:01:48Z</time>
      </trkpt>
      <trkpt lat="46.75038" lon="5.67033">
        <ele>333.23</ele>
        <time>2017-05-21T09:02:02Z</time>
      </trkpt>
      <trkpt lat="46.75036" lon="5.67031">
        <ele>331.79</ele>
        <time>2017-05-21T09:02:05Z</time>
      </trkpt>
      <trkpt lat="46.75034" lon="5.67028">
        <ele>331.79</ele>
        <time>2017-05-21T09:02:08Z</time>
      </trkpt>
      <trkpt lat="46.75022" lon="5.67023">
        <ele>330.35</ele>
        <time>2017-05-21T09:02:20Z</time>
      </trkpt>
      <trkpt lat="46.7502" lon="5.67025">
        <ele>330.35</ele>
        <time>2017-05-21T09:02:23Z</time>
      </trkpt>
      <trkpt lat="46.75007" lon="5.6704">
        <ele>327.47</ele>
        <time>2017-05-21T09:02:39Z</time>
      </trkpt>
      <trkpt lat="46.74999" lon="5.67054">
        <ele>326.99</ele>
        <time>2017-05-21T09:02:49Z</time>
      </trkpt>
      <trkpt lat="46.74996" lon="5.67056">
        <ele>326.99</ele>
        <time>2017-05-21T09:03:10Z</time>
      </trkpt>
      <trkpt lat="46.74996" lon="5.67057">
        <ele>326.5</ele>
        <time>2017-05-21T09:03:26Z</time>
      </trkpt>
      <trkpt lat="46.74996" lon="5.67059">
        <ele>326.5</ele>
        <time>2017-05-21T09:03:41Z</time>
      </trkpt>
      <trkpt lat="46.74995" lon="5.67061">
        <ele>326.99</ele>
        <time>2017-05-21T09:03:58Z</time>
      </trkpt>
      <trkpt lat="46.74996" lon="5.67067">
        <ele>326.02</ele>
        <time>2017-05-21T09:04:07Z</time>
      </trkpt>
      <trkpt lat="46.74993" lon="5.67064">
        <ele>326.02</ele>
        <time>2017-05-21T09:04:21Z</time>
      </trkpt>
      <trkpt lat="46.74994" lon="5.67064">
        <ele>326.5</ele>
        <time>2017-05-21T09:04:46Z</time>
      </trkpt>
      <trkpt lat="46.74993" lon="5.67063">
        <ele>326.02</ele>
        <time>2017-05-21T09:05:03Z</time>
      </trkpt>
      <trkpt lat="46.74992" lon="5.67062">
        <ele>326.5</ele>
        <time>2017-05-21T09:05:29Z</time>
      </trkpt>
      <trkpt lat="46.74992" lon="5.67064">
        <ele>326.5</ele>
        <time>2017-05-21T09:05:31Z</time>
      </trkpt>
      <trkpt lat="46.74992" lon="5.6707">
        <ele>326.5</ele>
        <time>2017-05-21T09:05:44Z</time>
      </trkpt>
      <trkpt lat="46.74992" lon="5.67069">
        <ele>326.5</ele>
        <time>2017-05-21T09:06:08Z</time>
      </trkpt>
      <trkpt lat="46.74992" lon="5.67069">
        <ele>326.99</ele>
        <time>2017-05-21T09:06:29Z</time>
      </trkpt>
      <trkpt lat="46.74992" lon="5.67073">
        <ele>326.02</ele>
        <time>2017-05-21T09:06:46Z</time>
      </trkpt>
      <trkpt lat="46.74988" lon="5.67088">
        <ele>326.02</ele>
        <time>2017-05-21T09:06:57Z</time>
      </trkpt>
      <trkpt lat="46.74986" lon="5.67095">
        <ele>326.02</ele>
        <time>2017-05-21T09:07:12Z</time>
      </trkpt>
      <trkpt lat="46.74985" lon="5.671">
        <ele>326.02</ele>
        <time>2017-05-21T09:07:30Z</time>
      </trkpt>
      <trkpt lat="46.74981" lon="5.67109">
        <ele>325.06</ele>
        <time>2017-05-21T09:07:43Z</time>
      </trkpt>
      <trkpt lat="46.7497" lon="5.67134">
        <ele>325.54</ele>
        <time>2017-05-21T09:07:57Z</time>
      </trkpt>
      <trkpt lat="46.7496" lon="5.67157">
        <ele>325.06</ele>
        <time>2017-05-21T09:08:11Z</time>
      </trkpt>
      <trkpt lat="46.74951" lon="5.67176">
        <ele>324.58</ele>
        <time>2017-05-21T09:08:21Z</time>
      </trkpt>
      <trkpt lat="46.74942" lon="5.67191">
        <ele>325.06</ele>
        <time>2017-05-21T09:08:31Z</time>
      </trkpt>
      <trkpt lat="46.74944" lon="5.672">
        <ele>324.1</ele>
        <time>2017-05-21T09:08:47Z</time>
      </trkpt>
      <trkpt lat="46.74942" lon="5.67199">
        <ele>324.1</ele>
        <time>2017-05-21T09:08:49Z</time>
      </trkpt>
      <trkpt lat="46.74938" lon="5.67199">
        <ele>324.1</ele>
        <time>2017-05-21T09:08:53Z</time>
      </trkpt>
      <trkpt lat="46.74934" lon="5.67206">
        <ele>324.1</ele>
        <time>2017-05-21T09:08:59Z</time>
      </trkpt>
      <trkpt lat="46.7493" lon="5.67209">
        <ele>324.1</ele>
        <time>2017-05-21T09:09:18Z</time>
      </trkpt>
      <trkpt lat="46.74931" lon="5.67208">
        <ele>324.1</ele>
        <time>2017-05-21T09:09:38Z</time>
      </trkpt>
      <trkpt lat="46.74932" lon="5.67209">
        <ele>323.62</ele>
        <time>2017-05-21T09:09:58Z</time>
      </trkpt>
      <trkpt lat="46.74931" lon="5.67209">
        <ele>324.1</ele>
        <time>2017-05-21T09:10:20Z</time>
      </trkpt>
      <trkpt lat="46.74931" lon="5.6721">
        <ele>324.1</ele>
        <time>2017-05-21T09:10:36Z</time>
      </trkpt>
      <trkpt lat="46.74931" lon="5.67211">
        <ele>323.62</ele>
        <time>2017-05-21T09:10:57Z</time>
      </trkpt>
      <trkpt lat="46.7493" lon="5.67211">
        <ele>323.62</ele>
        <time>2017-05-21T09:11:13Z</time>
      </trkpt>
      <trkpt lat="46.74932" lon="5.67229">
        <ele>323.14</ele>
        <time>2017-05-21T09:11:25Z</time>
      </trkpt>
      <trkpt lat="46.74935" lon="5.67244">
        <ele>323.62</ele>
        <time>2017-05-21T09:11:35Z</time>
      </trkpt>
      <trkpt lat="46.74935" lon="5.67259">
        <ele>323.62</ele>
        <time>2017-05-21T09:11:43Z</time>
      </trkpt>
      <trkpt lat="46.74935" lon="5.67274">
        <ele>324.1</ele>
        <time>2017-05-21T09:11:55Z</time>
      </trkpt>
      <trkpt lat="46.74934" lon="5.67291">
        <ele>324.1</ele>
        <time>2017-05-21T09:12:06Z</time>
      </trkpt>
      <trkpt lat="46.74933" lon="5.67306">
        <ele>324.58</ele>
        <time>2017-05-21T09:12:17Z</time>
      </trkpt>
      <trkpt lat="46.74935" lon="5.67322">
        <ele>325.06</ele>
        <time>2017-05-21T09:12:29Z</time>
      </trkpt>
      <trkpt lat="46.74934" lon="5.67337">
        <ele>326.02</ele>
        <time>2017-05-21T09:12:38Z</time>
      </trkpt>
      <trkpt lat="46.74935" lon="5.67344">
        <ele>326.02</ele>
        <time>2017-05-21T09:12:42Z</time>
      </trkpt>
      <trkpt lat="46.74933" lon="5.67358">
        <ele>326.99</ele>
        <time>2017-05-21T09:12:54Z</time>
      </trkpt>
      <trkpt lat="46.74933" lon="5.67368">
        <ele>327.47</ele>
        <time>2017-05-21T09:13:05Z</time>
      </trkpt>
      <trkpt lat="46.74933" lon="5.67384">
        <ele>328.43</ele>
        <time>2017-05-21T09:13:14Z</time>
      </trkpt>
      <trkpt lat="46.74932" lon="5.67387">
        <ele>327.95</ele>
        <time>2017-05-21T09:13:16Z</time>
      </trkpt>
      <trkpt lat="46.74933" lon="5.67396">
        <ele>328.91</ele>
        <time>2017-05-21T09:13:23Z</time>
      </trkpt>
      <trkpt lat="46.74932" lon="5.67413">
        <ele>329.39</ele>
        <time>2017-05-21T09:13:33Z</time>
      </trkpt>
      <trkpt lat="46.74933" lon="5.67429">
        <ele>330.35</ele>
        <time>2017-05-21T09:13:44Z</time>
      </trkpt>
      <trkpt lat="46.74935" lon="5.67434">
        <ele>330.35</ele>
        <time>2017-05-21T09:13:47Z</time>
      </trkpt>
      <trkpt lat="46.74941" lon="5.67445">
        <ele>331.79</ele>
        <time>2017-05-21T09:13:59Z</time>
      </trkpt>
      <trkpt lat="46.74948" lon="5.67445">
        <ele>331.79</ele>
        <time>2017-05-21T09:14:04Z</time>
      </trkpt>
      <trkpt lat="46.74953" lon="5.67436">
        <ele>332.27</ele>
        <time>2017-05-21T09:14:10Z</time>
      </trkpt>
      <trkpt lat="46.74956" lon="5.67422">
        <ele>333.23</ele>
        <time>2017-05-21T09:14:19Z</time>
      </trkpt>
      <trkpt lat="46.74962" lon="5.67407">
        <ele>334.68</ele>
        <time>2017-05-21T09:14:32Z</time>
      </trkpt>
      <trkpt lat="46.74963" lon="5.67408">
        <ele>334.2</ele>
        <time>2017-05-21T09:14:57Z</time>
      </trkpt>
      <trkpt lat="46.74963" lon="5.67408">
        <ele>334.68</ele>
        <time>2017-05-21T09:15:20Z</time>
      </trkpt>
      <trkpt lat="46.74957" lon="5.67405">
        <ele>334.2</ele>
        <time>2017-05-21T09:15:39Z</time>
      </trkpt>
      <trkpt lat="46.74957" lon="5.67404">
        <ele>333.71</ele>
        <time>2017-05-21T09:15:40Z</time>
      </trkpt>
      <trkpt lat="46.74954" lon="5.67401">
        <ele>334.68</ele>
        <time>2017-05-21T09:15:55Z</time>
      </trkpt>
      <trkpt lat="46.74954" lon="5.67401">
        <ele>334.68</ele>
        <time>2017-05-21T09:16:12Z</time>
      </trkpt>
      <trkpt lat="46.74955" lon="5.67402">
        <ele>335.16</ele>
        <time>2017-05-21T09:16:16Z</time>
      </trkpt>
      <trkpt lat="46.74962" lon="5.674">
        <ele>335.16</ele>
        <time>2017-05-21T09:16:24Z</time>
      </trkpt>
      <trkpt lat="46.74965" lon="5.67398">
        <ele>335.16</ele>
        <time>2017-05-21T09:16:36Z</time>
      </trkpt>
      <trkpt lat="46.74967" lon="5.67397">
        <ele>334.68</ele>
        <time>2017-05-21T09:17:07Z</time>
      </trkpt>
      <trkpt lat="46.7497" lon="5.67394">
        <ele>336.12</ele>
        <time>2017-05-21T09:17:11Z</time>
      </trkpt>
      <trkpt lat="46.74986" lon="5.67381">
        <ele>337.08</ele>
        <time>2017-05-21T09:17:26Z</time>
      </trkpt>
      <trkpt lat="46.74999" lon="5.6737">
        <ele>338.04</ele>
        <time>2017-05-21T09:17:41Z</time>
      </trkpt>
      <trkpt lat="46.75014" lon="5.6736">
        <ele>339</ele>
        <time>2017-05-21T09:17:56Z</time>
      </trkpt>
      <trkpt lat="46.75027" lon="5.67359">
        <ele>339.96</ele>
        <time>2017-05-21T09:18:08Z</time>
      </trkpt>
      <trkpt lat="46.7503" lon="5.6736">
        <ele>340.44</ele>
        <time>2017-05-21T09:18:26Z</time>
      </trkpt>
      <trkpt lat="46.75034" lon="5.67365">
        <ele>342.37</ele>
        <time>2017-05-21T09:18:39Z</time>
      </trkpt>
      <trkpt lat="46.75041" lon="5.67373">
        <ele>345.25</ele>
        <time>2017-05-21T09:18:57Z</time>
      </trkpt>
      <trkpt lat="46.75046" lon="5.67385">
        <ele>347.17</ele>
        <time>2017-05-21T09:19:13Z</time>
      </trkpt>
      <trkpt lat="46.75052" lon="5.67395">
        <ele>349.58</ele>
        <time>2017-05-21T09:19:30Z</time>
      </trkpt>
      <trkpt lat="46.75054" lon="5.67404">
        <ele>351.5</ele>
        <time>2017-05-21T09:19:44Z</time>
      </trkpt>
      <trkpt lat="46.75055" lon="5.67416">
        <ele>354.38</ele>
        <time>2017-05-21T09:19:58Z</time>
      </trkpt>
      <trkpt lat="46.75056" lon="5.67424">
        <ele>356.79</ele>
        <time>2017-05-21T09:20:13Z</time>
      </trkpt>
      <trkpt lat="46.7506" lon="5.67441">
        <ele>358.71</ele>
        <time>2017-05-21T09:20:27Z</time>
      </trkpt>
      <trkpt lat="46.7506" lon="5.67448">
        <ele>361.11</ele>
        <time>2017-05-21T09:20:41Z</time>
      </trkpt>
      <trkpt lat="46.75062" lon="5.67454">
        <ele>363.04</ele>
        <time>2017-05-21T09:20:58Z</time>
      </trkpt>
      <trkpt lat="46.75064" lon="5.67463">
        <ele>365.92</ele>
        <time>2017-05-21T09:21:12Z</time>
      </trkpt>
      <trkpt lat="46.75065" lon="5.6747">
        <ele>367.36</ele>
        <time>2017-05-21T09:21:26Z</time>
      </trkpt>
      <trkpt lat="46.75065" lon="5.67474">
        <ele>367.84</ele>
        <time>2017-05-21T09:21:30Z</time>
      </trkpt>
      <trkpt lat="46.75062" lon="5.6749">
        <ele>371.21</ele>
        <time>2017-05-21T09:21:44Z</time>
      </trkpt>
      <trkpt lat="46.75061" lon="5.67499">
        <ele>373.13</ele>
        <time>2017-05-21T09:21:57Z</time>
      </trkpt>
      <trkpt lat="46.75059" lon="5.67507">
        <ele>374.09</ele>
        <time>2017-05-21T09:22:10Z</time>
      </trkpt>
      <trkpt lat="46.75061" lon="5.67516">
        <ele>375.53</ele>
        <time>2017-05-21T09:22:26Z</time>
      </trkpt>
      <trkpt lat="46.75066" lon="5.67518">
        <ele>377.45</ele>
        <time>2017-05-21T09:22:38Z</time>
      </trkpt>
      <trkpt lat="46.75068" lon="5.67518">
        <ele>379.38</ele>
        <time>2017-05-21T09:22:52Z</time>
      </trkpt>
      <trkpt lat="46.75071" lon="5.67517">
        <ele>381.3</ele>
        <time>2017-05-21T09:23:07Z</time>
      </trkpt>
      <trkpt lat="46.75074" lon="5.67517">
        <ele>383.7</ele>
        <time>2017-05-21T09:23:23Z</time>
      </trkpt>
      <trkpt lat="46.75076" lon="5.67519">
        <ele>385.15</ele>
        <time>2017-05-21T09:23:36Z</time>
      </trkpt>
      <trkpt lat="46.75078" lon="5.67525">
        <ele>387.07</ele>
        <time>2017-05-21T09:23:51Z</time>
      </trkpt>
      <trkpt lat="46.75078" lon="5.67535">
        <ele>388.51</ele>
        <time>2017-05-21T09:24:05Z</time>
      </trkpt>
      <trkpt lat="46.75079" lon="5.67542">
        <ele>389.95</ele>
        <time>2017-05-21T09:24:18Z</time>
      </trkpt>
      <trkpt lat="46.7508" lon="5.6755">
        <ele>392.36</ele>
        <time>2017-05-21T09:24:31Z</time>
      </trkpt>
      <trkpt lat="46.75079" lon="5.67565">
        <ele>392.36</ele>
        <time>2017-05-21T09:24:43Z</time>
      </trkpt>
      <trkpt lat="46.75078" lon="5.67577">
        <ele>394.28</ele>
        <time>2017-05-21T09:24:58Z</time>
      </trkpt>
      <trkpt lat="46.75078" lon="5.67588">
        <ele>395.72</ele>
        <time>2017-05-21T09:25:12Z</time>
      </trkpt>
      <trkpt lat="46.75077" lon="5.67602">
        <ele>397.64</ele>
        <time>2017-05-21T09:25:26Z</time>
      </trkpt>
      <trkpt lat="46.75076" lon="5.67609">
        <ele>399.08</ele>
        <time>2017-05-21T09:25:37Z</time>
      </trkpt>
      <trkpt lat="46.75073" lon="5.67618">
        <ele>400.53</ele>
        <time>2017-05-21T09:25:49Z</time>
      </trkpt>
      <trkpt lat="46.75073" lon="5.67627">
        <ele>402.93</ele>
        <time>2017-05-21T09:26:05Z</time>
      </trkpt>
      <trkpt lat="46.75073" lon="5.67632">
        <ele>404.85</ele>
        <time>2017-05-21T09:26:20Z</time>
      </trkpt>
      <trkpt lat="46.75073" lon="5.67636">
        <ele>406.29</ele>
        <time>2017-05-21T09:26:34Z</time>
      </trkpt>
      <trkpt lat="46.75073" lon="5.6764">
        <ele>407.74</ele>
        <time>2017-05-21T09:26:46Z</time>
      </trkpt>
      <trkpt lat="46.75075" lon="5.67643">
        <ele>409.66</ele>
        <time>2017-05-21T09:27:00Z</time>
      </trkpt>
      <trkpt lat="46.75082" lon="5.67649">
        <ele>411.58</ele>
        <time>2017-05-21T09:27:13Z</time>
      </trkpt>
      <trkpt lat="46.75084" lon="5.67658">
        <ele>412.06</ele>
        <time>2017-05-21T09:27:25Z</time>
      </trkpt>
      <trkpt lat="46.75081" lon="5.67671">
        <ele>412.54</ele>
        <time>2017-05-21T09:27:41Z</time>
      </trkpt>
      <trkpt lat="46.75078" lon="5.67681">
        <ele>413.02</ele>
        <time>2017-05-21T09:27:55Z</time>
      </trkpt>
      <trkpt lat="46.75074" lon="5.67689">
        <ele>414.47</ele>
        <time>2017-05-21T09:28:05Z</time>
      </trkpt>
      <trkpt lat="46.75073" lon="5.67696">
        <ele>415.91</ele>
        <time>2017-05-21T09:28:18Z</time>
      </trkpt>
      <trkpt lat="46.75069" lon="5.67705">
        <ele>418.31</ele>
        <time>2017-05-21T09:28:31Z</time>
      </trkpt>
      <trkpt lat="46.75067" lon="5.6771">
        <ele>419.75</ele>
        <time>2017-05-21T09:28:44Z</time>
      </trkpt>
      <trkpt lat="46.75066" lon="5.67713">
        <ele>422.16</ele>
        <time>2017-05-21T09:28:56Z</time>
      </trkpt>
      <trkpt lat="46.75063" lon="5.6772">
        <ele>423.6</ele>
        <time>2017-05-21T09:29:08Z</time>
      </trkpt>
      <trkpt lat="46.7506" lon="5.67726">
        <ele>426</ele>
        <time>2017-05-21T09:29:22Z</time>
      </trkpt>
      <trkpt lat="46.75058" lon="5.67742">
        <ele>428.4</ele>
        <time>2017-05-21T09:29:34Z</time>
      </trkpt>
      <trkpt lat="46.75056" lon="5.67755">
        <ele>429.37</ele>
        <time>2017-05-21T09:29:48Z</time>
      </trkpt>
      <trkpt lat="46.75053" lon="5.67761">
        <ele>431.29</ele>
        <time>2017-05-21T09:29:59Z</time>
      </trkpt>
      <trkpt lat="46.75051" lon="5.67771">
        <ele>433.21</ele>
        <time>2017-05-21T09:30:13Z</time>
      </trkpt>
      <trkpt lat="46.75045" lon="5.67792">
        <ele>435.61</ele>
        <time>2017-05-21T09:30:27Z</time>
      </trkpt>
      <trkpt lat="46.75044" lon="5.67802">
        <ele>437.06</ele>
        <time>2017-05-21T09:30:39Z</time>
      </trkpt>
      <trkpt lat="46.75044" lon="5.67805">
        <ele>438.02</ele>
        <time>2017-05-21T09:30:46Z</time>
      </trkpt>
      <trkpt lat="46.75038" lon="5.67825">
        <ele>440.42</ele>
        <time>2017-05-21T09:31:02Z</time>
      </trkpt>
      <trkpt lat="46.75036" lon="5.67828">
        <ele>442.82</ele>
        <time>2017-05-21T09:31:17Z</time>
      </trkpt>
      <trkpt lat="46.75035" lon="5.67832">
        <ele>444.27</ele>
        <time>2017-05-21T09:31:30Z</time>
      </trkpt>
      <trkpt lat="46.75034" lon="5.67834">
        <ele>446.19</ele>
        <time>2017-05-21T09:31:43Z</time>
      </trkpt>
      <trkpt lat="46.75032" lon="5.67837">
        <ele>449.07</ele>
        <time>2017-05-21T09:32:00Z</time>
      </trkpt>
      <trkpt lat="46.75032" lon="5.67843">
        <ele>451</ele>
        <time>2017-05-21T09:32:17Z</time>
      </trkpt>
      <trkpt lat="46.75031" lon="5.67847">
        <ele>453.4</ele>
        <time>2017-05-21T09:32:34Z</time>
      </trkpt>
      <trkpt lat="46.75031" lon="5.67851">
        <ele>455.32</ele>
        <time>2017-05-21T09:32:49Z</time>
      </trkpt>
      <trkpt lat="46.75028" lon="5.6786">
        <ele>457.24</ele>
        <time>2017-05-21T09:33:02Z</time>
      </trkpt>
      <trkpt lat="46.75026" lon="5.67869">
        <ele>459.17</ele>
        <time>2017-05-21T09:33:15Z</time>
      </trkpt>
      <trkpt lat="46.75023" lon="5.67877">
        <ele>461.57</ele>
        <time>2017-05-21T09:33:32Z</time>
      </trkpt>
      <trkpt lat="46.75022" lon="5.67882">
        <ele>463.49</ele>
        <time>2017-05-21T09:33:47Z</time>
      </trkpt>
      <trkpt lat="46.75024" lon="5.67887">
        <ele>465.42</ele>
        <time>2017-05-21T09:34:01Z</time>
      </trkpt>
      <trkpt lat="46.75026" lon="5.67891">
        <ele>467.34</ele>
        <time>2017-05-21T09:34:14Z</time>
      </trkpt>
      <trkpt lat="46.75031" lon="5.67894">
        <ele>468.3</ele>
        <time>2017-05-21T09:34:25Z</time>
      </trkpt>
      <trkpt lat="46.75037" lon="5.67896">
        <ele>469.26</ele>
        <time>2017-05-21T09:34:38Z</time>
      </trkpt>
      <trkpt lat="46.7504" lon="5.67895">
        <ele>470.22</ele>
        <time>2017-05-21T09:34:46Z</time>
      </trkpt>
      <trkpt lat="46.75046" lon="5.67889">
        <ele>470.7</ele>
        <time>2017-05-21T09:34:56Z</time>
      </trkpt>
      <trkpt lat="46.75049" lon="5.67885">
        <ele>463.97</ele>
        <time>2017-05-21T09:35:02Z</time>
      </trkpt>
      <trkpt lat="46.7505" lon="5.67885">
        <ele>473.11</ele>
        <time>2017-05-21T09:35:03Z</time>
      </trkpt>
      <trkpt lat="46.75057" lon="5.67879">
        <ele>473.11</ele>
        <time>2017-05-21T09:35:14Z</time>
      </trkpt>
      <trkpt lat="46.75057" lon="5.67889">
        <ele>475.03</ele>
        <time>2017-05-21T09:35:28Z</time>
      </trkpt>
      <trkpt lat="46.75058" lon="5.67901">
        <ele>476.47</ele>
        <time>2017-05-21T09:35:42Z</time>
      </trkpt>
      <trkpt lat="46.75059" lon="5.67902">
        <ele>476.95</ele>
        <time>2017-05-21T09:35:46Z</time>
      </trkpt>
      <trkpt lat="46.75071" lon="5.67914">
        <ele>478.39</ele>
        <time>2017-05-21T09:36:02Z</time>
      </trkpt>
      <trkpt lat="46.75074" lon="5.67916">
        <ele>479.84</ele>
        <time>2017-05-21T09:36:14Z</time>
      </trkpt>
      <trkpt lat="46.75079" lon="5.67921">
        <ele>481.76</ele>
        <time>2017-05-21T09:36:28Z</time>
      </trkpt>
      <trkpt lat="46.75084" lon="5.67925">
        <ele>483.2</ele>
        <time>2017-05-21T09:36:44Z</time>
      </trkpt>
      <trkpt lat="46.75088" lon="5.67928">
        <ele>485.12</ele>
        <time>2017-05-21T09:36:59Z</time>
      </trkpt>
      <trkpt lat="46.75093" lon="5.67931">
        <ele>486.56</ele>
        <time>2017-05-21T09:37:15Z</time>
      </trkpt>
      <trkpt lat="46.75102" lon="5.67937">
        <ele>488.49</ele>
        <time>2017-05-21T09:37:27Z</time>
      </trkpt>
      <trkpt lat="46.75108" lon="5.67937">
        <ele>488.97</ele>
        <time>2017-05-21T09:37:38Z</time>
      </trkpt>
      <trkpt lat="46.75114" lon="5.67934">
        <ele>490.89</ele>
        <time>2017-05-21T09:37:54Z</time>
      </trkpt>
      <trkpt lat="46.75121" lon="5.67936">
        <ele>493.29</ele>
        <time>2017-05-21T09:38:09Z</time>
      </trkpt>
      <trkpt lat="46.7513" lon="5.67937">
        <ele>494.74</ele>
        <time>2017-05-21T09:38:23Z</time>
      </trkpt>
      <trkpt lat="46.75136" lon="5.67936">
        <ele>495.7</ele>
        <time>2017-05-21T09:38:37Z</time>
      </trkpt>
      <trkpt lat="46.75145" lon="5.67935">
        <ele>497.62</ele>
        <time>2017-05-21T09:38:51Z</time>
      </trkpt>
      <trkpt lat="46.75152" lon="5.67933">
        <ele>498.58</ele>
        <time>2017-05-21T09:39:05Z</time>
      </trkpt>
      <trkpt lat="46.75159" lon="5.67926">
        <ele>500.5</ele>
        <time>2017-05-21T09:39:21Z</time>
      </trkpt>
      <trkpt lat="46.75164" lon="5.67914">
        <ele>502.91</ele>
        <time>2017-05-21T09:39:39Z</time>
      </trkpt>
      <trkpt lat="46.75166" lon="5.67907">
        <ele>505.31</ele>
        <time>2017-05-21T09:39:55Z</time>
      </trkpt>
      <trkpt lat="46.75169" lon="5.679">
        <ele>507.23</ele>
        <time>2017-05-21T09:40:12Z</time>
      </trkpt>
      <trkpt lat="46.75177" lon="5.67898">
        <ele>508.67</ele>
        <time>2017-05-21T09:40:27Z</time>
      </trkpt>
      <trkpt lat="46.75188" lon="5.67904">
        <ele>510.12</ele>
        <time>2017-05-21T09:40:41Z</time>
      </trkpt>
      <trkpt lat="46.75208" lon="5.67901">
        <ele>512.04</ele>
        <time>2017-05-21T09:40:54Z</time>
      </trkpt>
      <trkpt lat="46.75221" lon="5.67902">
        <ele>512.52</ele>
        <time>2017-05-21T09:41:04Z</time>
      </trkpt>
      <trkpt lat="46.75228" lon="5.67901">
        <ele>512.52</ele>
        <time>2017-05-21T09:41:16Z</time>
      </trkpt>
      <trkpt lat="46.75237" lon="5.67901">
        <ele>512.52</ele>
        <time>2017-05-21T09:41:36Z</time>
      </trkpt>
      <trkpt lat="46.75243" lon="5.679">
        <ele>512.04</ele>
        <time>2017-05-21T09:41:52Z</time>
      </trkpt>
      <trkpt lat="46.7525" lon="5.67904">
        <ele>513</ele>
        <time>2017-05-21T09:42:05Z</time>
      </trkpt>
      <trkpt lat="46.75257" lon="5.6791">
        <ele>513.48</ele>
        <time>2017-05-21T09:42:17Z</time>
      </trkpt>
      <trkpt lat="46.7526" lon="5.67915">
        <ele>513</ele>
        <time>2017-05-21T09:42:29Z</time>
      </trkpt>
      <trkpt lat="46.75262" lon="5.67918">
        <ele>513</ele>
        <time>2017-05-21T09:42:55Z</time>
      </trkpt>
      <trkpt lat="46.75262" lon="5.67919">
        <ele>513</ele>
        <time>2017-05-21T09:43:10Z</time>
      </trkpt>
      <trkpt lat="46.75267" lon="5.67926">
        <ele>514.44</ele>
        <time>2017-05-21T09:43:23Z</time>
      </trkpt>
      <trkpt lat="46.75267" lon="5.67926">
        <ele>513.96</ele>
        <time>2017-05-21T09:43:24Z</time>
      </trkpt>
      <trkpt lat="46.75272" lon="5.67927">
        <ele>515.88</ele>
        <time>2017-05-21T09:43:36Z</time>
      </trkpt>
      <trkpt lat="46.75284" lon="5.6793">
        <ele>516.85</ele>
        <time>2017-05-21T09:43:47Z</time>
      </trkpt>
      <trkpt lat="46.75288" lon="5.67933">
        <ele>517.81</ele>
        <time>2017-05-21T09:44:00Z</time>
      </trkpt>
      <trkpt lat="46.75293" lon="5.67932">
        <ele>517.33</ele>
        <time>2017-05-21T09:44:15Z</time>
      </trkpt>
      <trkpt lat="46.75285" lon="5.67934">
        <ele>516.85</ele>
        <time>2017-05-21T09:44:26Z</time>
      </trkpt>
      <trkpt lat="46.75275" lon="5.6793">
        <ele>515.88</ele>
        <time>2017-05-21T09:44:39Z</time>
      </trkpt>
      <trkpt lat="46.7527" lon="5.67929">
        <ele>514.44</ele>
        <time>2017-05-21T09:44:48Z</time>
      </trkpt>
      <trkpt lat="46.75275" lon="5.67935">
        <ele>514.92</ele>
        <time>2017-05-21T09:44:55Z</time>
      </trkpt>
      <trkpt lat="46.7528" lon="5.67946">
        <ele>515.88</ele>
        <time>2017-05-21T09:45:07Z</time>
      </trkpt>
      <trkpt lat="46.7529" lon="5.67961">
        <ele>516.85</ele>
        <time>2017-05-21T09:45:21Z</time>
      </trkpt>
      <trkpt lat="46.75298" lon="5.67975">
        <ele>517.33</ele>
        <time>2017-05-21T09:45:35Z</time>
      </trkpt>
      <trkpt lat="46.75305" lon="5.67986">
        <ele>517.81</ele>
        <time>2017-05-21T09:45:46Z</time>
      </trkpt>
      <trkpt lat="46.75312" lon="5.68004">
        <ele>518.29</ele>
        <time>2017-05-21T09:45:59Z</time>
      </trkpt>
      <trkpt lat="46.75313" lon="5.68008">
        <ele>518.29</ele>
        <time>2017-05-21T09:46:01Z</time>
      </trkpt>
      <trkpt lat="46.75316" lon="5.68012">
        <ele>518.29</ele>
        <time>2017-05-21T09:46:05Z</time>
      </trkpt>
      <trkpt lat="46.75317" lon="5.68019">
        <ele>518.77</ele>
        <time>2017-05-21T09:46:09Z</time>
      </trkpt>
      <trkpt lat="46.75322" lon="5.68031">
        <ele>518.77</ele>
        <time>2017-05-21T09:46:17Z</time>
      </trkpt>
      <trkpt lat="46.7533" lon="5.68041">
        <ele>518.77</ele>
        <time>2017-05-21T09:46:28Z</time>
      </trkpt>
      <trkpt lat="46.75335" lon="5.68062">
        <ele>519.73</ele>
        <time>2017-05-21T09:46:42Z</time>
      </trkpt>
      <trkpt lat="46.75341" lon="5.68076">
        <ele>519.73</ele>
        <time>2017-05-21T09:46:52Z</time>
      </trkpt>
      <trkpt lat="46.75342" lon="5.6808">
        <ele>519.25</ele>
        <time>2017-05-21T09:47:03Z</time>
      </trkpt>
      <trkpt lat="46.75343" lon="5.68089">
        <ele>519.25</ele>
        <time>2017-05-21T09:47:15Z</time>
      </trkpt>
      <trkpt lat="46.75345" lon="5.68098">
        <ele>519.73</ele>
        <time>2017-05-21T09:47:23Z</time>
      </trkpt>
      <trkpt lat="46.7535" lon="5.68116">
        <ele>519.73</ele>
        <time>2017-05-21T09:47:37Z</time>
      </trkpt>
      <trkpt lat="46.75351" lon="5.68125">
        <ele>519.25</ele>
        <time>2017-05-21T09:47:50Z</time>
      </trkpt>
      <trkpt lat="46.75355" lon="5.68145">
        <ele>518.77</ele>
        <time>2017-05-21T09:48:03Z</time>
      </trkpt>
      <trkpt lat="46.75356" lon="5.68154">
        <ele>518.29</ele>
        <time>2017-05-21T09:48:08Z</time>
      </trkpt>
      <trkpt lat="46.75356" lon="5.6817">
        <ele>517.81</ele>
        <time>2017-05-21T09:48:17Z</time>
      </trkpt>
      <trkpt lat="46.75355" lon="5.68188">
        <ele>517.33</ele>
        <time>2017-05-21T09:48:27Z</time>
      </trkpt>
      <trkpt lat="46.75354" lon="5.68198">
        <ele>517.33</ele>
        <time>2017-05-21T09:48:32Z</time>
      </trkpt>
      <trkpt lat="46.75352" lon="5.68213">
        <ele>516.85</ele>
        <time>2017-05-21T09:48:41Z</time>
      </trkpt>
      <trkpt lat="46.75349" lon="5.68244">
        <ele>516.85</ele>
        <time>2017-05-21T09:48:57Z</time>
      </trkpt>
      <trkpt lat="46.75349" lon="5.68266">
        <ele>516.37</ele>
        <time>2017-05-21T09:49:10Z</time>
      </trkpt>
      <trkpt lat="46.75348" lon="5.68287">
        <ele>515.4</ele>
        <time>2017-05-21T09:49:22Z</time>
      </trkpt>
      <trkpt lat="46.75345" lon="5.68309">
        <ele>515.4</ele>
        <time>2017-05-21T09:49:36Z</time>
      </trkpt>
      <trkpt lat="46.75342" lon="5.68329">
        <ele>515.88</ele>
        <time>2017-05-21T09:49:48Z</time>
      </trkpt>
      <trkpt lat="46.7534" lon="5.68343">
        <ele>515.88</ele>
        <time>2017-05-21T09:49:56Z</time>
      </trkpt>
      <trkpt lat="46.75331" lon="5.68357">
        <ele>516.37</ele>
        <time>2017-05-21T09:50:10Z</time>
      </trkpt>
      <trkpt lat="46.75326" lon="5.68361">
        <ele>516.37</ele>
        <time>2017-05-21T09:50:15Z</time>
      </trkpt>
      <trkpt lat="46.75324" lon="5.68363">
        <ele>516.37</ele>
        <time>2017-05-21T09:50:17Z</time>
      </trkpt>
      <trkpt lat="46.75321" lon="5.68367">
        <ele>516.85</ele>
        <time>2017-05-21T09:50:21Z</time>
      </trkpt>
      <trkpt lat="46.75316" lon="5.68372">
        <ele>517.33</ele>
        <time>2017-05-21T09:50:26Z</time>
      </trkpt>
      <trkpt lat="46.75305" lon="5.68382">
        <ele>517.33</ele>
        <time>2017-05-21T09:50:37Z</time>
      </trkpt>
      <trkpt lat="46.75291" lon="5.68396">
        <ele>517.81</ele>
        <time>2017-05-21T09:50:51Z</time>
      </trkpt>
      <trkpt lat="46.75277" lon="5.68411">
        <ele>517.33</ele>
        <time>2017-05-21T09:51:06Z</time>
      </trkpt>
      <trkpt lat="46.75261" lon="5.68426">
        <ele>516.37</ele>
        <time>2017-05-21T09:51:21Z</time>
      </trkpt>
      <trkpt lat="46.75258" lon="5.68426">
        <ele>516.85</ele>
        <time>2017-05-21T09:51:24Z</time>
      </trkpt>
      <trkpt lat="46.75242" lon="5.68421">
        <ele>516.85</ele>
        <time>2017-05-21T09:51:38Z</time>
      </trkpt>
      <trkpt lat="46.75236" lon="5.6842">
        <ele>516.85</ele>
        <time>2017-05-21T09:51:43Z</time>
      </trkpt>
      <trkpt lat="46.75217" lon="5.68413">
        <ele>517.33</ele>
        <time>2017-05-21T09:51:58Z</time>
      </trkpt>
      <trkpt lat="46.75201" lon="5.68406">
        <ele>518.29</ele>
        <time>2017-05-21T09:52:09Z</time>
      </trkpt>
      <trkpt lat="46.7519" lon="5.68403">
        <ele>518.29</ele>
        <time>2017-05-21T09:52:20Z</time>
      </trkpt>
      <trkpt lat="46.75181" lon="5.68401">
        <ele>518.77</ele>
        <time>2017-05-21T09:52:28Z</time>
      </trkpt>
      <trkpt lat="46.7517" lon="5.68398">
        <ele>518.77</ele>
        <time>2017-05-21T09:52:38Z</time>
      </trkpt>
      <trkpt lat="46.75167" lon="5.68396">
        <ele>518.77</ele>
        <time>2017-05-21T09:52:41Z</time>
      </trkpt>
      <trkpt lat="46.75151" lon="5.6839">
        <ele>519.73</ele>
        <time>2017-05-21T09:52:54Z</time>
      </trkpt>
      <trkpt lat="46.75137" lon="5.68383">
        <ele>519.73</ele>
        <time>2017-05-21T09:53:07Z</time>
      </trkpt>
      <trkpt lat="46.75122" lon="5.68375">
        <ele>520.21</ele>
        <time>2017-05-21T09:53:22Z</time>
      </trkpt>
      <trkpt lat="46.75114" lon="5.68373">
        <ele>520.69</ele>
        <time>2017-05-21T09:53:31Z</time>
      </trkpt>
      <trkpt lat="46.75097" lon="5.68368">
        <ele>521.65</ele>
        <time>2017-05-21T09:53:46Z</time>
      </trkpt>
      <trkpt lat="46.75085" lon="5.68365">
        <ele>521.65</ele>
        <time>2017-05-21T09:53:56Z</time>
      </trkpt>
      <trkpt lat="46.75079" lon="5.68363">
        <ele>522.13</ele>
        <time>2017-05-21T09:54:01Z</time>
      </trkpt>
      <trkpt lat="46.75076" lon="5.68361">
        <ele>522.13</ele>
        <time>2017-05-21T09:54:03Z</time>
      </trkpt>
      <trkpt lat="46.7506" lon="5.68347">
        <ele>522.13</ele>
        <time>2017-05-21T09:54:17Z</time>
      </trkpt>
      <trkpt lat="46.75047" lon="5.68342">
        <ele>522.13</ele>
        <time>2017-05-21T09:54:31Z</time>
      </trkpt>
      <trkpt lat="46.75046" lon="5.68341">
        <ele>521.65</ele>
        <time>2017-05-21T09:54:35Z</time>
      </trkpt>
      <trkpt lat="46.75036" lon="5.68342">
        <ele>521.65</ele>
        <time>2017-05-21T09:54:47Z</time>
      </trkpt>
      <trkpt lat="46.75025" lon="5.68345">
        <ele>522.13</ele>
        <time>2017-05-21T09:54:58Z</time>
      </trkpt>
      <trkpt lat="46.75019" lon="5.68345">
        <ele>522.13</ele>
        <time>2017-05-21T09:55:02Z</time>
      </trkpt>
      <trkpt lat="46.74999" lon="5.68347">
        <ele>523.09</ele>
        <time>2017-05-21T09:55:16Z</time>
      </trkpt>
      <trkpt lat="46.74983" lon="5.68347">
        <ele>524.06</ele>
        <time>2017-05-21T09:55:29Z</time>
      </trkpt>
      <trkpt lat="46.74975" lon="5.68345">
        <ele>525.02</ele>
        <time>2017-05-21T09:55:40Z</time>
      </trkpt>
      <trkpt lat="46.74972" lon="5.68346">
        <ele>525.5</ele>
        <time>2017-05-21T09:55:45Z</time>
      </trkpt>
      <trkpt lat="46.74966" lon="5.6835">
        <ele>525.98</ele>
        <time>2017-05-21T09:55:56Z</time>
      </trkpt>
      <trkpt lat="46.74961" lon="5.68357">
        <ele>526.94</ele>
        <time>2017-05-21T09:56:07Z</time>
      </trkpt>
      <trkpt lat="46.74949" lon="5.68373">
        <ele>528.38</ele>
        <time>2017-05-21T09:56:21Z</time>
      </trkpt>
      <trkpt lat="46.74946" lon="5.68378">
        <ele>528.86</ele>
        <time>2017-05-21T09:56:26Z</time>
      </trkpt>
      <trkpt lat="46.74937" lon="5.68395">
        <ele>529.34</ele>
        <time>2017-05-21T09:56:42Z</time>
      </trkpt>
      <trkpt lat="46.7493" lon="5.68409">
        <ele>530.79</ele>
        <time>2017-05-21T09:56:55Z</time>
      </trkpt>
      <trkpt lat="46.74926" lon="5.68414">
        <ele>531.27</ele>
        <time>2017-05-21T09:56:58Z</time>
      </trkpt>
      <trkpt lat="46.74918" lon="5.6842">
        <ele>531.75</ele>
        <time>2017-05-21T09:57:05Z</time>
      </trkpt>
      <trkpt lat="46.74903" lon="5.68432">
        <ele>532.71</ele>
        <time>2017-05-21T09:57:16Z</time>
      </trkpt>
      <trkpt lat="46.74885" lon="5.68444">
        <ele>533.19</ele>
        <time>2017-05-21T09:57:31Z</time>
      </trkpt>
      <trkpt lat="46.74881" lon="5.68447">
        <ele>533.67</ele>
        <time>2017-05-21T09:57:35Z</time>
      </trkpt>
      <trkpt lat="46.74866" lon="5.68454">
        <ele>533.19</ele>
        <time>2017-05-21T09:57:46Z</time>
      </trkpt>
      <trkpt lat="46.74859" lon="5.68458">
        <ele>532.71</ele>
        <time>2017-05-21T09:57:56Z</time>
      </trkpt>
      <trkpt lat="46.74844" lon="5.68459">
        <ele>532.71</ele>
        <time>2017-05-21T09:58:06Z</time>
      </trkpt>
      <trkpt lat="46.74833" lon="5.68459">
        <ele>532.71</ele>
        <time>2017-05-21T09:58:16Z</time>
      </trkpt>
      <trkpt lat="46.7483" lon="5.6846">
        <ele>532.23</ele>
        <time>2017-05-21T09:58:19Z</time>
      </trkpt>
      <trkpt lat="46.74814" lon="5.68454">
        <ele>532.23</ele>
        <time>2017-05-21T09:58:31Z</time>
      </trkpt>
      <trkpt lat="46.74795" lon="5.68453">
        <ele>531.27</ele>
        <time>2017-05-21T09:58:44Z</time>
      </trkpt>
      <trkpt lat="46.74778" lon="5.68452">
        <ele>530.79</ele>
        <time>2017-05-21T09:58:57Z</time>
      </trkpt>
      <trkpt lat="46.74767" lon="5.68451">
        <ele>529.82</ele>
        <time>2017-05-21T09:59:06Z</time>
      </trkpt>
      <trkpt lat="46.74751" lon="5.68444">
        <ele>529.82</ele>
        <time>2017-05-21T09:59:19Z</time>
      </trkpt>
      <trkpt lat="46.74737" lon="5.68439">
        <ele>528.86</ele>
        <time>2017-05-21T09:59:33Z</time>
      </trkpt>
      <trkpt lat="46.74726" lon="5.68433">
        <ele>527.42</ele>
        <time>2017-05-21T09:59:45Z</time>
      </trkpt>
      <trkpt lat="46.74715" lon="5.68428">
        <ele>526.94</ele>
        <time>2017-05-21T09:59:56Z</time>
      </trkpt>
      <trkpt lat="46.74701" lon="5.68419">
        <ele>525.98</ele>
        <time>2017-05-21T10:00:09Z</time>
      </trkpt>
      <trkpt lat="46.74693" lon="5.68414">
        <ele>525.02</ele>
        <time>2017-05-21T10:00:16Z</time>
      </trkpt>
      <trkpt lat="46.74686" lon="5.68411">
        <ele>525.02</ele>
        <time>2017-05-21T10:00:22Z</time>
      </trkpt>
      <trkpt lat="46.74682" lon="5.68411">
        <ele>525.02</ele>
        <time>2017-05-21T10:00:25Z</time>
      </trkpt>
      <trkpt lat="46.74676" lon="5.68409">
        <ele>524.54</ele>
        <time>2017-05-21T10:00:30Z</time>
      </trkpt>
      <trkpt lat="46.74666" lon="5.68405">
        <ele>523.58</ele>
        <time>2017-05-21T10:00:42Z</time>
      </trkpt>
      <trkpt lat="46.74651" lon="5.68404">
        <ele>523.09</ele>
        <time>2017-05-21T10:00:55Z</time>
      </trkpt>
      <trkpt lat="46.74635" lon="5.684">
        <ele>521.65</ele>
        <time>2017-05-21T10:01:08Z</time>
      </trkpt>
      <trkpt lat="46.74617" lon="5.68393">
        <ele>521.17</ele>
        <time>2017-05-21T10:01:22Z</time>
      </trkpt>
      <trkpt lat="46.74601" lon="5.68378">
        <ele>520.21</ele>
        <time>2017-05-21T10:01:34Z</time>
      </trkpt>
      <trkpt lat="46.74589" lon="5.68361">
        <ele>520.21</ele>
        <time>2017-05-21T10:01:46Z</time>
      </trkpt>
      <trkpt lat="46.74577" lon="5.68343">
        <ele>519.25</ele>
        <time>2017-05-21T10:01:59Z</time>
      </trkpt>
      <trkpt lat="46.74576" lon="5.68342">
        <ele>519.25</ele>
        <time>2017-05-21T10:02:00Z</time>
      </trkpt>
      <trkpt lat="46.74566" lon="5.68326">
        <ele>518.29</ele>
        <time>2017-05-21T10:02:13Z</time>
      </trkpt>
      <trkpt lat="46.74562" lon="5.68313">
        <ele>517.81</ele>
        <time>2017-05-21T10:02:23Z</time>
      </trkpt>
      <trkpt lat="46.74562" lon="5.68312">
        <ele>517.81</ele>
        <time>2017-05-21T10:02:24Z</time>
      </trkpt>
      <trkpt lat="46.74559" lon="5.68304">
        <ele>517.81</ele>
        <time>2017-05-21T10:02:28Z</time>
      </trkpt>
      <trkpt lat="46.74559" lon="5.68298">
        <ele>517.81</ele>
        <time>2017-05-21T10:02:32Z</time>
      </trkpt>
      <trkpt lat="46.74559" lon="5.68294">
        <ele>517.81</ele>
        <time>2017-05-21T10:02:36Z</time>
      </trkpt>
      <trkpt lat="46.74552" lon="5.68273">
        <ele>516.85</ele>
        <time>2017-05-21T10:02:48Z</time>
      </trkpt>
      <trkpt lat="46.74549" lon="5.68254">
        <ele>516.85</ele>
        <time>2017-05-21T10:03:00Z</time>
      </trkpt>
      <trkpt lat="46.74549" lon="5.68251">
        <ele>516.37</ele>
        <time>2017-05-21T10:03:02Z</time>
      </trkpt>
      <trkpt lat="46.74546" lon="5.68235">
        <ele>515.88</ele>
        <time>2017-05-21T10:03:11Z</time>
      </trkpt>
      <trkpt lat="46.74542" lon="5.68224">
        <ele>515.4</ele>
        <time>2017-05-21T10:03:18Z</time>
      </trkpt>
      <trkpt lat="46.74537" lon="5.68206">
        <ele>514.92</ele>
        <time>2017-05-21T10:03:29Z</time>
      </trkpt>
      <trkpt lat="46.74536" lon="5.682">
        <ele>514.92</ele>
        <time>2017-05-21T10:03:44Z</time>
      </trkpt>
      <trkpt lat="46.74533" lon="5.68196">
        <ele>514.44</ele>
        <time>2017-05-21T10:03:56Z</time>
      </trkpt>
      <trkpt lat="46.7453" lon="5.68187">
        <ele>514.92</ele>
        <time>2017-05-21T10:04:07Z</time>
      </trkpt>
      <trkpt lat="46.74527" lon="5.68176">
        <ele>514.44</ele>
        <time>2017-05-21T10:04:14Z</time>
      </trkpt>
      <trkpt lat="46.7452" lon="5.68155">
        <ele>514.44</ele>
        <time>2017-05-21T10:04:28Z</time>
      </trkpt>
      <trkpt lat="46.74519" lon="5.68153">
        <ele>514.44</ele>
        <time>2017-05-21T10:04:29Z</time>
      </trkpt>
      <trkpt lat="46.74517" lon="5.68136">
        <ele>513.96</ele>
        <time>2017-05-21T10:04:41Z</time>
      </trkpt>
      <trkpt lat="46.7452" lon="5.68126">
        <ele>513.96</ele>
        <time>2017-05-21T10:04:53Z</time>
      </trkpt>
      <trkpt lat="46.74528" lon="5.68111">
        <ele>514.44</ele>
        <time>2017-05-21T10:05:06Z</time>
      </trkpt>
      <trkpt lat="46.74535" lon="5.68099">
        <ele>514.44</ele>
        <time>2017-05-21T10:05:19Z</time>
      </trkpt>
      <trkpt lat="46.74535" lon="5.68095">
        <ele>514.44</ele>
        <time>2017-05-21T10:05:32Z</time>
      </trkpt>
      <trkpt lat="46.74538" lon="5.68095">
        <ele>514.92</ele>
        <time>2017-05-21T10:05:51Z</time>
      </trkpt>
      <trkpt lat="46.74539" lon="5.68095">
        <ele>515.4</ele>
        <time>2017-05-21T10:06:07Z</time>
      </trkpt>
      <trkpt lat="46.74538" lon="5.68095">
        <ele>514.44</ele>
        <time>2017-05-21T10:06:21Z</time>
      </trkpt>
      <trkpt lat="46.74538" lon="5.68095">
        <ele>514.92</ele>
        <time>2017-05-21T10:06:39Z</time>
      </trkpt>
      <trkpt lat="46.74538" lon="5.68095">
        <ele>515.88</ele>
        <time>2017-05-21T10:06:55Z</time>
      </trkpt>
      <trkpt lat="46.74538" lon="5.68094">
        <ele>515.88</ele>
        <time>2017-05-21T10:07:14Z</time>
      </trkpt>
      <trkpt lat="46.74539" lon="5.68094">
        <ele>515.88</ele>
        <time>2017-05-21T10:07:31Z</time>
      </trkpt>
      <trkpt lat="46.74539" lon="5.68094">
        <ele>515.4</ele>
        <time>2017-05-21T10:07:50Z</time>
      </trkpt>
      <trkpt lat="46.74539" lon="5.68093">
        <ele>515.88</ele>
        <time>2017-05-21T10:08:09Z</time>
      </trkpt>
      <trkpt lat="46.74538" lon="5.68094">
        <ele>515.88</ele>
        <time>2017-05-21T10:08:29Z</time>
      </trkpt>
      <trkpt lat="46.74538" lon="5.68094">
        <ele>515.88</ele>
        <time>2017-05-21T10:08:46Z</time>
      </trkpt>
      <trkpt lat="46.74538" lon="5.68094">
        <ele>515.88</ele>
        <time>2017-05-21T10:09:06Z</time>
      </trkpt>
      <trkpt lat="46.74538" lon="5.68094">
        <ele>515.4</ele>
        <time>2017-05-21T10:09:21Z</time>
      </trkpt>
      <trkpt lat="46.74538" lon="5.68093">
        <ele>515.4</ele>
        <time>2017-05-21T10:09:47Z</time>
      </trkpt>
      <trkpt lat="46.74538" lon="5.68093">
        <ele>515.4</ele>
        <time>2017-05-21T10:10:08Z</time>
      </trkpt>
      <trkpt lat="46.74538" lon="5.68093">
        <ele>516.37</ele>
        <time>2017-05-21T10:10:25Z</time>
      </trkpt>
      <trkpt lat="46.74538" lon="5.68092">
        <ele>515.88</ele>
        <time>2017-05-21T10:10:50Z</time>
      </trkpt>
      <trkpt lat="46.74538" lon="5.68092">
        <ele>515.4</ele>
        <time>2017-05-21T10:11:11Z</time>
      </trkpt>
      <trkpt lat="46.74538" lon="5.68092">
        <ele>515.88</ele>
        <time>2017-05-21T10:11:36Z</time>
      </trkpt>
      <trkpt lat="46.74538" lon="5.68092">
        <ele>515.88</ele>
        <time>2017-05-21T10:11:55Z</time>
      </trkpt>
      <trkpt lat="46.74538" lon="5.68093">
        <ele>515.88</ele>
        <time>2017-05-21T10:12:23Z</time>
      </trkpt>
      <trkpt lat="46.74538" lon="5.68093">
        <ele>516.37</ele>
        <time>2017-05-21T10:12:48Z</time>
      </trkpt>
      <trkpt lat="46.74538" lon="5.68093">
        <ele>516.85</ele>
        <time>2017-05-21T10:13:10Z</time>
      </trkpt>
      <trkpt lat="46.74537" lon="5.68093">
        <ele>517.33</ele>
        <time>2017-05-21T10:13:36Z</time>
      </trkpt>
      <trkpt lat="46.74537" lon="5.68093">
        <ele>516.85</ele>
        <time>2017-05-21T10:14:09Z</time>
      </trkpt>
      <trkpt lat="46.74537" lon="5.68094">
        <ele>517.33</ele>
        <time>2017-05-21T10:14:34Z</time>
      </trkpt>
      <trkpt lat="46.74538" lon="5.68094">
        <ele>517.33</ele>
        <time>2017-05-21T10:14:56Z</time>
      </trkpt>
      <trkpt lat="46.74537" lon="5.68094">
        <ele>517.33</ele>
        <time>2017-05-21T10:15:20Z</time>
      </trkpt>
      <trkpt lat="46.74537" lon="5.68094">
        <ele>518.77</ele>
        <time>2017-05-21T10:15:51Z</time>
      </trkpt>
      <trkpt lat="46.74537" lon="5.68094">
        <ele>517.81</ele>
        <time>2017-05-21T10:16:22Z</time>
      </trkpt>
      <trkpt lat="46.74538" lon="5.68094">
        <ele>517.81</ele>
        <time>2017-05-21T10:16:49Z</time>
      </trkpt>
      <trkpt lat="46.74537" lon="5.68094">
        <ele>518.77</ele>
        <time>2017-05-21T10:17:20Z</time>
      </trkpt>
      <trkpt lat="46.74537" lon="5.68094">
        <ele>518.77</ele>
        <time>2017-05-21T10:17:48Z</time>
      </trkpt>
      <trkpt lat="46.74537" lon="5.68094">
        <ele>519.25</ele>
        <time>2017-05-21T10:18:09Z</time>
      </trkpt>
      <trkpt lat="46.74537" lon="5.68094">
        <ele>519.73</ele>
        <time>2017-05-21T10:18:31Z</time>
      </trkpt>
      <trkpt lat="46.74537" lon="5.68094">
        <ele>519.73</ele>
        <time>2017-05-21T10:18:52Z</time>
      </trkpt>
      <trkpt lat="46.74538" lon="5.68094">
        <ele>520.21</ele>
        <time>2017-05-21T10:19:13Z</time>
      </trkpt>
      <trkpt lat="46.74538" lon="5.68094">
        <ele>520.21</ele>
        <time>2017-05-21T10:19:40Z</time>
      </trkpt>
      <trkpt lat="46.74539" lon="5.68094">
        <ele>519.73</ele>
        <time>2017-05-21T10:20:10Z</time>
      </trkpt>
      <trkpt lat="46.74539" lon="5.68094">
        <ele>520.21</ele>
        <time>2017-05-21T10:20:40Z</time>
      </trkpt>
      <trkpt lat="46.74539" lon="5.68095">
        <ele>520.69</ele>
        <time>2017-05-21T10:21:15Z</time>
      </trkpt>
      <trkpt lat="46.74539" lon="5.68094">
        <ele>520.69</ele>
        <time>2017-05-21T10:21:40Z</time>
      </trkpt>
      <trkpt lat="46.74539" lon="5.68094">
        <ele>520.69</ele>
        <time>2017-05-21T10:22:11Z</time>
      </trkpt>
      <trkpt lat="46.74539" lon="5.68094">
        <ele>520.69</ele>
        <time>2017-05-21T10:22:35Z</time>
      </trkpt>
      <trkpt lat="46.74539" lon="5.68094">
        <ele>520.69</ele>
        <time>2017-05-21T10:22:58Z</time>
      </trkpt>
      <trkpt lat="46.74539" lon="5.68093">
        <ele>521.17</ele>
        <time>2017-05-21T10:23:29Z</time>
      </trkpt>
      <trkpt lat="46.74539" lon="5.68094">
        <ele>521.65</ele>
        <time>2017-05-21T10:24:00Z</time>
      </trkpt>
      <trkpt lat="46.74538" lon="5.68094">
        <ele>521.17</ele>
        <time>2017-05-21T10:24:26Z</time>
      </trkpt>
      <trkpt lat="46.74538" lon="5.68095">
        <ele>521.65</ele>
        <time>2017-05-21T10:24:59Z</time>
      </trkpt>
      <trkpt lat="46.74538" lon="5.68095">
        <ele>522.13</ele>
        <time>2017-05-21T10:25:31Z</time>
      </trkpt>
      <trkpt lat="46.74538" lon="5.68095">
        <ele>522.13</ele>
        <time>2017-05-21T10:25:57Z</time>
      </trkpt>
      <trkpt lat="46.74538" lon="5.68095">
        <ele>522.61</ele>
        <time>2017-05-21T10:26:20Z</time>
      </trkpt>
      <trkpt lat="46.74537" lon="5.68096">
        <ele>523.09</ele>
        <time>2017-05-21T10:26:42Z</time>
      </trkpt>
      <trkpt lat="46.74537" lon="5.68096">
        <ele>522.61</ele>
        <time>2017-05-21T10:27:06Z</time>
      </trkpt>
      <trkpt lat="46.74537" lon="5.68095">
        <ele>523.58</ele>
        <time>2017-05-21T10:27:35Z</time>
      </trkpt>
      <trkpt lat="46.74538" lon="5.68096">
        <ele>522.61</ele>
        <time>2017-05-21T10:28:04Z</time>
      </trkpt>
      <trkpt lat="46.74537" lon="5.68097">
        <ele>523.09</ele>
        <time>2017-05-21T10:28:29Z</time>
      </trkpt>
      <trkpt lat="46.74537" lon="5.68098">
        <ele>523.09</ele>
        <time>2017-05-21T10:28:53Z</time>
      </trkpt>
      <trkpt lat="46.74538" lon="5.68098">
        <ele>524.06</ele>
        <time>2017-05-21T10:29:15Z</time>
      </trkpt>
      <trkpt lat="46.74538" lon="5.68098">
        <ele>523.09</ele>
        <time>2017-05-21T10:29:39Z</time>
      </trkpt>
      <trkpt lat="46.74537" lon="5.68097">
        <ele>523.09</ele>
        <time>2017-05-21T10:30:04Z</time>
      </trkpt>
      <trkpt lat="46.74537" lon="5.68097">
        <ele>523.58</ele>
        <time>2017-05-21T10:30:31Z</time>
      </trkpt>
      <trkpt lat="46.74537" lon="5.68096">
        <ele>523.58</ele>
        <time>2017-05-21T10:30:55Z</time>
      </trkpt>
      <trkpt lat="46.74537" lon="5.68096">
        <ele>523.58</ele>
        <time>2017-05-21T10:31:16Z</time>
      </trkpt>
      <trkpt lat="46.74537" lon="5.68095">
        <ele>524.06</ele>
        <time>2017-05-21T10:31:41Z</time>
      </trkpt>
      <trkpt lat="46.74537" lon="5.68095">
        <ele>524.06</ele>
        <time>2017-05-21T10:31:57Z</time>
      </trkpt>
      <trkpt lat="46.74536" lon="5.68095">
        <ele>525.02</ele>
        <time>2017-05-21T10:32:18Z</time>
      </trkpt>
      <trkpt lat="46.74536" lon="5.68095">
        <ele>524.06</ele>
        <time>2017-05-21T10:32:49Z</time>
      </trkpt>
      <trkpt lat="46.74537" lon="5.68095">
        <ele>523.09</ele>
        <time>2017-05-21T10:33:23Z</time>
      </trkpt>
      <trkpt lat="46.74537" lon="5.68094">
        <ele>523.58</ele>
        <time>2017-05-21T10:33:49Z</time>
      </trkpt>
      <trkpt lat="46.74537" lon="5.68094">
        <ele>525.02</ele>
        <time>2017-05-21T10:34:22Z</time>
      </trkpt>
      <trkpt lat="46.74537" lon="5.68093">
        <ele>525.02</ele>
        <time>2017-05-21T10:34:55Z</time>
      </trkpt>
      <trkpt lat="46.74537" lon="5.68093">
        <ele>525.02</ele>
        <time>2017-05-21T10:35:32Z</time>
      </trkpt>
      <trkpt lat="46.74537" lon="5.68094">
        <ele>525.02</ele>
        <time>2017-05-21T10:35:59Z</time>
      </trkpt>
      <trkpt lat="46.74537" lon="5.68094">
        <ele>524.54</ele>
        <time>2017-05-21T10:36:29Z</time>
      </trkpt>
      <trkpt lat="46.74537" lon="5.68095">
        <ele>525.5</ele>
        <time>2017-05-21T10:36:58Z</time>
      </trkpt>
      <trkpt lat="46.74537" lon="5.68095">
        <ele>525.98</ele>
        <time>2017-05-21T10:37:33Z</time>
      </trkpt>
      <trkpt lat="46.74537" lon="5.68095">
        <ele>525.5</ele>
        <time>2017-05-21T10:37:56Z</time>
      </trkpt>
      <trkpt lat="46.74538" lon="5.68095">
        <ele>525.5</ele>
        <time>2017-05-21T10:38:27Z</time>
      </trkpt>
      <trkpt lat="46.74537" lon="5.68095">
        <ele>525.5</ele>
        <time>2017-05-21T10:39:02Z</time>
      </trkpt>
      <trkpt lat="46.74538" lon="5.68095">
        <ele>525.5</ele>
        <time>2017-05-21T10:39:41Z</time>
      </trkpt>
      <trkpt lat="46.74538" lon="5.68095">
        <ele>525.5</ele>
        <time>2017-05-21T10:40:15Z</time>
      </trkpt>
      <trkpt lat="46.74538" lon="5.68095">
        <ele>525.98</ele>
        <time>2017-05-21T10:40:54Z</time>
      </trkpt>
      <trkpt lat="46.74538" lon="5.68095">
        <ele>525.98</ele>
        <time>2017-05-21T10:41:20Z</time>
      </trkpt>
      <trkpt lat="46.74538" lon="5.68095">
        <ele>526.46</ele>
        <time>2017-05-21T10:41:52Z</time>
      </trkpt>
      <trkpt lat="46.74537" lon="5.68095">
        <ele>526.94</ele>
        <time>2017-05-21T10:42:27Z</time>
      </trkpt>
      <trkpt lat="46.74538" lon="5.68096">
        <ele>526.46</ele>
        <time>2017-05-21T10:42:58Z</time>
      </trkpt>
      <trkpt lat="46.74538" lon="5.68096">
        <ele>525.98</ele>
        <time>2017-05-21T10:43:23Z</time>
      </trkpt>
      <trkpt lat="46.74538" lon="5.68096">
        <ele>525.98</ele>
        <time>2017-05-21T10:43:54Z</time>
      </trkpt>
      <trkpt lat="46.74538" lon="5.68095">
        <ele>525.98</ele>
        <time>2017-05-21T10:44:25Z</time>
      </trkpt>
      <trkpt lat="46.74538" lon="5.68095">
        <ele>526.94</ele>
        <time>2017-05-21T10:45:03Z</time>
      </trkpt>
      <trkpt lat="46.74538" lon="5.68095">
        <ele>527.42</ele>
        <time>2017-05-21T10:45:23Z</time>
      </trkpt>
      <trkpt lat="46.74538" lon="5.68095">
        <ele>527.42</ele>
        <time>2017-05-21T10:46:03Z</time>
      </trkpt>
      <trkpt lat="46.74538" lon="5.68095">
        <ele>527.42</ele>
        <time>2017-05-21T10:46:30Z</time>
      </trkpt>
      <trkpt lat="46.74538" lon="5.68095">
        <ele>527.42</ele>
        <time>2017-05-21T10:47:12Z</time>
      </trkpt>
      <trkpt lat="46.74538" lon="5.68095">
        <ele>526.46</ele>
        <time>2017-05-21T10:47:48Z</time>
      </trkpt>
      <trkpt lat="46.74538" lon="5.68094">
        <ele>526.94</ele>
        <time>2017-05-21T10:48:25Z</time>
      </trkpt>
      <trkpt lat="46.74537" lon="5.68093">
        <ele>527.42</ele>
        <time>2017-05-21T10:48:59Z</time>
      </trkpt>
      <trkpt lat="46.74537" lon="5.68094">
        <ele>527.9</ele>
        <time>2017-05-21T10:49:37Z</time>
      </trkpt>
      <trkpt lat="46.74538" lon="5.68094">
        <ele>527.42</ele>
        <time>2017-05-21T10:50:13Z</time>
      </trkpt>
      <trkpt lat="46.74538" lon="5.68096">
        <ele>527.42</ele>
        <time>2017-05-21T10:50:50Z</time>
      </trkpt>
      <trkpt lat="46.74538" lon="5.68096">
        <ele>527.9</ele>
        <time>2017-05-21T10:51:26Z</time>
      </trkpt>
      <trkpt lat="46.74538" lon="5.68095">
        <ele>526.94</ele>
        <time>2017-05-21T10:51:59Z</time>
      </trkpt>
      <trkpt lat="46.74538" lon="5.68095">
        <ele>527.42</ele>
        <time>2017-05-21T10:52:35Z</time>
      </trkpt>
      <trkpt lat="46.74538" lon="5.68095">
        <ele>528.38</ele>
        <time>2017-05-21T10:53:03Z</time>
      </trkpt>
      <trkpt lat="46.74538" lon="5.68095">
        <ele>527.9</ele>
        <time>2017-05-21T10:53:22Z</time>
      </trkpt>
      <trkpt lat="46.74538" lon="5.68095">
        <ele>527.42</ele>
        <time>2017-05-21T10:53:40Z</time>
      </trkpt>
      <trkpt lat="46.74538" lon="5.68094">
        <ele>527.42</ele>
        <time>2017-05-21T10:54:00Z</time>
      </trkpt>
      <trkpt lat="46.74538" lon="5.68095">
        <ele>527.42</ele>
        <time>2017-05-21T10:54:16Z</time>
      </trkpt>
      <trkpt lat="46.74538" lon="5.68095">
        <ele>528.38</ele>
        <time>2017-05-21T10:54:35Z</time>
      </trkpt>
      <trkpt lat="46.74538" lon="5.68095">
        <ele>527.9</ele>
        <time>2017-05-21T10:54:51Z</time>
      </trkpt>
      <trkpt lat="46.74538" lon="5.68096">
        <ele>528.38</ele>
        <time>2017-05-21T10:55:09Z</time>
      </trkpt>
      <trkpt lat="46.74538" lon="5.68096">
        <ele>527.9</ele>
        <time>2017-05-21T10:55:28Z</time>
      </trkpt>
      <trkpt lat="46.74536" lon="5.68098">
        <ele>527.9</ele>
        <time>2017-05-21T10:55:41Z</time>
      </trkpt>
      <trkpt lat="46.74537" lon="5.68097">
        <ele>527.42</ele>
        <time>2017-05-21T10:56:02Z</time>
      </trkpt>
      <trkpt lat="46.74541" lon="5.68092">
        <ele>527.9</ele>
        <time>2017-05-21T10:56:13Z</time>
      </trkpt>
      <trkpt lat="46.74542" lon="5.68091">
        <ele>527.42</ele>
        <time>2017-05-21T10:56:30Z</time>
      </trkpt>
      <trkpt lat="46.74536" lon="5.68096">
        <ele>527.9</ele>
        <time>2017-05-21T10:56:48Z</time>
      </trkpt>
      <trkpt lat="46.74529" lon="5.68108">
        <ele>528.38</ele>
        <time>2017-05-21T10:57:03Z</time>
      </trkpt>
      <trkpt lat="46.74521" lon="5.68124">
        <ele>527.42</ele>
        <time>2017-05-21T10:57:16Z</time>
      </trkpt>
      <trkpt lat="46.74519" lon="5.68132">
        <ele>527.42</ele>
        <time>2017-05-21T10:57:28Z</time>
      </trkpt>
      <trkpt lat="46.74519" lon="5.68136">
        <ele>526.94</ele>
        <time>2017-05-21T10:57:47Z</time>
      </trkpt>
      <trkpt lat="46.74518" lon="5.68138">
        <ele>526.94</ele>
        <time>2017-05-21T10:57:49Z</time>
      </trkpt>
      <trkpt lat="46.7452" lon="5.68148">
        <ele>527.42</ele>
        <time>2017-05-21T10:57:57Z</time>
      </trkpt>
      <trkpt lat="46.74525" lon="5.68165">
        <ele>527.42</ele>
        <time>2017-05-21T10:58:10Z</time>
      </trkpt>
      <trkpt lat="46.74527" lon="5.6817">
        <ele>527.9</ele>
        <time>2017-05-21T10:58:13Z</time>
      </trkpt>
      <trkpt lat="46.74528" lon="5.68175">
        <ele>527.9</ele>
        <time>2017-05-21T10:58:16Z</time>
      </trkpt>
      <trkpt lat="46.74531" lon="5.68191">
        <ele>528.38</ele>
        <time>2017-05-21T10:58:30Z</time>
      </trkpt>
      <trkpt lat="46.7453" lon="5.68193">
        <ele>527.9</ele>
        <time>2017-05-21T10:58:47Z</time>
      </trkpt>
      <trkpt lat="46.74522" lon="5.682">
        <ele>527.42</ele>
        <time>2017-05-21T10:58:57Z</time>
      </trkpt>
      <trkpt lat="46.74516" lon="5.68203">
        <ele>526.94</ele>
        <time>2017-05-21T10:59:10Z</time>
      </trkpt>
      <trkpt lat="46.74503" lon="5.68211">
        <ele>526.46</ele>
        <time>2017-05-21T10:59:24Z</time>
      </trkpt>
      <trkpt lat="46.74493" lon="5.68219">
        <ele>526.46</ele>
        <time>2017-05-21T10:59:36Z</time>
      </trkpt>
      <trkpt lat="46.74489" lon="5.68225">
        <ele>525.5</ele>
        <time>2017-05-21T10:59:43Z</time>
      </trkpt>
      <trkpt lat="46.7448" lon="5.68233">
        <ele>526.46</ele>
        <time>2017-05-21T10:59:51Z</time>
      </trkpt>
      <trkpt lat="46.74477" lon="5.68234">
        <ele>524.54</ele>
        <time>2017-05-21T10:59:54Z</time>
      </trkpt>
      <trkpt lat="46.74466" lon="5.68238">
        <ele>524.54</ele>
        <time>2017-05-21T11:00:06Z</time>
      </trkpt>
      <trkpt lat="46.74463" lon="5.68241">
        <ele>525.5</ele>
        <time>2017-05-21T11:00:11Z</time>
      </trkpt>
      <trkpt lat="46.74457" lon="5.68244">
        <ele>525.98</ele>
        <time>2017-05-21T11:00:18Z</time>
      </trkpt>
      <trkpt lat="46.74445" lon="5.68246">
        <ele>525.98</ele>
        <time>2017-05-21T11:00:30Z</time>
      </trkpt>
      <trkpt lat="46.74444" lon="5.68246">
        <ele>526.46</ele>
        <time>2017-05-21T11:00:31Z</time>
      </trkpt>
      <trkpt lat="46.74434" lon="5.68256">
        <ele>526.46</ele>
        <time>2017-05-21T11:00:45Z</time>
      </trkpt>
      <trkpt lat="46.74431" lon="5.68272">
        <ele>526.94</ele>
        <time>2017-05-21T11:00:57Z</time>
      </trkpt>
      <trkpt lat="46.7443" lon="5.68274">
        <ele>526.94</ele>
        <time>2017-05-21T11:01:11Z</time>
      </trkpt>
      <trkpt lat="46.74429" lon="5.68275">
        <ele>526.94</ele>
        <time>2017-05-21T11:01:23Z</time>
      </trkpt>
      <trkpt lat="46.74429" lon="5.68277">
        <ele>526.94</ele>
        <time>2017-05-21T11:01:38Z</time>
      </trkpt>
      <trkpt lat="46.74428" lon="5.68277">
        <ele>526.94</ele>
        <time>2017-05-21T11:01:51Z</time>
      </trkpt>
      <trkpt lat="46.7443" lon="5.68277">
        <ele>526.46</ele>
        <time>2017-05-21T11:02:07Z</time>
      </trkpt>
      <trkpt lat="46.74428" lon="5.68278">
        <ele>526.46</ele>
        <time>2017-05-21T11:02:19Z</time>
      </trkpt>
      <trkpt lat="46.74426" lon="5.68287">
        <ele>526.46</ele>
        <time>2017-05-21T11:02:30Z</time>
      </trkpt>
      <trkpt lat="46.74426" lon="5.6829">
        <ele>526.94</ele>
        <time>2017-05-21T11:02:33Z</time>
      </trkpt>
      <trkpt lat="46.74424" lon="5.68297">
        <ele>526.94</ele>
        <time>2017-05-21T11:02:38Z</time>
      </trkpt>
      <trkpt lat="46.74423" lon="5.68306">
        <ele>526.94</ele>
        <time>2017-05-21T11:02:53Z</time>
      </trkpt>
      <trkpt lat="46.74426" lon="5.68315">
        <ele>527.42</ele>
        <time>2017-05-21T11:03:05Z</time>
      </trkpt>
      <trkpt lat="46.74428" lon="5.68325">
        <ele>528.38</ele>
        <time>2017-05-21T11:03:16Z</time>
      </trkpt>
      <trkpt lat="46.74428" lon="5.68344">
        <ele>528.38</ele>
        <time>2017-05-21T11:03:29Z</time>
      </trkpt>
      <trkpt lat="46.74427" lon="5.68355">
        <ele>528.38</ele>
        <time>2017-05-21T11:03:36Z</time>
      </trkpt>
      <trkpt lat="46.74428" lon="5.68358">
        <ele>528.86</ele>
        <time>2017-05-21T11:03:49Z</time>
      </trkpt>
      <trkpt lat="46.74428" lon="5.68361">
        <ele>529.34</ele>
        <time>2017-05-21T11:04:09Z</time>
      </trkpt>
      <trkpt lat="46.74429" lon="5.68364">
        <ele>529.34</ele>
        <time>2017-05-21T11:04:29Z</time>
      </trkpt>
      <trkpt lat="46.74429" lon="5.68366">
        <ele>529.34</ele>
        <time>2017-05-21T11:04:47Z</time>
      </trkpt>
      <trkpt lat="46.74429" lon="5.68367">
        <ele>528.86</ele>
        <time>2017-05-21T11:05:03Z</time>
      </trkpt>
      <trkpt lat="46.74426" lon="5.68366">
        <ele>527.9</ele>
        <time>2017-05-21T11:05:16Z</time>
      </trkpt>
      <trkpt lat="46.74416" lon="5.68358">
        <ele>526.94</ele>
        <time>2017-05-21T11:05:32Z</time>
      </trkpt>
      <trkpt lat="46.74405" lon="5.68345">
        <ele>525.98</ele>
        <time>2017-05-21T11:05:46Z</time>
      </trkpt>
      <trkpt lat="46.74396" lon="5.6834">
        <ele>525.5</ele>
        <time>2017-05-21T11:05:53Z</time>
      </trkpt>
      <trkpt lat="46.74375" lon="5.6832">
        <ele>523.58</ele>
        <time>2017-05-21T11:06:07Z</time>
      </trkpt>
      <trkpt lat="46.74363" lon="5.6831">
        <ele>523.58</ele>
        <time>2017-05-21T11:06:22Z</time>
      </trkpt>
      <trkpt lat="46.74355" lon="5.68306">
        <ele>523.58</ele>
        <time>2017-05-21T11:06:33Z</time>
      </trkpt>
      <trkpt lat="46.74352" lon="5.68304">
        <ele>523.58</ele>
        <time>2017-05-21T11:06:43Z</time>
      </trkpt>
      <trkpt lat="46.7434" lon="5.68297">
        <ele>523.09</ele>
        <time>2017-05-21T11:06:54Z</time>
      </trkpt>
      <trkpt lat="46.74325" lon="5.6829">
        <ele>524.06</ele>
        <time>2017-05-21T11:07:07Z</time>
      </trkpt>
      <trkpt lat="46.74311" lon="5.68287">
        <ele>524.06</ele>
        <time>2017-05-21T11:07:17Z</time>
      </trkpt>
      <trkpt lat="46.74295" lon="5.68291">
        <ele>524.54</ele>
        <time>2017-05-21T11:07:28Z</time>
      </trkpt>
      <trkpt lat="46.74283" lon="5.68294">
        <ele>525.02</ele>
        <time>2017-05-21T11:07:41Z</time>
      </trkpt>
      <trkpt lat="46.74272" lon="5.683">
        <ele>525.02</ele>
        <time>2017-05-21T11:07:54Z</time>
      </trkpt>
      <trkpt lat="46.7426" lon="5.68307">
        <ele>525.5</ele>
        <time>2017-05-21T11:08:07Z</time>
      </trkpt>
      <trkpt lat="46.74247" lon="5.68314">
        <ele>526.46</ele>
        <time>2017-05-21T11:08:21Z</time>
      </trkpt>
      <trkpt lat="46.74235" lon="5.68321">
        <ele>526.46</ele>
        <time>2017-05-21T11:08:34Z</time>
      </trkpt>
      <trkpt lat="46.7423" lon="5.68324">
        <ele>526.46</ele>
        <time>2017-05-21T11:08:56Z</time>
      </trkpt>
      <trkpt lat="46.74227" lon="5.68324">
        <ele>526.46</ele>
        <time>2017-05-21T11:08:59Z</time>
      </trkpt>
      <trkpt lat="46.74213" lon="5.68326">
        <ele>526.94</ele>
        <time>2017-05-21T11:09:12Z</time>
      </trkpt>
      <trkpt lat="46.74211" lon="5.68326">
        <ele>526.94</ele>
        <time>2017-05-21T11:09:14Z</time>
      </trkpt>
      <trkpt lat="46.74208" lon="5.68326">
        <ele>526.46</ele>
        <time>2017-05-21T11:09:17Z</time>
      </trkpt>
      <trkpt lat="46.74201" lon="5.68327">
        <ele>525.98</ele>
        <time>2017-05-21T11:09:31Z</time>
      </trkpt>
      <trkpt lat="46.74188" lon="5.68327">
        <ele>525.5</ele>
        <time>2017-05-21T11:09:43Z</time>
      </trkpt>
      <trkpt lat="46.74171" lon="5.68327">
        <ele>525.5</ele>
        <time>2017-05-21T11:09:57Z</time>
      </trkpt>
      <trkpt lat="46.74169" lon="5.68326">
        <ele>525.5</ele>
        <time>2017-05-21T11:10:10Z</time>
      </trkpt>
      <trkpt lat="46.7417" lon="5.68324">
        <ele>525.98</ele>
        <time>2017-05-21T11:10:23Z</time>
      </trkpt>
      <trkpt lat="46.74172" lon="5.68309">
        <ele>525.5</ele>
        <time>2017-05-21T11:10:34Z</time>
      </trkpt>
      <trkpt lat="46.74171" lon="5.68304">
        <ele>525.5</ele>
        <time>2017-05-21T11:10:37Z</time>
      </trkpt>
      <trkpt lat="46.74173" lon="5.68286">
        <ele>525.5</ele>
        <time>2017-05-21T11:10:52Z</time>
      </trkpt>
      <trkpt lat="46.74173" lon="5.68284">
        <ele>525.98</ele>
        <time>2017-05-21T11:11:14Z</time>
      </trkpt>
      <trkpt lat="46.74173" lon="5.68283">
        <ele>525.02</ele>
        <time>2017-05-21T11:11:36Z</time>
      </trkpt>
      <trkpt lat="46.74173" lon="5.68284">
        <ele>524.54</ele>
        <time>2017-05-21T11:11:58Z</time>
      </trkpt>
      <trkpt lat="46.74173" lon="5.68283">
        <ele>524.54</ele>
        <time>2017-05-21T11:12:13Z</time>
      </trkpt>
      <trkpt lat="46.74173" lon="5.68289">
        <ele>524.54</ele>
        <time>2017-05-21T11:12:17Z</time>
      </trkpt>
      <trkpt lat="46.74173" lon="5.68303">
        <ele>525.02</ele>
        <time>2017-05-21T11:12:25Z</time>
      </trkpt>
      <trkpt lat="46.74172" lon="5.68322">
        <ele>524.54</ele>
        <time>2017-05-21T11:12:39Z</time>
      </trkpt>
      <trkpt lat="46.74172" lon="5.68326">
        <ele>525.02</ele>
        <time>2017-05-21T11:12:53Z</time>
      </trkpt>
      <trkpt lat="46.74172" lon="5.68327">
        <ele>525.02</ele>
        <time>2017-05-21T11:13:08Z</time>
      </trkpt>
      <trkpt lat="46.74165" lon="5.68327">
        <ele>525.5</ele>
        <time>2017-05-21T11:13:14Z</time>
      </trkpt>
      <trkpt lat="46.74159" lon="5.68331">
        <ele>525.5</ele>
        <time>2017-05-21T11:13:19Z</time>
      </trkpt>
      <trkpt lat="46.74152" lon="5.68332">
        <ele>525.5</ele>
        <time>2017-05-21T11:13:24Z</time>
      </trkpt>
      <trkpt lat="46.74148" lon="5.68333">
        <ele>525.98</ele>
        <time>2017-05-21T11:13:27Z</time>
      </trkpt>
      <trkpt lat="46.74144" lon="5.68336">
        <ele>525.98</ele>
        <time>2017-05-21T11:13:31Z</time>
      </trkpt>
      <trkpt lat="46.7414" lon="5.68335">
        <ele>525.98</ele>
        <time>2017-05-21T11:13:35Z</time>
      </trkpt>
      <trkpt lat="46.74134" lon="5.68336">
        <ele>525.98</ele>
        <time>2017-05-21T11:13:40Z</time>
      </trkpt>
      <trkpt lat="46.74122" lon="5.68336">
        <ele>525.98</ele>
        <time>2017-05-21T11:13:49Z</time>
      </trkpt>
      <trkpt lat="46.74117" lon="5.68338">
        <ele>525.98</ele>
        <time>2017-05-21T11:13:54Z</time>
      </trkpt>
      <trkpt lat="46.74107" lon="5.68339">
        <ele>525.98</ele>
        <time>2017-05-21T11:14:06Z</time>
      </trkpt>
      <trkpt lat="46.74098" lon="5.68337">
        <ele>525.98</ele>
        <time>2017-05-21T11:14:13Z</time>
      </trkpt>
      <trkpt lat="46.74095" lon="5.68336">
        <ele>525.98</ele>
        <time>2017-05-21T11:14:15Z</time>
      </trkpt>
      <trkpt lat="46.7409" lon="5.68334">
        <ele>526.46</ele>
        <time>2017-05-21T11:14:19Z</time>
      </trkpt>
      <trkpt lat="46.74079" lon="5.6833">
        <ele>526.46</ele>
        <time>2017-05-21T11:14:28Z</time>
      </trkpt>
      <trkpt lat="46.74076" lon="5.68328">
        <ele>526.46</ele>
        <time>2017-05-21T11:14:31Z</time>
      </trkpt>
      <trkpt lat="46.74071" lon="5.68326">
        <ele>526.94</ele>
        <time>2017-05-21T11:14:36Z</time>
      </trkpt>
      <trkpt lat="46.74058" lon="5.68316">
        <ele>526.46</ele>
        <time>2017-05-21T11:14:46Z</time>
      </trkpt>
      <trkpt lat="46.74048" lon="5.68311">
        <ele>526.46</ele>
        <time>2017-05-21T11:14:53Z</time>
      </trkpt>
      <trkpt lat="46.74036" lon="5.683">
        <ele>525.98</ele>
        <time>2017-05-21T11:15:07Z</time>
      </trkpt>
      <trkpt lat="46.74024" lon="5.68285">
        <ele>525.5</ele>
        <time>2017-05-21T11:15:21Z</time>
      </trkpt>
      <trkpt lat="46.74011" lon="5.68265">
        <ele>525.02</ele>
        <time>2017-05-21T11:15:35Z</time>
      </trkpt>
      <trkpt lat="46.73997" lon="5.6825">
        <ele>524.54</ele>
        <time>2017-05-21T11:15:50Z</time>
      </trkpt>
      <trkpt lat="46.73996" lon="5.68249">
        <ele>524.54</ele>
        <time>2017-05-21T11:15:51Z</time>
      </trkpt>
      <trkpt lat="46.73989" lon="5.68243">
        <ele>524.54</ele>
        <time>2017-05-21T11:16:04Z</time>
      </trkpt>
      <trkpt lat="46.73989" lon="5.68243">
        <ele>524.54</ele>
        <time>2017-05-21T11:16:11Z</time>
      </trkpt>
      <trkpt lat="46.73981" lon="5.68245">
        <ele>525.02</ele>
        <time>2017-05-21T11:16:18Z</time>
      </trkpt>
      <trkpt lat="46.73963" lon="5.68243">
        <ele>525.98</ele>
        <time>2017-05-21T11:16:34Z</time>
      </trkpt>
      <trkpt lat="46.73946" lon="5.68242">
        <ele>525.98</ele>
        <time>2017-05-21T11:16:48Z</time>
      </trkpt>
      <trkpt lat="46.73936" lon="5.68239">
        <ele>525.98</ele>
        <time>2017-05-21T11:16:56Z</time>
      </trkpt>
      <trkpt lat="46.73924" lon="5.68225">
        <ele>525.5</ele>
        <time>2017-05-21T11:17:08Z</time>
      </trkpt>
      <trkpt lat="46.73917" lon="5.68205">
        <ele>524.54</ele>
        <time>2017-05-21T11:17:20Z</time>
      </trkpt>
      <trkpt lat="46.73908" lon="5.68184">
        <ele>523.58</ele>
        <time>2017-05-21T11:17:33Z</time>
      </trkpt>
      <trkpt lat="46.73898" lon="5.68165">
        <ele>522.61</ele>
        <time>2017-05-21T11:17:46Z</time>
      </trkpt>
      <trkpt lat="46.73889" lon="5.68153">
        <ele>522.61</ele>
        <time>2017-05-21T11:17:56Z</time>
      </trkpt>
      <trkpt lat="46.73878" lon="5.68146">
        <ele>523.58</ele>
        <time>2017-05-21T11:18:10Z</time>
      </trkpt>
      <trkpt lat="46.73877" lon="5.68145">
        <ele>523.09</ele>
        <time>2017-05-21T11:18:32Z</time>
      </trkpt>
      <trkpt lat="46.73877" lon="5.68145">
        <ele>523.58</ele>
        <time>2017-05-21T11:18:52Z</time>
      </trkpt>
      <trkpt lat="46.73876" lon="5.68144">
        <ele>523.58</ele>
        <time>2017-05-21T11:18:55Z</time>
      </trkpt>
      <trkpt lat="46.73874" lon="5.68142">
        <ele>523.58</ele>
        <time>2017-05-21T11:18:57Z</time>
      </trkpt>
      <trkpt lat="46.73868" lon="5.68137">
        <ele>523.58</ele>
        <time>2017-05-21T11:19:03Z</time>
      </trkpt>
      <trkpt lat="46.73856" lon="5.6812">
        <ele>523.58</ele>
        <time>2017-05-21T11:19:16Z</time>
      </trkpt>
      <trkpt lat="46.73848" lon="5.68102">
        <ele>523.58</ele>
        <time>2017-05-21T11:19:29Z</time>
      </trkpt>
      <trkpt lat="46.73846" lon="5.68087">
        <ele>523.58</ele>
        <time>2017-05-21T11:19:38Z</time>
      </trkpt>
      <trkpt lat="46.73847" lon="5.68061">
        <ele>523.58</ele>
        <time>2017-05-21T11:19:54Z</time>
      </trkpt>
      <trkpt lat="46.73847" lon="5.68033">
        <ele>524.06</ele>
        <time>2017-05-21T11:20:09Z</time>
      </trkpt>
      <trkpt lat="46.73847" lon="5.68012">
        <ele>524.06</ele>
        <time>2017-05-21T11:20:23Z</time>
      </trkpt>
      <trkpt lat="46.73847" lon="5.6801">
        <ele>523.58</ele>
        <time>2017-05-21T11:20:24Z</time>
      </trkpt>
      <trkpt lat="46.73848" lon="5.67998">
        <ele>524.54</ele>
        <time>2017-05-21T11:20:36Z</time>
      </trkpt>
      <trkpt lat="46.73847" lon="5.67997">
        <ele>524.06</ele>
        <time>2017-05-21T11:20:53Z</time>
      </trkpt>
      <trkpt lat="46.73847" lon="5.67996">
        <ele>524.54</ele>
        <time>2017-05-21T11:21:08Z</time>
      </trkpt>
      <trkpt lat="46.73847" lon="5.67995">
        <ele>524.54</ele>
        <time>2017-05-21T11:21:23Z</time>
      </trkpt>
      <trkpt lat="46.7385" lon="5.67987">
        <ele>525.02</ele>
        <time>2017-05-21T11:21:36Z</time>
      </trkpt>
      <trkpt lat="46.73853" lon="5.67969">
        <ele>524.54</ele>
        <time>2017-05-21T11:21:49Z</time>
      </trkpt>
      <trkpt lat="46.73853" lon="5.67963">
        <ele>524.54</ele>
        <time>2017-05-21T11:21:52Z</time>
      </trkpt>
      <trkpt lat="46.73857" lon="5.67939">
        <ele>524.54</ele>
        <time>2017-05-21T11:22:08Z</time>
      </trkpt>
      <trkpt lat="46.73861" lon="5.67924">
        <ele>524.06</ele>
        <time>2017-05-21T11:22:20Z</time>
      </trkpt>
      <trkpt lat="46.73862" lon="5.6792">
        <ele>524.06</ele>
        <time>2017-05-21T11:22:22Z</time>
      </trkpt>
      <trkpt lat="46.73867" lon="5.67912">
        <ele>524.06</ele>
        <time>2017-05-21T11:22:29Z</time>
      </trkpt>
      <trkpt lat="46.73872" lon="5.67887">
        <ele>523.58</ele>
        <time>2017-05-21T11:22:42Z</time>
      </trkpt>
      <trkpt lat="46.73873" lon="5.67877">
        <ele>524.06</ele>
        <time>2017-05-21T11:22:47Z</time>
      </trkpt>
      <trkpt lat="46.73875" lon="5.67871">
        <ele>524.06</ele>
        <time>2017-05-21T11:22:51Z</time>
      </trkpt>
      <trkpt lat="46.73879" lon="5.67851">
        <ele>523.09</ele>
        <time>2017-05-21T11:23:03Z</time>
      </trkpt>
      <trkpt lat="46.73884" lon="5.67827">
        <ele>523.09</ele>
        <time>2017-05-21T11:23:16Z</time>
      </trkpt>
      <trkpt lat="46.73887" lon="5.67814">
        <ele>523.58</ele>
        <time>2017-05-21T11:23:25Z</time>
      </trkpt>
      <trkpt lat="46.73891" lon="5.67803">
        <ele>524.54</ele>
        <time>2017-05-21T11:23:34Z</time>
      </trkpt>
      <trkpt lat="46.73891" lon="5.67795">
        <ele>524.06</ele>
        <time>2017-05-21T11:23:38Z</time>
      </trkpt>
      <trkpt lat="46.73893" lon="5.6779">
        <ele>524.54</ele>
        <time>2017-05-21T11:23:41Z</time>
      </trkpt>
      <trkpt lat="46.73896" lon="5.67777">
        <ele>524.54</ele>
        <time>2017-05-21T11:23:50Z</time>
      </trkpt>
      <trkpt lat="46.73899" lon="5.67764">
        <ele>525.02</ele>
        <time>2017-05-21T11:23:59Z</time>
      </trkpt>
      <trkpt lat="46.73904" lon="5.6775">
        <ele>525.98</ele>
        <time>2017-05-21T11:24:09Z</time>
      </trkpt>
      <trkpt lat="46.73907" lon="5.67731">
        <ele>525.98</ele>
        <time>2017-05-21T11:24:19Z</time>
      </trkpt>
      <trkpt lat="46.73906" lon="5.6772">
        <ele>525.98</ele>
        <time>2017-05-21T11:24:25Z</time>
      </trkpt>
      <trkpt lat="46.73905" lon="5.67708">
        <ele>525.5</ele>
        <time>2017-05-21T11:24:34Z</time>
      </trkpt>
      <trkpt lat="46.73909" lon="5.67695">
        <ele>525.5</ele>
        <time>2017-05-21T11:24:46Z</time>
      </trkpt>
      <trkpt lat="46.73913" lon="5.67694">
        <ele>525.5</ele>
        <time>2017-05-21T11:25:02Z</time>
      </trkpt>
      <trkpt lat="46.73913" lon="5.6769">
        <ele>525.5</ele>
        <time>2017-05-21T11:25:17Z</time>
      </trkpt>
      <trkpt lat="46.7391" lon="5.67688">
        <ele>525.5</ele>
        <time>2017-05-21T11:25:23Z</time>
      </trkpt>
      <trkpt lat="46.73904" lon="5.67687">
        <ele>525.5</ele>
        <time>2017-05-21T11:25:37Z</time>
      </trkpt>
      <trkpt lat="46.73902" lon="5.67686">
        <ele>525.98</ele>
        <time>2017-05-21T11:26:00Z</time>
      </trkpt>
      <trkpt lat="46.73894" lon="5.67681">
        <ele>525.98</ele>
        <time>2017-05-21T11:26:13Z</time>
      </trkpt>
      <trkpt lat="46.73893" lon="5.67682">
        <ele>525.98</ele>
        <time>2017-05-21T11:26:36Z</time>
      </trkpt>
      <trkpt lat="46.73891" lon="5.67681">
        <ele>525.98</ele>
        <time>2017-05-21T11:27:03Z</time>
      </trkpt>
      <trkpt lat="46.73898" lon="5.67688">
        <ele>525.98</ele>
        <time>2017-05-21T11:27:16Z</time>
      </trkpt>
      <trkpt lat="46.73909" lon="5.67686">
        <ele>525.5</ele>
        <time>2017-05-21T11:27:30Z</time>
      </trkpt>
      <trkpt lat="46.73912" lon="5.67684">
        <ele>525.02</ele>
        <time>2017-05-21T11:27:36Z</time>
      </trkpt>
      <trkpt lat="46.73916" lon="5.67677">
        <ele>524.54</ele>
        <time>2017-05-21T11:27:41Z</time>
      </trkpt>
      <trkpt lat="46.73916" lon="5.67671">
        <ele>525.02</ele>
        <time>2017-05-21T11:27:45Z</time>
      </trkpt>
      <trkpt lat="46.73916" lon="5.67665">
        <ele>524.54</ele>
        <time>2017-05-21T11:27:49Z</time>
      </trkpt>
      <trkpt lat="46.73917" lon="5.67654">
        <ele>524.06</ele>
        <time>2017-05-21T11:27:56Z</time>
      </trkpt>
      <trkpt lat="46.73923" lon="5.67631">
        <ele>524.06</ele>
        <time>2017-05-21T11:28:08Z</time>
      </trkpt>
      <trkpt lat="46.73925" lon="5.67617">
        <ele>523.58</ele>
        <time>2017-05-21T11:28:18Z</time>
      </trkpt>
      <trkpt lat="46.73929" lon="5.67596">
        <ele>522.61</ele>
        <time>2017-05-21T11:28:30Z</time>
      </trkpt>
      <trkpt lat="46.73931" lon="5.67577">
        <ele>521.65</ele>
        <time>2017-05-21T11:28:41Z</time>
      </trkpt>
      <trkpt lat="46.73932" lon="5.67574">
        <ele>521.17</ele>
        <time>2017-05-21T11:28:44Z</time>
      </trkpt>
      <trkpt lat="46.73935" lon="5.67566">
        <ele>520.69</ele>
        <time>2017-05-21T11:28:50Z</time>
      </trkpt>
      <trkpt lat="46.73948" lon="5.67549">
        <ele>520.21</ele>
        <time>2017-05-21T11:29:00Z</time>
      </trkpt>
      <trkpt lat="46.73952" lon="5.6754">
        <ele>519.25</ele>
        <time>2017-05-21T11:29:06Z</time>
      </trkpt>
      <trkpt lat="46.73959" lon="5.67521">
        <ele>518.29</ele>
        <time>2017-05-21T11:29:18Z</time>
      </trkpt>
      <trkpt lat="46.7396" lon="5.67519">
        <ele>517.81</ele>
        <time>2017-05-21T11:29:19Z</time>
      </trkpt>
      <trkpt lat="46.73967" lon="5.67501">
        <ele>517.33</ele>
        <time>2017-05-21T11:29:30Z</time>
      </trkpt>
      <trkpt lat="46.73976" lon="5.67486">
        <ele>516.85</ele>
        <time>2017-05-21T11:29:43Z</time>
      </trkpt>
      <trkpt lat="46.73977" lon="5.67484">
        <ele>516.37</ele>
        <time>2017-05-21T11:29:45Z</time>
      </trkpt>
      <trkpt lat="46.73993" lon="5.67467">
        <ele>515.88</ele>
        <time>2017-05-21T11:30:00Z</time>
      </trkpt>
      <trkpt lat="46.73995" lon="5.67466">
        <ele>515.88</ele>
        <time>2017-05-21T11:30:01Z</time>
      </trkpt>
      <trkpt lat="46.74007" lon="5.67452">
        <ele>515.88</ele>
        <time>2017-05-21T11:30:16Z</time>
      </trkpt>
      <trkpt lat="46.74014" lon="5.67444">
        <ele>515.88</ele>
        <time>2017-05-21T11:30:24Z</time>
      </trkpt>
      <trkpt lat="46.74036" lon="5.6743">
        <ele>515.4</ele>
        <time>2017-05-21T11:30:42Z</time>
      </trkpt>
      <trkpt lat="46.74048" lon="5.67429">
        <ele>516.37</ele>
        <time>2017-05-21T11:30:52Z</time>
      </trkpt>
      <trkpt lat="46.74066" lon="5.67431">
        <ele>515.4</ele>
        <time>2017-05-21T11:31:06Z</time>
      </trkpt>
      <trkpt lat="46.7408" lon="5.67431">
        <ele>514.92</ele>
        <time>2017-05-21T11:31:19Z</time>
      </trkpt>
      <trkpt lat="46.74087" lon="5.6743">
        <ele>515.4</ele>
        <time>2017-05-21T11:31:26Z</time>
      </trkpt>
      <trkpt lat="46.74108" lon="5.67426">
        <ele>515.88</ele>
        <time>2017-05-21T11:31:40Z</time>
      </trkpt>
      <trkpt lat="46.7411" lon="5.67425">
        <ele>515.4</ele>
        <time>2017-05-21T11:31:42Z</time>
      </trkpt>
      <trkpt lat="46.74118" lon="5.6742">
        <ele>514.92</ele>
        <time>2017-05-21T11:31:48Z</time>
      </trkpt>
      <trkpt lat="46.74123" lon="5.67416">
        <ele>515.4</ele>
        <time>2017-05-21T11:31:53Z</time>
      </trkpt>
      <trkpt lat="46.74128" lon="5.67409">
        <ele>515.4</ele>
        <time>2017-05-21T11:31:59Z</time>
      </trkpt>
      <trkpt lat="46.7414" lon="5.67403">
        <ele>515.88</ele>
        <time>2017-05-21T11:32:09Z</time>
      </trkpt>
      <trkpt lat="46.74152" lon="5.67387">
        <ele>516.37</ele>
        <time>2017-05-21T11:32:23Z</time>
      </trkpt>
      <trkpt lat="46.74153" lon="5.67383">
        <ele>516.37</ele>
        <time>2017-05-21T11:32:26Z</time>
      </trkpt>
      <trkpt lat="46.74167" lon="5.67371">
        <ele>516.37</ele>
        <time>2017-05-21T11:32:39Z</time>
      </trkpt>
      <trkpt lat="46.74186" lon="5.67358">
        <ele>517.33</ele>
        <time>2017-05-21T11:32:55Z</time>
      </trkpt>
      <trkpt lat="46.74203" lon="5.67347">
        <ele>517.81</ele>
        <time>2017-05-21T11:33:08Z</time>
      </trkpt>
      <trkpt lat="46.74215" lon="5.67344">
        <ele>516.85</ele>
        <time>2017-05-21T11:33:22Z</time>
      </trkpt>
      <trkpt lat="46.74235" lon="5.67348">
        <ele>515.88</ele>
        <time>2017-05-21T11:33:37Z</time>
      </trkpt>
      <trkpt lat="46.74252" lon="5.67352">
        <ele>515.4</ele>
        <time>2017-05-21T11:33:51Z</time>
      </trkpt>
      <trkpt lat="46.74272" lon="5.67353">
        <ele>514.44</ele>
        <time>2017-05-21T11:34:05Z</time>
      </trkpt>
      <trkpt lat="46.74289" lon="5.67351">
        <ele>514.44</ele>
        <time>2017-05-21T11:34:19Z</time>
      </trkpt>
      <trkpt lat="46.74308" lon="5.67345">
        <ele>514.92</ele>
        <time>2017-05-21T11:34:34Z</time>
      </trkpt>
      <trkpt lat="46.74318" lon="5.67342">
        <ele>515.4</ele>
        <time>2017-05-21T11:34:42Z</time>
      </trkpt>
      <trkpt lat="46.74331" lon="5.67336">
        <ele>514.92</ele>
        <time>2017-05-21T11:34:51Z</time>
      </trkpt>
      <trkpt lat="46.74341" lon="5.67326">
        <ele>514.44</ele>
        <time>2017-05-21T11:35:04Z</time>
      </trkpt>
      <trkpt lat="46.74343" lon="5.67325">
        <ele>514.44</ele>
        <time>2017-05-21T11:35:06Z</time>
      </trkpt>
      <trkpt lat="46.74353" lon="5.67322">
        <ele>513.96</ele>
        <time>2017-05-21T11:35:16Z</time>
      </trkpt>
      <trkpt lat="46.74362" lon="5.67329">
        <ele>513.48</ele>
        <time>2017-05-21T11:35:28Z</time>
      </trkpt>
      <trkpt lat="46.74369" lon="5.67338">
        <ele>513</ele>
        <time>2017-05-21T11:35:39Z</time>
      </trkpt>
      <trkpt lat="46.74379" lon="5.67332">
        <ele>512.04</ele>
        <time>2017-05-21T11:35:53Z</time>
      </trkpt>
      <trkpt lat="46.74385" lon="5.67331">
        <ele>512.04</ele>
        <time>2017-05-21T11:36:04Z</time>
      </trkpt>
      <trkpt lat="46.74396" lon="5.67315">
        <ele>510.6</ele>
        <time>2017-05-21T11:36:18Z</time>
      </trkpt>
      <trkpt lat="46.74397" lon="5.67314">
        <ele>511.08</ele>
        <time>2017-05-21T11:36:19Z</time>
      </trkpt>
      <trkpt lat="46.744" lon="5.67308">
        <ele>510.6</ele>
        <time>2017-05-21T11:36:23Z</time>
      </trkpt>
      <trkpt lat="46.74404" lon="5.67303">
        <ele>509.64</ele>
        <time>2017-05-21T11:36:27Z</time>
      </trkpt>
      <trkpt lat="46.7441" lon="5.67299">
        <ele>509.16</ele>
        <time>2017-05-21T11:36:32Z</time>
      </trkpt>
      <trkpt lat="46.74424" lon="5.67276">
        <ele>507.71</ele>
        <time>2017-05-21T11:36:47Z</time>
      </trkpt>
      <trkpt lat="46.74427" lon="5.6727">
        <ele>507.23</ele>
        <time>2017-05-21T11:36:50Z</time>
      </trkpt>
      <trkpt lat="46.74435" lon="5.67247">
        <ele>506.27</ele>
        <time>2017-05-21T11:37:03Z</time>
      </trkpt>
      <trkpt lat="46.74441" lon="5.67232">
        <ele>505.79</ele>
        <time>2017-05-21T11:37:17Z</time>
      </trkpt>
      <trkpt lat="46.74447" lon="5.67218">
        <ele>507.23</ele>
        <time>2017-05-21T11:37:29Z</time>
      </trkpt>
      <trkpt lat="46.74449" lon="5.67197">
        <ele>508.19</ele>
        <time>2017-05-21T11:37:42Z</time>
      </trkpt>
      <trkpt lat="46.74445" lon="5.67181">
        <ele>510.12</ele>
        <time>2017-05-21T11:37:56Z</time>
      </trkpt>
      <trkpt lat="46.74443" lon="5.67176">
        <ele>510.6</ele>
        <time>2017-05-21T11:37:59Z</time>
      </trkpt>
      <trkpt lat="46.74434" lon="5.67159">
        <ele>512.04</ele>
        <time>2017-05-21T11:38:13Z</time>
      </trkpt>
      <trkpt lat="46.74436" lon="5.67145">
        <ele>513.48</ele>
        <time>2017-05-21T11:38:24Z</time>
      </trkpt>
      <trkpt lat="46.74437" lon="5.6714">
        <ele>513.96</ele>
        <time>2017-05-21T11:38:36Z</time>
      </trkpt>
      <trkpt lat="46.74437" lon="5.6714">
        <ele>513.48</ele>
        <time>2017-05-21T11:38:56Z</time>
      </trkpt>
      <trkpt lat="46.74437" lon="5.67146">
        <ele>513</ele>
        <time>2017-05-21T11:39:17Z</time>
      </trkpt>
      <trkpt lat="46.74435" lon="5.67151">
        <ele>512.52</ele>
        <time>2017-05-21T11:39:35Z</time>
      </trkpt>
      <trkpt lat="46.74439" lon="5.67163">
        <ele>511.08</ele>
        <time>2017-05-21T11:39:45Z</time>
      </trkpt>
      <trkpt lat="46.74445" lon="5.67182">
        <ele>509.64</ele>
        <time>2017-05-21T11:39:57Z</time>
      </trkpt>
      <trkpt lat="46.74448" lon="5.67189">
        <ele>508.19</ele>
        <time>2017-05-21T11:40:08Z</time>
      </trkpt>
      <trkpt lat="46.7445" lon="5.67192">
        <ele>508.19</ele>
        <time>2017-05-21T11:40:22Z</time>
      </trkpt>
      <trkpt lat="46.7445" lon="5.67203">
        <ele>507.71</ele>
        <time>2017-05-21T11:40:34Z</time>
      </trkpt>
      <trkpt lat="46.74448" lon="5.67214">
        <ele>506.75</ele>
        <time>2017-05-21T11:40:49Z</time>
      </trkpt>
      <trkpt lat="46.74444" lon="5.6722">
        <ele>506.75</ele>
        <time>2017-05-21T11:41:05Z</time>
      </trkpt>
      <trkpt lat="46.74445" lon="5.67229">
        <ele>505.31</ele>
        <time>2017-05-21T11:41:20Z</time>
      </trkpt>
      <trkpt lat="46.74453" lon="5.67235">
        <ele>502.43</ele>
        <time>2017-05-21T11:41:31Z</time>
      </trkpt>
      <trkpt lat="46.74465" lon="5.67249">
        <ele>499.54</ele>
        <time>2017-05-21T11:41:44Z</time>
      </trkpt>
      <trkpt lat="46.74464" lon="5.6726">
        <ele>498.1</ele>
        <time>2017-05-21T11:41:57Z</time>
      </trkpt>
      <trkpt lat="46.74463" lon="5.67272">
        <ele>495.22</ele>
        <time>2017-05-21T11:42:10Z</time>
      </trkpt>
      <trkpt lat="46.74463" lon="5.67288">
        <ele>492.33</ele>
        <time>2017-05-21T11:42:25Z</time>
      </trkpt>
      <trkpt lat="46.7447" lon="5.67303">
        <ele>489.93</ele>
        <time>2017-05-21T11:42:37Z</time>
      </trkpt>
      <trkpt lat="46.74487" lon="5.67323">
        <ele>486.56</ele>
        <time>2017-05-21T11:42:52Z</time>
      </trkpt>
      <trkpt lat="46.74492" lon="5.67332">
        <ele>484.64</ele>
        <time>2017-05-21T11:43:04Z</time>
      </trkpt>
      <trkpt lat="46.74499" lon="5.67343">
        <ele>482.72</ele>
        <time>2017-05-21T11:43:16Z</time>
      </trkpt>
      <trkpt lat="46.74508" lon="5.67354">
        <ele>480.8</ele>
        <time>2017-05-21T11:43:28Z</time>
      </trkpt>
      <trkpt lat="46.74515" lon="5.67363">
        <ele>478.39</ele>
        <time>2017-05-21T11:43:43Z</time>
      </trkpt>
      <trkpt lat="46.74528" lon="5.67372">
        <ele>477.43</ele>
        <time>2017-05-21T11:43:57Z</time>
      </trkpt>
      <trkpt lat="46.74551" lon="5.67379">
        <ele>476.47</ele>
        <time>2017-05-21T11:44:10Z</time>
      </trkpt>
      <trkpt lat="46.74572" lon="5.67384">
        <ele>475.51</ele>
        <time>2017-05-21T11:44:25Z</time>
      </trkpt>
      <trkpt lat="46.74599" lon="5.67384">
        <ele>473.59</ele>
        <time>2017-05-21T11:44:36Z</time>
      </trkpt>
      <trkpt lat="46.74617" lon="5.67377">
        <ele>470.7</ele>
        <time>2017-05-21T11:44:48Z</time>
      </trkpt>
      <trkpt lat="46.74617" lon="5.67373">
        <ele>468.78</ele>
        <time>2017-05-21T11:44:56Z</time>
      </trkpt>
      <trkpt lat="46.74612" lon="5.67365">
        <ele>468.3</ele>
        <time>2017-05-21T11:45:00Z</time>
      </trkpt>
      <trkpt lat="46.74599" lon="5.67351">
        <ele>464.93</ele>
        <time>2017-05-21T11:45:14Z</time>
      </trkpt>
      <trkpt lat="46.74591" lon="5.67344">
        <ele>463.01</ele>
        <time>2017-05-21T11:45:27Z</time>
      </trkpt>
      <trkpt lat="46.74586" lon="5.67341">
        <ele>461.09</ele>
        <time>2017-05-21T11:45:38Z</time>
      </trkpt>
      <trkpt lat="46.74586" lon="5.67341">
        <ele>460.13</ele>
        <time>2017-05-21T11:45:41Z</time>
      </trkpt>
      <trkpt lat="46.7458" lon="5.67321">
        <ele>457.72</ele>
        <time>2017-05-21T11:45:54Z</time>
      </trkpt>
      <trkpt lat="46.74575" lon="5.673">
        <ele>456.76</ele>
        <time>2017-05-21T11:46:03Z</time>
      </trkpt>
      <trkpt lat="46.7457" lon="5.67273">
        <ele>454.84</ele>
        <time>2017-05-21T11:46:15Z</time>
      </trkpt>
      <trkpt lat="46.74565" lon="5.6726">
        <ele>452.92</ele>
        <time>2017-05-21T11:46:26Z</time>
      </trkpt>
      <trkpt lat="46.74563" lon="5.67253">
        <ele>451.48</ele>
        <time>2017-05-21T11:46:35Z</time>
      </trkpt>
      <trkpt lat="46.74558" lon="5.67247">
        <ele>449.55</ele>
        <time>2017-05-21T11:46:42Z</time>
      </trkpt>
      <trkpt lat="46.74556" lon="5.67235">
        <ele>447.63</ele>
        <time>2017-05-21T11:46:52Z</time>
      </trkpt>
      <trkpt lat="46.74553" lon="5.6723">
        <ele>445.71</ele>
        <time>2017-05-21T11:47:02Z</time>
      </trkpt>
      <trkpt lat="46.74546" lon="5.67209">
        <ele>443.31</ele>
        <time>2017-05-21T11:47:13Z</time>
      </trkpt>
      <trkpt lat="46.74546" lon="5.67198">
        <ele>441.38</ele>
        <time>2017-05-21T11:47:22Z</time>
      </trkpt>
      <trkpt lat="46.74547" lon="5.67188">
        <ele>438.98</ele>
        <time>2017-05-21T11:47:35Z</time>
      </trkpt>
      <trkpt lat="46.74547" lon="5.67185">
        <ele>437.54</ele>
        <time>2017-05-21T11:47:39Z</time>
      </trkpt>
      <trkpt lat="46.74544" lon="5.67173">
        <ele>435.13</ele>
        <time>2017-05-21T11:47:51Z</time>
      </trkpt>
      <trkpt lat="46.74533" lon="5.67161">
        <ele>433.21</ele>
        <time>2017-05-21T11:48:02Z</time>
      </trkpt>
      <trkpt lat="46.74528" lon="5.67148">
        <ele>430.33</ele>
        <time>2017-05-21T11:48:13Z</time>
      </trkpt>
      <trkpt lat="46.7453" lon="5.67135">
        <ele>427.44</ele>
        <time>2017-05-21T11:48:25Z</time>
      </trkpt>
      <trkpt lat="46.74523" lon="5.67123">
        <ele>426.48</ele>
        <time>2017-05-21T11:48:40Z</time>
      </trkpt>
      <trkpt lat="46.74526" lon="5.67121">
        <ele>425.52</ele>
        <time>2017-05-21T11:49:00Z</time>
      </trkpt>
      <trkpt lat="46.74539" lon="5.67123">
        <ele>422.64</ele>
        <time>2017-05-21T11:49:14Z</time>
      </trkpt>
      <trkpt lat="46.74541" lon="5.67129">
        <ele>419.75</ele>
        <time>2017-05-21T11:49:26Z</time>
      </trkpt>
      <trkpt lat="46.74549" lon="5.67141">
        <ele>417.35</ele>
        <time>2017-05-21T11:49:39Z</time>
      </trkpt>
      <trkpt lat="46.74563" lon="5.67157">
        <ele>414.95</ele>
        <time>2017-05-21T11:49:50Z</time>
      </trkpt>
      <trkpt lat="46.74567" lon="5.67165">
        <ele>413.02</ele>
        <time>2017-05-21T11:50:01Z</time>
      </trkpt>
      <trkpt lat="46.74567" lon="5.67178">
        <ele>410.62</ele>
        <time>2017-05-21T11:50:15Z</time>
      </trkpt>
      <trkpt lat="46.74574" lon="5.67186">
        <ele>408.22</ele>
        <time>2017-05-21T11:50:29Z</time>
      </trkpt>
      <trkpt lat="46.74583" lon="5.67194">
        <ele>405.81</ele>
        <time>2017-05-21T11:50:40Z</time>
      </trkpt>
      <trkpt lat="46.74599" lon="5.67201">
        <ele>403.41</ele>
        <time>2017-05-21T11:50:53Z</time>
      </trkpt>
      <trkpt lat="46.74623" lon="5.67207">
        <ele>401.01</ele>
        <time>2017-05-21T11:51:05Z</time>
      </trkpt>
      <trkpt lat="46.74646" lon="5.67205">
        <ele>398.12</ele>
        <time>2017-05-21T11:51:18Z</time>
      </trkpt>
      <trkpt lat="46.74662" lon="5.67205">
        <ele>395.72</ele>
        <time>2017-05-21T11:51:31Z</time>
      </trkpt>
      <trkpt lat="46.74675" lon="5.67208">
        <ele>393.32</ele>
        <time>2017-05-21T11:51:47Z</time>
      </trkpt>
      <trkpt lat="46.74682" lon="5.67208">
        <ele>391.39</ele>
        <time>2017-05-21T11:51:58Z</time>
      </trkpt>
      <trkpt lat="46.74691" lon="5.67208">
        <ele>388.51</ele>
        <time>2017-05-21T11:52:08Z</time>
      </trkpt>
      <trkpt lat="46.74699" lon="5.67219">
        <ele>385.63</ele>
        <time>2017-05-21T11:52:23Z</time>
      </trkpt>
      <trkpt lat="46.74709" lon="5.67229">
        <ele>382.74</ele>
        <time>2017-05-21T11:52:37Z</time>
      </trkpt>
      <trkpt lat="46.74713" lon="5.67242">
        <ele>379.38</ele>
        <time>2017-05-21T11:52:50Z</time>
      </trkpt>
      <trkpt lat="46.74718" lon="5.67241">
        <ele>376.49</ele>
        <time>2017-05-21T11:53:06Z</time>
      </trkpt>
      <trkpt lat="46.74734" lon="5.6723">
        <ele>374.09</ele>
        <time>2017-05-21T11:53:19Z</time>
      </trkpt>
      <trkpt lat="46.7475" lon="5.67215">
        <ele>371.21</ele>
        <time>2017-05-21T11:53:33Z</time>
      </trkpt>
      <trkpt lat="46.74752" lon="5.6721">
        <ele>370.24</ele>
        <time>2017-05-21T11:53:53Z</time>
      </trkpt>
      <trkpt lat="46.74759" lon="5.67203">
        <ele>368.32</ele>
        <time>2017-05-21T11:54:06Z</time>
      </trkpt>
      <trkpt lat="46.7476" lon="5.67203">
        <ele>365.44</ele>
        <time>2017-05-21T11:54:20Z</time>
      </trkpt>
      <trkpt lat="46.74767" lon="5.67212">
        <ele>362.07</ele>
        <time>2017-05-21T11:54:32Z</time>
      </trkpt>
      <trkpt lat="46.74773" lon="5.67229">
        <ele>359.67</ele>
        <time>2017-05-21T11:54:48Z</time>
      </trkpt>
      <trkpt lat="46.74774" lon="5.67237">
        <ele>356.79</ele>
        <time>2017-05-21T11:55:02Z</time>
      </trkpt>
      <trkpt lat="46.74776" lon="5.67256">
        <ele>353.42</ele>
        <time>2017-05-21T11:55:15Z</time>
      </trkpt>
      <trkpt lat="46.74784" lon="5.67267">
        <ele>350.54</ele>
        <time>2017-05-21T11:55:29Z</time>
      </trkpt>
      <trkpt lat="46.74792" lon="5.67279">
        <ele>348.13</ele>
        <time>2017-05-21T11:55:42Z</time>
      </trkpt>
      <trkpt lat="46.74803" lon="5.67289">
        <ele>345.25</ele>
        <time>2017-05-21T11:55:55Z</time>
      </trkpt>
      <trkpt lat="46.7481" lon="5.67282">
        <ele>342.85</ele>
        <time>2017-05-21T11:56:05Z</time>
      </trkpt>
      <trkpt lat="46.74818" lon="5.67267">
        <ele>339.96</ele>
        <time>2017-05-21T11:56:19Z</time>
      </trkpt>
      <trkpt lat="46.74824" lon="5.67252">
        <ele>337.08</ele>
        <time>2017-05-21T11:56:31Z</time>
      </trkpt>
      <trkpt lat="46.74827" lon="5.67234">
        <ele>334.68</ele>
        <time>2017-05-21T11:56:45Z</time>
      </trkpt>
      <trkpt lat="46.7483" lon="5.67217">
        <ele>332.75</ele>
        <time>2017-05-21T11:56:55Z</time>
      </trkpt>
      <trkpt lat="46.7484" lon="5.67198">
        <ele>329.39</ele>
        <time>2017-05-21T11:57:10Z</time>
      </trkpt>
      <trkpt lat="46.74842" lon="5.67194">
        <ele>328.91</ele>
        <time>2017-05-21T11:57:13Z</time>
      </trkpt>
      <trkpt lat="46.74848" lon="5.67171">
        <ele>326.5</ele>
        <time>2017-05-21T11:57:28Z</time>
      </trkpt>
      <trkpt lat="46.74852" lon="5.6715">
        <ele>325.06</ele>
        <time>2017-05-21T11:57:41Z</time>
      </trkpt>
      <trkpt lat="46.74852" lon="5.67134">
        <ele>323.62</ele>
        <time>2017-05-21T11:57:53Z</time>
      </trkpt>
      <trkpt lat="46.74853" lon="5.67133">
        <ele>323.62</ele>
        <time>2017-05-21T11:57:54Z</time>
      </trkpt>
      <trkpt lat="46.74854" lon="5.67116">
        <ele>323.14</ele>
        <time>2017-05-21T11:58:05Z</time>
      </trkpt>
      <trkpt lat="46.74857" lon="5.67092">
        <ele>322.18</ele>
        <time>2017-05-21T11:58:19Z</time>
      </trkpt>
      <trkpt lat="46.74857" lon="5.67088">
        <ele>322.18</ele>
        <time>2017-05-21T11:58:21Z</time>
      </trkpt>
      <trkpt lat="46.74858" lon="5.67067">
        <ele>321.7</ele>
        <time>2017-05-21T11:58:35Z</time>
      </trkpt>
      <trkpt lat="46.74857" lon="5.67061">
        <ele>321.7</ele>
        <time>2017-05-21T11:58:47Z</time>
      </trkpt>
      <trkpt lat="46.74855" lon="5.67048">
        <ele>321.7</ele>
        <time>2017-05-21T11:59:00Z</time>
      </trkpt>
      <trkpt lat="46.74856" lon="5.67048">
        <ele>321.7</ele>
        <time>2017-05-21T11:59:20Z</time>
      </trkpt>
      <trkpt lat="46.74852" lon="5.67038">
        <ele>321.7</ele>
        <time>2017-05-21T11:59:31Z</time>
      </trkpt>
      <trkpt lat="46.74853" lon="5.67028">
        <ele>321.7</ele>
        <time>2017-05-21T11:59:43Z</time>
      </trkpt>
      <trkpt lat="46.74856" lon="5.67026">
        <ele>321.7</ele>
        <time>2017-05-21T11:59:57Z</time>
      </trkpt>
      <trkpt lat="46.74855" lon="5.67022">
        <ele>321.7</ele>
        <time>2017-05-21T12:00:11Z</time>
      </trkpt>
      <trkpt lat="46.74854" lon="5.6702">
        <ele>321.22</ele>
        <time>2017-05-21T12:00:38Z</time>
      </trkpt>
      <trkpt lat="46.74854" lon="5.67019">
        <ele>321.7</ele>
        <time>2017-05-21T12:00:56Z</time>
      </trkpt>
      <trkpt lat="46.74854" lon="5.67018">
        <ele>321.7</ele>
        <time>2017-05-21T12:01:11Z</time>
      </trkpt>
      <trkpt lat="46.74853" lon="5.67008">
        <ele>321.7</ele>
        <time>2017-05-21T12:01:24Z</time>
      </trkpt>
      <trkpt lat="46.74852" lon="5.67002">
        <ele>320.74</ele>
        <time>2017-05-21T12:01:38Z</time>
      </trkpt>
      <trkpt lat="46.74852" lon="5.66999">
        <ele>321.22</ele>
        <time>2017-05-21T12:02:00Z</time>
      </trkpt>
      <trkpt lat="46.74852" lon="5.66995">
        <ele>321.22</ele>
        <time>2017-05-21T12:02:12Z</time>
      </trkpt>
      <trkpt lat="46.7485" lon="5.66989">
        <ele>320.74</ele>
        <time>2017-05-21T12:02:33Z</time>
      </trkpt>
      <trkpt lat="46.74843" lon="5.66967">
        <ele>321.22</ele>
        <time>2017-05-21T12:02:50Z</time>
      </trkpt>
      <trkpt lat="46.74839" lon="5.66954">
        <ele>320.74</ele>
        <time>2017-05-21T12:03:10Z</time>
      </trkpt>
      <trkpt lat="46.74837" lon="5.66936">
        <ele>321.22</ele>
        <time>2017-05-21T12:03:22Z</time>
      </trkpt>
      <trkpt lat="46.74833" lon="5.66924">
        <ele>321.7</ele>
        <time>2017-05-21T12:03:36Z</time>
      </trkpt>
      <trkpt lat="46.74832" lon="5.66921">
        <ele>321.22</ele>
        <time>2017-05-21T12:03:38Z</time>
      </trkpt>
      <trkpt lat="46.74825" lon="5.66913">
        <ele>321.22</ele>
        <time>2017-05-21T12:03:51Z</time>
      </trkpt>
      <trkpt lat="46.74823" lon="5.66911">
        <ele>321.7</ele>
        <time>2017-05-21T12:04:02Z</time>
      </trkpt>
      <trkpt lat="46.74822" lon="5.6691">
        <ele>321.22</ele>
        <time>2017-05-21T12:04:21Z</time>
      </trkpt>
      <trkpt lat="46.7482" lon="5.66911">
        <ele>321.7</ele>
        <time>2017-05-21T12:04:42Z</time>
      </trkpt>
      <trkpt lat="46.74819" lon="5.66911">
        <ele>321.22</ele>
        <time>2017-05-21T12:04:58Z</time>
      </trkpt>
      <trkpt lat="46.74818" lon="5.66906">
        <ele>321.7</ele>
        <time>2017-05-21T12:05:09Z</time>
      </trkpt>
      <trkpt lat="46.74804" lon="5.66884">
        <ele>320.26</ele>
        <time>2017-05-21T12:05:24Z</time>
      </trkpt>
      <trkpt lat="46.74796" lon="5.66867">
        <ele>319.3</ele>
        <time>2017-05-21T12:05:36Z</time>
      </trkpt>
      <trkpt lat="46.74793" lon="5.66863">
        <ele>318.33</ele>
        <time>2017-05-21T12:05:39Z</time>
      </trkpt>
      <trkpt lat="46.74788" lon="5.66852">
        <ele>318.33</ele>
        <time>2017-05-21T12:05:45Z</time>
      </trkpt>
      <trkpt lat="46.74784" lon="5.66842">
        <ele>317.85</ele>
        <time>2017-05-21T12:05:53Z</time>
      </trkpt>
      <trkpt lat="46.7478" lon="5.66831">
        <ele>317.37</ele>
        <time>2017-05-21T12:06:00Z</time>
      </trkpt>
      <trkpt lat="46.74779" lon="5.66826">
        <ele>317.37</ele>
        <time>2017-05-21T12:06:03Z</time>
      </trkpt>
      <trkpt lat="46.74778" lon="5.66816">
        <ele>317.37</ele>
        <time>2017-05-21T12:06:09Z</time>
      </trkpt>
      <trkpt lat="46.74776" lon="5.66799">
        <ele>316.89</ele>
        <time>2017-05-21T12:06:19Z</time>
      </trkpt>
      <trkpt lat="46.74768" lon="5.66775">
        <ele>316.89</ele>
        <time>2017-05-21T12:06:32Z</time>
      </trkpt>
      <trkpt lat="46.74765" lon="5.66759">
        <ele>316.41</ele>
        <time>2017-05-21T12:06:39Z</time>
      </trkpt>
      <trkpt lat="46.7476" lon="5.66734">
        <ele>315.45</ele>
        <time>2017-05-21T12:06:51Z</time>
      </trkpt>
      <trkpt lat="46.74755" lon="5.6671">
        <ele>314.97</ele>
        <time>2017-05-21T12:07:04Z</time>
      </trkpt>
      <trkpt lat="46.74752" lon="5.66693">
        <ele>314.97</ele>
        <time>2017-05-21T12:07:13Z</time>
      </trkpt>
      <trkpt lat="46.74748" lon="5.66672">
        <ele>314.97</ele>
        <time>2017-05-21T12:07:25Z</time>
      </trkpt>
      <trkpt lat="46.74743" lon="5.66647">
        <ele>314.49</ele>
        <time>2017-05-21T12:07:39Z</time>
      </trkpt>
      <trkpt lat="46.74739" lon="5.66629">
        <ele>314.01</ele>
        <time>2017-05-21T12:07:51Z</time>
      </trkpt>
      <trkpt lat="46.74736" lon="5.66617">
        <ele>313.53</ele>
        <time>2017-05-21T12:07:59Z</time>
      </trkpt>
      <trkpt lat="46.7473" lon="5.66603">
        <ele>314.01</ele>
        <time>2017-05-21T12:08:10Z</time>
      </trkpt>
      <trkpt lat="46.7473" lon="5.66602">
        <ele>313.53</ele>
        <time>2017-05-21T12:08:22Z</time>
      </trkpt>
      <trkpt lat="46.74731" lon="5.66603">
        <ele>314.01</ele>
        <time>2017-05-21T12:08:25Z</time>
      </trkpt>
      <trkpt lat="46.74732" lon="5.66597">
        <ele>314.01</ele>
        <time>2017-05-21T12:08:29Z</time>
      </trkpt>
      <trkpt lat="46.74731" lon="5.66594">
        <ele>313.53</ele>
        <time>2017-05-21T12:08:41Z</time>
      </trkpt>
      <trkpt lat="46.74729" lon="5.66595">
        <ele>313.53</ele>
        <time>2017-05-21T12:08:56Z</time>
      </trkpt>
      <trkpt lat="46.7473" lon="5.66596">
        <ele>313.53</ele>
        <time>2017-05-21T12:09:06Z</time>
      </trkpt>
      <trkpt lat="46.7473" lon="5.66596">
        <ele>318.81</ele>
        <time>2017-05-21T12:09:09Z</time>
      </trkpt>
      <trkpt lat="46.7473" lon="5.66596">
        <ele>314.49</ele>
        <time>2017-05-21T12:09:10Z</time>
      </trkpt>
      <trkpt lat="46.7473" lon="5.66597">
        <ele>314.01</ele>
        <time>2017-05-21T12:09:30Z</time>
      </trkpt>
      <trkpt lat="46.74731" lon="5.66597">
        <ele>314.01</ele>
        <time>2017-05-21T12:09:51Z</time>
      </trkpt>
      <trkpt lat="46.74732" lon="5.66597">
        <ele>313.53</ele>
        <time>2017-05-21T12:10:14Z</time>
      </trkpt>
    </trkseg>
  </trk>
</gpx>